<?xml version="1.0" encoding="UTF-8" standalone="no" ?>
<gpx xmlns="http://www.topografix.com/GPX/1/1" xmlns:xsi="http://www.w3.org/2001/XMLSchema-instance" xsi:schemaLocation="http://www.topografix.com/GPX/1/1 http://www.topografix.com/GPX/1/1/gpx.xsd" version="1.1" creator="VisuGPX - https://www.visugpx.com">
  <metadata>
    <name>Marche Nordique 22/09/2012 08h-10h</name>
    <desc><![CDATA[Beau parcours, malgré une météo un peu chagrine.]]></desc>
  </metadata>
  <trk>
    <name><![CDATA[22/09/12 08:05]]></name>
    <desc><![CDATA[]]></desc>
    <trkseg>
      <trkpt lat="47.32543" lon="4.95834">
        <ele>452</ele>
        <time>2012-09-22T06:06:58Z</time>
      </trkpt>
      <trkpt lat="47.32541" lon="4.95842">
        <ele>457</ele>
        <time>2012-09-22T06:06:59Z</time>
      </trkpt>
      <trkpt lat="47.32543" lon="4.95834">
        <ele>452</ele>
        <time>2012-09-22T06:07:00Z</time>
      </trkpt>
      <trkpt lat="47.3254" lon="4.9584">
        <ele>455</ele>
        <time>2012-09-22T06:07:10Z</time>
      </trkpt>
      <trkpt lat="47.3254" lon="4.9584">
        <ele>455</ele>
        <time>2012-09-22T06:07:10Z</time>
      </trkpt>
      <trkpt lat="47.3254" lon="4.9584">
        <ele>456</ele>
        <time>2012-09-22T06:08:01Z</time>
      </trkpt>
      <trkpt lat="47.32538" lon="4.95848">
        <ele>458</ele>
        <time>2012-09-22T06:09:03Z</time>
      </trkpt>
      <trkpt lat="47.32535" lon="4.95853">
        <ele>458</ele>
        <time>2012-09-22T06:09:08Z</time>
      </trkpt>
      <trkpt lat="47.32537" lon="4.95861">
        <ele>458</ele>
        <time>2012-09-22T06:12:19Z</time>
      </trkpt>
      <trkpt lat="47.32538" lon="4.95867">
        <ele>457</ele>
        <time>2012-09-22T06:12:22Z</time>
      </trkpt>
      <trkpt lat="47.32538" lon="4.95874">
        <ele>457</ele>
        <time>2012-09-22T06:12:25Z</time>
      </trkpt>
      <trkpt lat="47.32538" lon="4.95882">
        <ele>457</ele>
        <time>2012-09-22T06:12:29Z</time>
      </trkpt>
      <trkpt lat="47.32538" lon="4.95891">
        <ele>456</ele>
        <time>2012-09-22T06:12:33Z</time>
      </trkpt>
      <trkpt lat="47.32536" lon="4.95898">
        <ele>455</ele>
        <time>2012-09-22T06:12:36Z</time>
      </trkpt>
      <trkpt lat="47.32535" lon="4.95904">
        <ele>455</ele>
        <time>2012-09-22T06:12:39Z</time>
      </trkpt>
      <trkpt lat="47.32532" lon="4.95912">
        <ele>455</ele>
        <time>2012-09-22T06:12:42Z</time>
      </trkpt>
      <trkpt lat="47.3253" lon="4.9592">
        <ele>454</ele>
        <time>2012-09-22T06:12:45Z</time>
      </trkpt>
      <trkpt lat="47.32528" lon="4.95926">
        <ele>454</ele>
        <time>2012-09-22T06:12:48Z</time>
      </trkpt>
      <trkpt lat="47.32526" lon="4.95933">
        <ele>453</ele>
        <time>2012-09-22T06:12:51Z</time>
      </trkpt>
      <trkpt lat="47.32523" lon="4.9594">
        <ele>454</ele>
        <time>2012-09-22T06:12:55Z</time>
      </trkpt>
      <trkpt lat="47.32521" lon="4.95948">
        <ele>453</ele>
        <time>2012-09-22T06:12:58Z</time>
      </trkpt>
      <trkpt lat="47.32518" lon="4.95954">
        <ele>453</ele>
        <time>2012-09-22T06:13:01Z</time>
      </trkpt>
      <trkpt lat="47.32518" lon="4.95961">
        <ele>453</ele>
        <time>2012-09-22T06:13:04Z</time>
      </trkpt>
      <trkpt lat="47.32516" lon="4.95967">
        <ele>454</ele>
        <time>2012-09-22T06:13:07Z</time>
      </trkpt>
      <trkpt lat="47.32514" lon="4.95974">
        <ele>454</ele>
        <time>2012-09-22T06:13:10Z</time>
      </trkpt>
      <trkpt lat="47.32512" lon="4.9598">
        <ele>454</ele>
        <time>2012-09-22T06:13:13Z</time>
      </trkpt>
      <trkpt lat="47.32509" lon="4.95986">
        <ele>453</ele>
        <time>2012-09-22T06:13:16Z</time>
      </trkpt>
      <trkpt lat="47.32507" lon="4.95993">
        <ele>454</ele>
        <time>2012-09-22T06:13:19Z</time>
      </trkpt>
      <trkpt lat="47.32505" lon="4.95999">
        <ele>454</ele>
        <time>2012-09-22T06:13:22Z</time>
      </trkpt>
      <trkpt lat="47.32502" lon="4.96006">
        <ele>455</ele>
        <time>2012-09-22T06:13:25Z</time>
      </trkpt>
      <trkpt lat="47.32501" lon="4.96013">
        <ele>455</ele>
        <time>2012-09-22T06:13:28Z</time>
      </trkpt>
      <trkpt lat="47.32499" lon="4.9602">
        <ele>455</ele>
        <time>2012-09-22T06:13:31Z</time>
      </trkpt>
      <trkpt lat="47.32498" lon="4.96026">
        <ele>455</ele>
        <time>2012-09-22T06:13:34Z</time>
      </trkpt>
      <trkpt lat="47.32496" lon="4.96033">
        <ele>455</ele>
        <time>2012-09-22T06:13:37Z</time>
      </trkpt>
      <trkpt lat="47.32495" lon="4.96041">
        <ele>455</ele>
        <time>2012-09-22T06:13:40Z</time>
      </trkpt>
      <trkpt lat="47.32494" lon="4.96047">
        <ele>455</ele>
        <time>2012-09-22T06:13:43Z</time>
      </trkpt>
      <trkpt lat="47.32494" lon="4.96056">
        <ele>455</ele>
        <time>2012-09-22T06:13:47Z</time>
      </trkpt>
      <trkpt lat="47.32493" lon="4.96064">
        <ele>454</ele>
        <time>2012-09-22T06:13:50Z</time>
      </trkpt>
      <trkpt lat="47.32492" lon="4.96071">
        <ele>454</ele>
        <time>2012-09-22T06:13:53Z</time>
      </trkpt>
      <trkpt lat="47.3249" lon="4.96078">
        <ele>454</ele>
        <time>2012-09-22T06:13:56Z</time>
      </trkpt>
      <trkpt lat="47.32489" lon="4.96085">
        <ele>454</ele>
        <time>2012-09-22T06:13:59Z</time>
      </trkpt>
      <trkpt lat="47.32488" lon="4.96093">
        <ele>454</ele>
        <time>2012-09-22T06:14:02Z</time>
      </trkpt>
      <trkpt lat="47.32486" lon="4.961">
        <ele>454</ele>
        <time>2012-09-22T06:14:05Z</time>
      </trkpt>
      <trkpt lat="47.32486" lon="4.96107">
        <ele>454</ele>
        <time>2012-09-22T06:14:08Z</time>
      </trkpt>
      <trkpt lat="47.32485" lon="4.96115">
        <ele>453</ele>
        <time>2012-09-22T06:14:11Z</time>
      </trkpt>
      <trkpt lat="47.32484" lon="4.96121">
        <ele>453</ele>
        <time>2012-09-22T06:14:14Z</time>
      </trkpt>
      <trkpt lat="47.32482" lon="4.96128">
        <ele>453</ele>
        <time>2012-09-22T06:14:17Z</time>
      </trkpt>
      <trkpt lat="47.32482" lon="4.96135">
        <ele>453</ele>
        <time>2012-09-22T06:14:20Z</time>
      </trkpt>
      <trkpt lat="47.32481" lon="4.96142">
        <ele>453</ele>
        <time>2012-09-22T06:14:23Z</time>
      </trkpt>
      <trkpt lat="47.32481" lon="4.96149">
        <ele>454</ele>
        <time>2012-09-22T06:14:26Z</time>
      </trkpt>
      <trkpt lat="47.3248" lon="4.96158">
        <ele>453</ele>
        <time>2012-09-22T06:14:29Z</time>
      </trkpt>
      <trkpt lat="47.32479" lon="4.96166">
        <ele>453</ele>
        <time>2012-09-22T06:14:32Z</time>
      </trkpt>
      <trkpt lat="47.32479" lon="4.96174">
        <ele>454</ele>
        <time>2012-09-22T06:14:36Z</time>
      </trkpt>
      <trkpt lat="47.32478" lon="4.96181">
        <ele>453</ele>
        <time>2012-09-22T06:14:39Z</time>
      </trkpt>
      <trkpt lat="47.32478" lon="4.96188">
        <ele>453</ele>
        <time>2012-09-22T06:14:43Z</time>
      </trkpt>
      <trkpt lat="47.32477" lon="4.96196">
        <ele>453</ele>
        <time>2012-09-22T06:14:47Z</time>
      </trkpt>
      <trkpt lat="47.32476" lon="4.96203">
        <ele>453</ele>
        <time>2012-09-22T06:14:50Z</time>
      </trkpt>
      <trkpt lat="47.32476" lon="4.96211">
        <ele>453</ele>
        <time>2012-09-22T06:14:54Z</time>
      </trkpt>
      <trkpt lat="47.32475" lon="4.96219">
        <ele>454</ele>
        <time>2012-09-22T06:14:57Z</time>
      </trkpt>
      <trkpt lat="47.32473" lon="4.96226">
        <ele>454</ele>
        <time>2012-09-22T06:15:00Z</time>
      </trkpt>
      <trkpt lat="47.32473" lon="4.96233">
        <ele>453</ele>
        <time>2012-09-22T06:15:03Z</time>
      </trkpt>
      <trkpt lat="47.32472" lon="4.96241">
        <ele>454</ele>
        <time>2012-09-22T06:15:06Z</time>
      </trkpt>
      <trkpt lat="47.32472" lon="4.96249">
        <ele>454</ele>
        <time>2012-09-22T06:15:10Z</time>
      </trkpt>
      <trkpt lat="47.32471" lon="4.96257">
        <ele>454</ele>
        <time>2012-09-22T06:15:13Z</time>
      </trkpt>
      <trkpt lat="47.32471" lon="4.96265">
        <ele>453</ele>
        <time>2012-09-22T06:15:16Z</time>
      </trkpt>
      <trkpt lat="47.3247" lon="4.96271">
        <ele>453</ele>
        <time>2012-09-22T06:15:19Z</time>
      </trkpt>
      <trkpt lat="47.3247" lon="4.96278">
        <ele>453</ele>
        <time>2012-09-22T06:15:22Z</time>
      </trkpt>
      <trkpt lat="47.3247" lon="4.96286">
        <ele>453</ele>
        <time>2012-09-22T06:15:25Z</time>
      </trkpt>
      <trkpt lat="47.3247" lon="4.96293">
        <ele>453</ele>
        <time>2012-09-22T06:15:28Z</time>
      </trkpt>
      <trkpt lat="47.32469" lon="4.96301">
        <ele>453</ele>
        <time>2012-09-22T06:15:31Z</time>
      </trkpt>
      <trkpt lat="47.32469" lon="4.96309">
        <ele>452</ele>
        <time>2012-09-22T06:15:34Z</time>
      </trkpt>
      <trkpt lat="47.32469" lon="4.96316">
        <ele>453</ele>
        <time>2012-09-22T06:15:37Z</time>
      </trkpt>
      <trkpt lat="47.32468" lon="4.96322">
        <ele>453</ele>
        <time>2012-09-22T06:15:40Z</time>
      </trkpt>
      <trkpt lat="47.32467" lon="4.9633">
        <ele>453</ele>
        <time>2012-09-22T06:15:43Z</time>
      </trkpt>
      <trkpt lat="47.32467" lon="4.96338">
        <ele>453</ele>
        <time>2012-09-22T06:15:47Z</time>
      </trkpt>
      <trkpt lat="47.32466" lon="4.96345">
        <ele>453</ele>
        <time>2012-09-22T06:15:50Z</time>
      </trkpt>
      <trkpt lat="47.32466" lon="4.96352">
        <ele>453</ele>
        <time>2012-09-22T06:15:53Z</time>
      </trkpt>
      <trkpt lat="47.32466" lon="4.96361">
        <ele>454</ele>
        <time>2012-09-22T06:15:57Z</time>
      </trkpt>
      <trkpt lat="47.32465" lon="4.96368">
        <ele>454</ele>
        <time>2012-09-22T06:16:00Z</time>
      </trkpt>
      <trkpt lat="47.32465" lon="4.96376">
        <ele>454</ele>
        <time>2012-09-22T06:16:03Z</time>
      </trkpt>
      <trkpt lat="47.32465" lon="4.96385">
        <ele>455</ele>
        <time>2012-09-22T06:16:07Z</time>
      </trkpt>
      <trkpt lat="47.32465" lon="4.96392">
        <ele>454</ele>
        <time>2012-09-22T06:16:10Z</time>
      </trkpt>
      <trkpt lat="47.32465" lon="4.96399">
        <ele>454</ele>
        <time>2012-09-22T06:16:13Z</time>
      </trkpt>
      <trkpt lat="47.32464" lon="4.96407">
        <ele>455</ele>
        <time>2012-09-22T06:16:17Z</time>
      </trkpt>
      <trkpt lat="47.32464" lon="4.96416">
        <ele>455</ele>
        <time>2012-09-22T06:16:21Z</time>
      </trkpt>
      <trkpt lat="47.32464" lon="4.96424">
        <ele>457</ele>
        <time>2012-09-22T06:16:25Z</time>
      </trkpt>
      <trkpt lat="47.32463" lon="4.96433">
        <ele>457</ele>
        <time>2012-09-22T06:16:29Z</time>
      </trkpt>
      <trkpt lat="47.32463" lon="4.9644">
        <ele>457</ele>
        <time>2012-09-22T06:16:32Z</time>
      </trkpt>
      <trkpt lat="47.32463" lon="4.96448">
        <ele>456</ele>
        <time>2012-09-22T06:16:35Z</time>
      </trkpt>
      <trkpt lat="47.32462" lon="4.96458">
        <ele>455</ele>
        <time>2012-09-22T06:16:39Z</time>
      </trkpt>
      <trkpt lat="47.32463" lon="4.96466">
        <ele>455</ele>
        <time>2012-09-22T06:16:43Z</time>
      </trkpt>
      <trkpt lat="47.32463" lon="4.96473">
        <ele>455</ele>
        <time>2012-09-22T06:16:46Z</time>
      </trkpt>
      <trkpt lat="47.32462" lon="4.96481">
        <ele>456</ele>
        <time>2012-09-22T06:16:49Z</time>
      </trkpt>
      <trkpt lat="47.32462" lon="4.96488">
        <ele>454</ele>
        <time>2012-09-22T06:16:52Z</time>
      </trkpt>
      <trkpt lat="47.32461" lon="4.96494">
        <ele>454</ele>
        <time>2012-09-22T06:16:55Z</time>
      </trkpt>
      <trkpt lat="47.32461" lon="4.96502">
        <ele>454</ele>
        <time>2012-09-22T06:16:58Z</time>
      </trkpt>
      <trkpt lat="47.32461" lon="4.9651">
        <ele>455</ele>
        <time>2012-09-22T06:17:02Z</time>
      </trkpt>
      <trkpt lat="47.32461" lon="4.96517">
        <ele>455</ele>
        <time>2012-09-22T06:17:05Z</time>
      </trkpt>
      <trkpt lat="47.32461" lon="4.96526">
        <ele>455</ele>
        <time>2012-09-22T06:17:09Z</time>
      </trkpt>
      <trkpt lat="47.32461" lon="4.96534">
        <ele>456</ele>
        <time>2012-09-22T06:17:13Z</time>
      </trkpt>
      <trkpt lat="47.3246" lon="4.96541">
        <ele>455</ele>
        <time>2012-09-22T06:17:16Z</time>
      </trkpt>
      <trkpt lat="47.3246" lon="4.96548">
        <ele>455</ele>
        <time>2012-09-22T06:17:19Z</time>
      </trkpt>
      <trkpt lat="47.3246" lon="4.96556">
        <ele>455</ele>
        <time>2012-09-22T06:17:23Z</time>
      </trkpt>
      <trkpt lat="47.32459" lon="4.96563">
        <ele>455</ele>
        <time>2012-09-22T06:17:26Z</time>
      </trkpt>
      <trkpt lat="47.32458" lon="4.9657">
        <ele>455</ele>
        <time>2012-09-22T06:17:29Z</time>
      </trkpt>
      <trkpt lat="47.32458" lon="4.96578">
        <ele>455</ele>
        <time>2012-09-22T06:17:32Z</time>
      </trkpt>
      <trkpt lat="47.32458" lon="4.96585">
        <ele>455</ele>
        <time>2012-09-22T06:17:35Z</time>
      </trkpt>
      <trkpt lat="47.32458" lon="4.96594">
        <ele>455</ele>
        <time>2012-09-22T06:17:39Z</time>
      </trkpt>
      <trkpt lat="47.32458" lon="4.96601">
        <ele>456</ele>
        <time>2012-09-22T06:17:42Z</time>
      </trkpt>
      <trkpt lat="47.32457" lon="4.96609">
        <ele>456</ele>
        <time>2012-09-22T06:17:46Z</time>
      </trkpt>
      <trkpt lat="47.32457" lon="4.96616">
        <ele>457</ele>
        <time>2012-09-22T06:17:49Z</time>
      </trkpt>
      <trkpt lat="47.32457" lon="4.96623">
        <ele>457</ele>
        <time>2012-09-22T06:17:52Z</time>
      </trkpt>
      <trkpt lat="47.32457" lon="4.96631">
        <ele>457</ele>
        <time>2012-09-22T06:17:56Z</time>
      </trkpt>
      <trkpt lat="47.32457" lon="4.96638">
        <ele>457</ele>
        <time>2012-09-22T06:17:59Z</time>
      </trkpt>
      <trkpt lat="47.32457" lon="4.96646">
        <ele>456</ele>
        <time>2012-09-22T06:18:02Z</time>
      </trkpt>
      <trkpt lat="47.32457" lon="4.96653">
        <ele>456</ele>
        <time>2012-09-22T06:18:05Z</time>
      </trkpt>
      <trkpt lat="47.32456" lon="4.96661">
        <ele>457</ele>
        <time>2012-09-22T06:18:08Z</time>
      </trkpt>
      <trkpt lat="47.32456" lon="4.96669">
        <ele>457</ele>
        <time>2012-09-22T06:18:12Z</time>
      </trkpt>
      <trkpt lat="47.32456" lon="4.96676">
        <ele>456</ele>
        <time>2012-09-22T06:18:15Z</time>
      </trkpt>
      <trkpt lat="47.32456" lon="4.96683">
        <ele>455</ele>
        <time>2012-09-22T06:18:18Z</time>
      </trkpt>
      <trkpt lat="47.32456" lon="4.96691">
        <ele>455</ele>
        <time>2012-09-22T06:18:21Z</time>
      </trkpt>
      <trkpt lat="47.32457" lon="4.967">
        <ele>455</ele>
        <time>2012-09-22T06:18:25Z</time>
      </trkpt>
      <trkpt lat="47.32457" lon="4.96708">
        <ele>456</ele>
        <time>2012-09-22T06:18:29Z</time>
      </trkpt>
      <trkpt lat="47.32456" lon="4.96715">
        <ele>456</ele>
        <time>2012-09-22T06:18:32Z</time>
      </trkpt>
      <trkpt lat="47.32457" lon="4.96722">
        <ele>456</ele>
        <time>2012-09-22T06:18:35Z</time>
      </trkpt>
      <trkpt lat="47.32457" lon="4.96731">
        <ele>455</ele>
        <time>2012-09-22T06:18:39Z</time>
      </trkpt>
      <trkpt lat="47.32457" lon="4.96738">
        <ele>455</ele>
        <time>2012-09-22T06:18:42Z</time>
      </trkpt>
      <trkpt lat="47.32457" lon="4.96744">
        <ele>455</ele>
        <time>2012-09-22T06:18:45Z</time>
      </trkpt>
      <trkpt lat="47.32457" lon="4.96752">
        <ele>455</ele>
        <time>2012-09-22T06:18:48Z</time>
      </trkpt>
      <trkpt lat="47.32457" lon="4.9676">
        <ele>455</ele>
        <time>2012-09-22T06:18:52Z</time>
      </trkpt>
      <trkpt lat="47.32457" lon="4.96766">
        <ele>455</ele>
        <time>2012-09-22T06:18:55Z</time>
      </trkpt>
      <trkpt lat="47.32458" lon="4.96775">
        <ele>454</ele>
        <time>2012-09-22T06:18:59Z</time>
      </trkpt>
      <trkpt lat="47.32458" lon="4.96783">
        <ele>455</ele>
        <time>2012-09-22T06:19:03Z</time>
      </trkpt>
      <trkpt lat="47.32458" lon="4.9679">
        <ele>455</ele>
        <time>2012-09-22T06:19:06Z</time>
      </trkpt>
      <trkpt lat="47.32458" lon="4.96797">
        <ele>455</ele>
        <time>2012-09-22T06:19:09Z</time>
      </trkpt>
      <trkpt lat="47.32458" lon="4.96806">
        <ele>456</ele>
        <time>2012-09-22T06:19:13Z</time>
      </trkpt>
      <trkpt lat="47.32459" lon="4.96814">
        <ele>455</ele>
        <time>2012-09-22T06:19:17Z</time>
      </trkpt>
      <trkpt lat="47.3246" lon="4.96821">
        <ele>454</ele>
        <time>2012-09-22T06:19:20Z</time>
      </trkpt>
      <trkpt lat="47.3246" lon="4.9683">
        <ele>455</ele>
        <time>2012-09-22T06:19:24Z</time>
      </trkpt>
      <trkpt lat="47.3246" lon="4.96837">
        <ele>454</ele>
        <time>2012-09-22T06:19:27Z</time>
      </trkpt>
      <trkpt lat="47.3246" lon="4.96845">
        <ele>454</ele>
        <time>2012-09-22T06:19:30Z</time>
      </trkpt>
      <trkpt lat="47.32461" lon="4.96853">
        <ele>454</ele>
        <time>2012-09-22T06:19:34Z</time>
      </trkpt>
      <trkpt lat="47.32461" lon="4.96862">
        <ele>455</ele>
        <time>2012-09-22T06:19:38Z</time>
      </trkpt>
      <trkpt lat="47.32461" lon="4.96868">
        <ele>455</ele>
        <time>2012-09-22T06:19:41Z</time>
      </trkpt>
      <trkpt lat="47.32461" lon="4.96876">
        <ele>455</ele>
        <time>2012-09-22T06:19:44Z</time>
      </trkpt>
      <trkpt lat="47.32462" lon="4.96884">
        <ele>455</ele>
        <time>2012-09-22T06:19:47Z</time>
      </trkpt>
      <trkpt lat="47.32462" lon="4.96893">
        <ele>455</ele>
        <time>2012-09-22T06:19:51Z</time>
      </trkpt>
      <trkpt lat="47.32462" lon="4.969">
        <ele>455</ele>
        <time>2012-09-22T06:19:54Z</time>
      </trkpt>
      <trkpt lat="47.32462" lon="4.96908">
        <ele>455</ele>
        <time>2012-09-22T06:19:58Z</time>
      </trkpt>
      <trkpt lat="47.32463" lon="4.96915">
        <ele>455</ele>
        <time>2012-09-22T06:20:01Z</time>
      </trkpt>
      <trkpt lat="47.32463" lon="4.96923">
        <ele>455</ele>
        <time>2012-09-22T06:20:05Z</time>
      </trkpt>
      <trkpt lat="47.32463" lon="4.96931">
        <ele>454</ele>
        <time>2012-09-22T06:20:08Z</time>
      </trkpt>
      <trkpt lat="47.32463" lon="4.96938">
        <ele>453</ele>
        <time>2012-09-22T06:20:11Z</time>
      </trkpt>
      <trkpt lat="47.32463" lon="4.96945">
        <ele>453</ele>
        <time>2012-09-22T06:20:14Z</time>
      </trkpt>
      <trkpt lat="47.32464" lon="4.96953">
        <ele>452</ele>
        <time>2012-09-22T06:20:17Z</time>
      </trkpt>
      <trkpt lat="47.32464" lon="4.9696">
        <ele>451</ele>
        <time>2012-09-22T06:20:20Z</time>
      </trkpt>
      <trkpt lat="47.32464" lon="4.96969">
        <ele>452</ele>
        <time>2012-09-22T06:20:24Z</time>
      </trkpt>
      <trkpt lat="47.32464" lon="4.96977">
        <ele>452</ele>
        <time>2012-09-22T06:20:28Z</time>
      </trkpt>
      <trkpt lat="47.32463" lon="4.96985">
        <ele>452</ele>
        <time>2012-09-22T06:20:31Z</time>
      </trkpt>
      <trkpt lat="47.32464" lon="4.96992">
        <ele>452</ele>
        <time>2012-09-22T06:20:34Z</time>
      </trkpt>
      <trkpt lat="47.32463" lon="4.96999">
        <ele>452</ele>
        <time>2012-09-22T06:20:37Z</time>
      </trkpt>
      <trkpt lat="47.32463" lon="4.97007">
        <ele>452</ele>
        <time>2012-09-22T06:20:41Z</time>
      </trkpt>
      <trkpt lat="47.32463" lon="4.97016">
        <ele>453</ele>
        <time>2012-09-22T06:20:45Z</time>
      </trkpt>
      <trkpt lat="47.32464" lon="4.97024">
        <ele>452</ele>
        <time>2012-09-22T06:20:48Z</time>
      </trkpt>
      <trkpt lat="47.32464" lon="4.97031">
        <ele>452</ele>
        <time>2012-09-22T06:20:51Z</time>
      </trkpt>
      <trkpt lat="47.32464" lon="4.97039">
        <ele>452</ele>
        <time>2012-09-22T06:20:54Z</time>
      </trkpt>
      <trkpt lat="47.32465" lon="4.97046">
        <ele>451</ele>
        <time>2012-09-22T06:20:57Z</time>
      </trkpt>
      <trkpt lat="47.32465" lon="4.97054">
        <ele>451</ele>
        <time>2012-09-22T06:21:00Z</time>
      </trkpt>
      <trkpt lat="47.32465" lon="4.9706">
        <ele>451</ele>
        <time>2012-09-22T06:21:03Z</time>
      </trkpt>
      <trkpt lat="47.32465" lon="4.97068">
        <ele>451</ele>
        <time>2012-09-22T06:21:06Z</time>
      </trkpt>
      <trkpt lat="47.32465" lon="4.97076">
        <ele>451</ele>
        <time>2012-09-22T06:21:10Z</time>
      </trkpt>
      <trkpt lat="47.32465" lon="4.97084">
        <ele>450</ele>
        <time>2012-09-22T06:21:13Z</time>
      </trkpt>
      <trkpt lat="47.32465" lon="4.9709">
        <ele>450</ele>
        <time>2012-09-22T06:21:16Z</time>
      </trkpt>
      <trkpt lat="47.32465" lon="4.97098">
        <ele>449</ele>
        <time>2012-09-22T06:21:19Z</time>
      </trkpt>
      <trkpt lat="47.32465" lon="4.97105">
        <ele>450</ele>
        <time>2012-09-22T06:21:22Z</time>
      </trkpt>
      <trkpt lat="47.32465" lon="4.97113">
        <ele>450</ele>
        <time>2012-09-22T06:21:26Z</time>
      </trkpt>
      <trkpt lat="47.32466" lon="4.97121">
        <ele>450</ele>
        <time>2012-09-22T06:21:30Z</time>
      </trkpt>
      <trkpt lat="47.32466" lon="4.97128">
        <ele>450</ele>
        <time>2012-09-22T06:21:33Z</time>
      </trkpt>
      <trkpt lat="47.32466" lon="4.97136">
        <ele>450</ele>
        <time>2012-09-22T06:21:36Z</time>
      </trkpt>
      <trkpt lat="47.32466" lon="4.97143">
        <ele>449</ele>
        <time>2012-09-22T06:21:39Z</time>
      </trkpt>
      <trkpt lat="47.32466" lon="4.97152">
        <ele>450</ele>
        <time>2012-09-22T06:21:43Z</time>
      </trkpt>
      <trkpt lat="47.32467" lon="4.9716">
        <ele>450</ele>
        <time>2012-09-22T06:21:47Z</time>
      </trkpt>
      <trkpt lat="47.32467" lon="4.97168">
        <ele>449</ele>
        <time>2012-09-22T06:21:50Z</time>
      </trkpt>
      <trkpt lat="47.32468" lon="4.97175">
        <ele>449</ele>
        <time>2012-09-22T06:21:53Z</time>
      </trkpt>
      <trkpt lat="47.32468" lon="4.97182">
        <ele>448</ele>
        <time>2012-09-22T06:21:56Z</time>
      </trkpt>
      <trkpt lat="47.32468" lon="4.9719">
        <ele>447</ele>
        <time>2012-09-22T06:21:59Z</time>
      </trkpt>
      <trkpt lat="47.32469" lon="4.97197">
        <ele>447</ele>
        <time>2012-09-22T06:22:02Z</time>
      </trkpt>
      <trkpt lat="47.32469" lon="4.97206">
        <ele>447</ele>
        <time>2012-09-22T06:22:06Z</time>
      </trkpt>
      <trkpt lat="47.32469" lon="4.97214">
        <ele>448</ele>
        <time>2012-09-22T06:22:10Z</time>
      </trkpt>
      <trkpt lat="47.3247" lon="4.97221">
        <ele>448</ele>
        <time>2012-09-22T06:22:13Z</time>
      </trkpt>
      <trkpt lat="47.3247" lon="4.9723">
        <ele>448</ele>
        <time>2012-09-22T06:22:17Z</time>
      </trkpt>
      <trkpt lat="47.32471" lon="4.97238">
        <ele>448</ele>
        <time>2012-09-22T06:22:21Z</time>
      </trkpt>
      <trkpt lat="47.32472" lon="4.97245">
        <ele>448</ele>
        <time>2012-09-22T06:22:24Z</time>
      </trkpt>
      <trkpt lat="47.32473" lon="4.97253">
        <ele>447</ele>
        <time>2012-09-22T06:22:27Z</time>
      </trkpt>
      <trkpt lat="47.32473" lon="4.9726">
        <ele>447</ele>
        <time>2012-09-22T06:22:30Z</time>
      </trkpt>
      <trkpt lat="47.32474" lon="4.97266">
        <ele>448</ele>
        <time>2012-09-22T06:22:33Z</time>
      </trkpt>
      <trkpt lat="47.32474" lon="4.97274">
        <ele>447</ele>
        <time>2012-09-22T06:22:36Z</time>
      </trkpt>
      <trkpt lat="47.32474" lon="4.9728">
        <ele>448</ele>
        <time>2012-09-22T06:22:39Z</time>
      </trkpt>
      <trkpt lat="47.32476" lon="4.97287">
        <ele>448</ele>
        <time>2012-09-22T06:22:42Z</time>
      </trkpt>
      <trkpt lat="47.32476" lon="4.97294">
        <ele>448</ele>
        <time>2012-09-22T06:22:45Z</time>
      </trkpt>
      <trkpt lat="47.32477" lon="4.97304">
        <ele>448</ele>
        <time>2012-09-22T06:22:49Z</time>
      </trkpt>
      <trkpt lat="47.32478" lon="4.97312">
        <ele>449</ele>
        <time>2012-09-22T06:22:53Z</time>
      </trkpt>
      <trkpt lat="47.3248" lon="4.97319">
        <ele>449</ele>
        <time>2012-09-22T06:22:56Z</time>
      </trkpt>
      <trkpt lat="47.3248" lon="4.97327">
        <ele>448</ele>
        <time>2012-09-22T06:22:59Z</time>
      </trkpt>
      <trkpt lat="47.32482" lon="4.97334">
        <ele>448</ele>
        <time>2012-09-22T06:23:02Z</time>
      </trkpt>
      <trkpt lat="47.32482" lon="4.97341">
        <ele>448</ele>
        <time>2012-09-22T06:23:05Z</time>
      </trkpt>
      <trkpt lat="47.32483" lon="4.97348">
        <ele>448</ele>
        <time>2012-09-22T06:23:08Z</time>
      </trkpt>
      <trkpt lat="47.32485" lon="4.97355">
        <ele>449</ele>
        <time>2012-09-22T06:23:11Z</time>
      </trkpt>
      <trkpt lat="47.32486" lon="4.97362">
        <ele>450</ele>
        <time>2012-09-22T06:23:15Z</time>
      </trkpt>
      <trkpt lat="47.32487" lon="4.97369">
        <ele>450</ele>
        <time>2012-09-22T06:23:18Z</time>
      </trkpt>
      <trkpt lat="47.32488" lon="4.97375">
        <ele>451</ele>
        <time>2012-09-22T06:23:21Z</time>
      </trkpt>
      <trkpt lat="47.3249" lon="4.97383">
        <ele>451</ele>
        <time>2012-09-22T06:23:24Z</time>
      </trkpt>
      <trkpt lat="47.3249" lon="4.9739">
        <ele>450</ele>
        <time>2012-09-22T06:23:27Z</time>
      </trkpt>
      <trkpt lat="47.32491" lon="4.97397">
        <ele>450</ele>
        <time>2012-09-22T06:23:30Z</time>
      </trkpt>
      <trkpt lat="47.32492" lon="4.97403">
        <ele>450</ele>
        <time>2012-09-22T06:23:33Z</time>
      </trkpt>
      <trkpt lat="47.32493" lon="4.9741">
        <ele>450</ele>
        <time>2012-09-22T06:23:36Z</time>
      </trkpt>
      <trkpt lat="47.32494" lon="4.97417">
        <ele>450</ele>
        <time>2012-09-22T06:23:39Z</time>
      </trkpt>
      <trkpt lat="47.32495" lon="4.97425">
        <ele>451</ele>
        <time>2012-09-22T06:23:43Z</time>
      </trkpt>
      <trkpt lat="47.32496" lon="4.97431">
        <ele>450</ele>
        <time>2012-09-22T06:23:46Z</time>
      </trkpt>
      <trkpt lat="47.32496" lon="4.97439">
        <ele>449</ele>
        <time>2012-09-22T06:23:49Z</time>
      </trkpt>
      <trkpt lat="47.32498" lon="4.97446">
        <ele>449</ele>
        <time>2012-09-22T06:23:52Z</time>
      </trkpt>
      <trkpt lat="47.32499" lon="4.97453">
        <ele>449</ele>
        <time>2012-09-22T06:23:55Z</time>
      </trkpt>
      <trkpt lat="47.32499" lon="4.9746">
        <ele>449</ele>
        <time>2012-09-22T06:23:58Z</time>
      </trkpt>
      <trkpt lat="47.325" lon="4.97468">
        <ele>449</ele>
        <time>2012-09-22T06:24:02Z</time>
      </trkpt>
      <trkpt lat="47.325" lon="4.97475">
        <ele>448</ele>
        <time>2012-09-22T06:24:05Z</time>
      </trkpt>
      <trkpt lat="47.32502" lon="4.97483">
        <ele>448</ele>
        <time>2012-09-22T06:24:09Z</time>
      </trkpt>
      <trkpt lat="47.32502" lon="4.97492">
        <ele>448</ele>
        <time>2012-09-22T06:24:13Z</time>
      </trkpt>
      <trkpt lat="47.32502" lon="4.975">
        <ele>448</ele>
        <time>2012-09-22T06:24:17Z</time>
      </trkpt>
      <trkpt lat="47.32502" lon="4.97508">
        <ele>448</ele>
        <time>2012-09-22T06:24:21Z</time>
      </trkpt>
      <trkpt lat="47.32504" lon="4.97515">
        <ele>448</ele>
        <time>2012-09-22T06:24:24Z</time>
      </trkpt>
      <trkpt lat="47.32504" lon="4.97522">
        <ele>448</ele>
        <time>2012-09-22T06:24:28Z</time>
      </trkpt>
      <trkpt lat="47.32504" lon="4.9753">
        <ele>448</ele>
        <time>2012-09-22T06:24:33Z</time>
      </trkpt>
      <trkpt lat="47.32505" lon="4.97537">
        <ele>449</ele>
        <time>2012-09-22T06:24:37Z</time>
      </trkpt>
      <trkpt lat="47.32505" lon="4.97546">
        <ele>449</ele>
        <time>2012-09-22T06:24:41Z</time>
      </trkpt>
      <trkpt lat="47.32505" lon="4.97553">
        <ele>448</ele>
        <time>2012-09-22T06:24:44Z</time>
      </trkpt>
      <trkpt lat="47.32505" lon="4.9756">
        <ele>446</ele>
        <time>2012-09-22T06:24:47Z</time>
      </trkpt>
      <trkpt lat="47.32505" lon="4.97567">
        <ele>445</ele>
        <time>2012-09-22T06:24:51Z</time>
      </trkpt>
      <trkpt lat="47.32505" lon="4.97574">
        <ele>445</ele>
        <time>2012-09-22T06:24:55Z</time>
      </trkpt>
      <trkpt lat="47.32505" lon="4.97582">
        <ele>446</ele>
        <time>2012-09-22T06:24:59Z</time>
      </trkpt>
      <trkpt lat="47.32505" lon="4.9759">
        <ele>444</ele>
        <time>2012-09-22T06:25:03Z</time>
      </trkpt>
      <trkpt lat="47.32504" lon="4.97598">
        <ele>443</ele>
        <time>2012-09-22T06:25:06Z</time>
      </trkpt>
      <trkpt lat="47.32502" lon="4.97606">
        <ele>444</ele>
        <time>2012-09-22T06:25:10Z</time>
      </trkpt>
      <trkpt lat="47.32501" lon="4.97613">
        <ele>443</ele>
        <time>2012-09-22T06:25:14Z</time>
      </trkpt>
      <trkpt lat="47.32502" lon="4.9762">
        <ele>441</ele>
        <time>2012-09-22T06:25:17Z</time>
      </trkpt>
      <trkpt lat="47.32501" lon="4.97628">
        <ele>442</ele>
        <time>2012-09-22T06:25:22Z</time>
      </trkpt>
      <trkpt lat="47.32501" lon="4.97635">
        <ele>442</ele>
        <time>2012-09-22T06:25:26Z</time>
      </trkpt>
      <trkpt lat="47.32501" lon="4.97642">
        <ele>440</ele>
        <time>2012-09-22T06:25:30Z</time>
      </trkpt>
      <trkpt lat="47.325" lon="4.9765">
        <ele>439</ele>
        <time>2012-09-22T06:25:33Z</time>
      </trkpt>
      <trkpt lat="47.325" lon="4.97658">
        <ele>437</ele>
        <time>2012-09-22T06:25:37Z</time>
      </trkpt>
      <trkpt lat="47.32499" lon="4.97664">
        <ele>437</ele>
        <time>2012-09-22T06:25:41Z</time>
      </trkpt>
      <trkpt lat="47.325" lon="4.97672">
        <ele>435</ele>
        <time>2012-09-22T06:25:45Z</time>
      </trkpt>
      <trkpt lat="47.325" lon="4.9768">
        <ele>436</ele>
        <time>2012-09-22T06:25:49Z</time>
      </trkpt>
      <trkpt lat="47.32501" lon="4.97688">
        <ele>437</ele>
        <time>2012-09-22T06:25:53Z</time>
      </trkpt>
      <trkpt lat="47.325" lon="4.97696">
        <ele>436</ele>
        <time>2012-09-22T06:25:56Z</time>
      </trkpt>
      <trkpt lat="47.32499" lon="4.97704">
        <ele>434</ele>
        <time>2012-09-22T06:25:59Z</time>
      </trkpt>
      <trkpt lat="47.32498" lon="4.97712">
        <ele>433</ele>
        <time>2012-09-22T06:26:03Z</time>
      </trkpt>
      <trkpt lat="47.32499" lon="4.97719">
        <ele>433</ele>
        <time>2012-09-22T06:26:06Z</time>
      </trkpt>
      <trkpt lat="47.325" lon="4.97726">
        <ele>433</ele>
        <time>2012-09-22T06:26:09Z</time>
      </trkpt>
      <trkpt lat="47.32498" lon="4.97734">
        <ele>432</ele>
        <time>2012-09-22T06:26:13Z</time>
      </trkpt>
      <trkpt lat="47.32496" lon="4.97743">
        <ele>430</ele>
        <time>2012-09-22T06:26:16Z</time>
      </trkpt>
      <trkpt lat="47.32496" lon="4.97751">
        <ele>430</ele>
        <time>2012-09-22T06:26:20Z</time>
      </trkpt>
      <trkpt lat="47.32495" lon="4.97758">
        <ele>429</ele>
        <time>2012-09-22T06:26:23Z</time>
      </trkpt>
      <trkpt lat="47.32496" lon="4.97765">
        <ele>428</ele>
        <time>2012-09-22T06:26:26Z</time>
      </trkpt>
      <trkpt lat="47.32496" lon="4.97772">
        <ele>428</ele>
        <time>2012-09-22T06:26:29Z</time>
      </trkpt>
      <trkpt lat="47.32496" lon="4.97781">
        <ele>427</ele>
        <time>2012-09-22T06:26:33Z</time>
      </trkpt>
      <trkpt lat="47.32496" lon="4.9779">
        <ele>427</ele>
        <time>2012-09-22T06:26:36Z</time>
      </trkpt>
      <trkpt lat="47.32496" lon="4.97798">
        <ele>426</ele>
        <time>2012-09-22T06:26:40Z</time>
      </trkpt>
      <trkpt lat="47.32495" lon="4.97806">
        <ele>426</ele>
        <time>2012-09-22T06:26:43Z</time>
      </trkpt>
      <trkpt lat="47.32495" lon="4.97813">
        <ele>425</ele>
        <time>2012-09-22T06:26:46Z</time>
      </trkpt>
      <trkpt lat="47.32493" lon="4.97821">
        <ele>424</ele>
        <time>2012-09-22T06:26:50Z</time>
      </trkpt>
      <trkpt lat="47.32492" lon="4.9783">
        <ele>423</ele>
        <time>2012-09-22T06:26:54Z</time>
      </trkpt>
      <trkpt lat="47.32492" lon="4.97837">
        <ele>424</ele>
        <time>2012-09-22T06:26:57Z</time>
      </trkpt>
      <trkpt lat="47.32492" lon="4.97845">
        <ele>423</ele>
        <time>2012-09-22T06:27:01Z</time>
      </trkpt>
      <trkpt lat="47.32493" lon="4.97852">
        <ele>422</ele>
        <time>2012-09-22T06:27:05Z</time>
      </trkpt>
      <trkpt lat="47.32491" lon="4.97859">
        <ele>422</ele>
        <time>2012-09-22T06:27:08Z</time>
      </trkpt>
      <trkpt lat="47.32491" lon="4.97867">
        <ele>422</ele>
        <time>2012-09-22T06:27:11Z</time>
      </trkpt>
      <trkpt lat="47.3249" lon="4.97873">
        <ele>422</ele>
        <time>2012-09-22T06:27:14Z</time>
      </trkpt>
      <trkpt lat="47.32488" lon="4.9788">
        <ele>421</ele>
        <time>2012-09-22T06:27:17Z</time>
      </trkpt>
      <trkpt lat="47.32488" lon="4.97888">
        <ele>420</ele>
        <time>2012-09-22T06:27:20Z</time>
      </trkpt>
      <trkpt lat="47.32487" lon="4.97895">
        <ele>419</ele>
        <time>2012-09-22T06:27:23Z</time>
      </trkpt>
      <trkpt lat="47.32486" lon="4.97903">
        <ele>418</ele>
        <time>2012-09-22T06:27:27Z</time>
      </trkpt>
      <trkpt lat="47.32487" lon="4.9791">
        <ele>418</ele>
        <time>2012-09-22T06:27:30Z</time>
      </trkpt>
      <trkpt lat="47.32485" lon="4.97917">
        <ele>419</ele>
        <time>2012-09-22T06:27:33Z</time>
      </trkpt>
      <trkpt lat="47.32484" lon="4.97924">
        <ele>418</ele>
        <time>2012-09-22T06:27:36Z</time>
      </trkpt>
      <trkpt lat="47.32484" lon="4.97931">
        <ele>417</ele>
        <time>2012-09-22T06:27:39Z</time>
      </trkpt>
      <trkpt lat="47.32485" lon="4.97939">
        <ele>417</ele>
        <time>2012-09-22T06:27:43Z</time>
      </trkpt>
      <trkpt lat="47.32484" lon="4.97946">
        <ele>417</ele>
        <time>2012-09-22T06:27:46Z</time>
      </trkpt>
      <trkpt lat="47.32485" lon="4.97953">
        <ele>418</ele>
        <time>2012-09-22T06:27:49Z</time>
      </trkpt>
      <trkpt lat="47.32486" lon="4.97961">
        <ele>418</ele>
        <time>2012-09-22T06:27:53Z</time>
      </trkpt>
      <trkpt lat="47.32486" lon="4.97969">
        <ele>418</ele>
        <time>2012-09-22T06:27:57Z</time>
      </trkpt>
      <trkpt lat="47.32486" lon="4.97977">
        <ele>418</ele>
        <time>2012-09-22T06:28:00Z</time>
      </trkpt>
      <trkpt lat="47.32486" lon="4.97984">
        <ele>418</ele>
        <time>2012-09-22T06:28:03Z</time>
      </trkpt>
      <trkpt lat="47.32487" lon="4.97991">
        <ele>417</ele>
        <time>2012-09-22T06:28:06Z</time>
      </trkpt>
      <trkpt lat="47.32487" lon="4.97998">
        <ele>417</ele>
        <time>2012-09-22T06:28:09Z</time>
      </trkpt>
      <trkpt lat="47.32491" lon="4.98002">
        <ele>417</ele>
        <time>2012-09-22T06:28:16Z</time>
      </trkpt>
      <trkpt lat="47.32496" lon="4.98004">
        <ele>416</ele>
        <time>2012-09-22T06:28:19Z</time>
      </trkpt>
      <trkpt lat="47.32502" lon="4.98003">
        <ele>416</ele>
        <time>2012-09-22T06:28:23Z</time>
      </trkpt>
      <trkpt lat="47.32508" lon="4.98002">
        <ele>417</ele>
        <time>2012-09-22T06:28:27Z</time>
      </trkpt>
      <trkpt lat="47.32513" lon="4.98002">
        <ele>417</ele>
        <time>2012-09-22T06:28:30Z</time>
      </trkpt>
      <trkpt lat="47.32517" lon="4.98001">
        <ele>418</ele>
        <time>2012-09-22T06:28:33Z</time>
      </trkpt>
      <trkpt lat="47.32523" lon="4.98">
        <ele>419</ele>
        <time>2012-09-22T06:28:37Z</time>
      </trkpt>
      <trkpt lat="47.32528" lon="4.98001">
        <ele>418</ele>
        <time>2012-09-22T06:28:40Z</time>
      </trkpt>
      <trkpt lat="47.32534" lon="4.98">
        <ele>419</ele>
        <time>2012-09-22T06:28:44Z</time>
      </trkpt>
      <trkpt lat="47.32539" lon="4.97999">
        <ele>419</ele>
        <time>2012-09-22T06:28:47Z</time>
      </trkpt>
      <trkpt lat="47.32545" lon="4.97998">
        <ele>419</ele>
        <time>2012-09-22T06:28:51Z</time>
      </trkpt>
      <trkpt lat="47.32551" lon="4.97996">
        <ele>417</ele>
        <time>2012-09-22T06:28:55Z</time>
      </trkpt>
      <trkpt lat="47.32556" lon="4.97994">
        <ele>418</ele>
        <time>2012-09-22T06:28:58Z</time>
      </trkpt>
      <trkpt lat="47.3256" lon="4.97991">
        <ele>418</ele>
        <time>2012-09-22T06:29:01Z</time>
      </trkpt>
      <trkpt lat="47.32566" lon="4.97988">
        <ele>417</ele>
        <time>2012-09-22T06:29:05Z</time>
      </trkpt>
      <trkpt lat="47.3257" lon="4.97984">
        <ele>417</ele>
        <time>2012-09-22T06:29:08Z</time>
      </trkpt>
      <trkpt lat="47.32574" lon="4.97978">
        <ele>417</ele>
        <time>2012-09-22T06:29:12Z</time>
      </trkpt>
      <trkpt lat="47.32579" lon="4.97972">
        <ele>416</ele>
        <time>2012-09-22T06:29:16Z</time>
      </trkpt>
      <trkpt lat="47.32582" lon="4.97966">
        <ele>417</ele>
        <time>2012-09-22T06:29:20Z</time>
      </trkpt>
      <trkpt lat="47.32586" lon="4.97961">
        <ele>417</ele>
        <time>2012-09-22T06:29:23Z</time>
      </trkpt>
      <trkpt lat="47.3259" lon="4.97955">
        <ele>417</ele>
        <time>2012-09-22T06:29:26Z</time>
      </trkpt>
      <trkpt lat="47.32593" lon="4.9795">
        <ele>416</ele>
        <time>2012-09-22T06:29:29Z</time>
      </trkpt>
      <trkpt lat="47.32595" lon="4.97944">
        <ele>415</ele>
        <time>2012-09-22T06:29:32Z</time>
      </trkpt>
      <trkpt lat="47.32597" lon="4.97938">
        <ele>415</ele>
        <time>2012-09-22T06:29:35Z</time>
      </trkpt>
      <trkpt lat="47.32599" lon="4.97931">
        <ele>414</ele>
        <time>2012-09-22T06:29:39Z</time>
      </trkpt>
      <trkpt lat="47.32601" lon="4.97923">
        <ele>414</ele>
        <time>2012-09-22T06:29:43Z</time>
      </trkpt>
      <trkpt lat="47.32603" lon="4.97917">
        <ele>414</ele>
        <time>2012-09-22T06:29:46Z</time>
      </trkpt>
      <trkpt lat="47.32605" lon="4.9791">
        <ele>414</ele>
        <time>2012-09-22T06:29:49Z</time>
      </trkpt>
      <trkpt lat="47.32608" lon="4.97904">
        <ele>413</ele>
        <time>2012-09-22T06:29:53Z</time>
      </trkpt>
      <trkpt lat="47.32611" lon="4.97897">
        <ele>413</ele>
        <time>2012-09-22T06:29:57Z</time>
      </trkpt>
      <trkpt lat="47.32614" lon="4.9789">
        <ele>414</ele>
        <time>2012-09-22T06:30:01Z</time>
      </trkpt>
      <trkpt lat="47.32618" lon="4.97882">
        <ele>414</ele>
        <time>2012-09-22T06:30:05Z</time>
      </trkpt>
      <trkpt lat="47.3262" lon="4.97876">
        <ele>414</ele>
        <time>2012-09-22T06:30:07Z</time>
      </trkpt>
      <trkpt lat="47.32622" lon="4.97868">
        <ele>414</ele>
        <time>2012-09-22T06:30:10Z</time>
      </trkpt>
      <trkpt lat="47.32624" lon="4.97858">
        <ele>415</ele>
        <time>2012-09-22T06:30:14Z</time>
      </trkpt>
      <trkpt lat="47.32621" lon="4.97852">
        <ele>414</ele>
        <time>2012-09-22T06:30:18Z</time>
      </trkpt>
      <trkpt lat="47.32623" lon="4.97844">
        <ele>414</ele>
        <time>2012-09-22T06:30:22Z</time>
      </trkpt>
      <trkpt lat="47.32623" lon="4.97837">
        <ele>414</ele>
        <time>2012-09-22T06:30:26Z</time>
      </trkpt>
      <trkpt lat="47.32626" lon="4.97832">
        <ele>416</ele>
        <time>2012-09-22T06:30:29Z</time>
      </trkpt>
      <trkpt lat="47.32628" lon="4.97825">
        <ele>417</ele>
        <time>2012-09-22T06:30:33Z</time>
      </trkpt>
      <trkpt lat="47.32631" lon="4.97817">
        <ele>418</ele>
        <time>2012-09-22T06:30:37Z</time>
      </trkpt>
      <trkpt lat="47.32633" lon="4.97811">
        <ele>418</ele>
        <time>2012-09-22T06:30:40Z</time>
      </trkpt>
      <trkpt lat="47.32635" lon="4.97804">
        <ele>417</ele>
        <time>2012-09-22T06:30:44Z</time>
      </trkpt>
      <trkpt lat="47.32636" lon="4.97796">
        <ele>416</ele>
        <time>2012-09-22T06:30:48Z</time>
      </trkpt>
      <trkpt lat="47.32639" lon="4.97788">
        <ele>416</ele>
        <time>2012-09-22T06:30:52Z</time>
      </trkpt>
      <trkpt lat="47.32641" lon="4.9778">
        <ele>416</ele>
        <time>2012-09-22T06:30:56Z</time>
      </trkpt>
      <trkpt lat="47.32644" lon="4.97774">
        <ele>417</ele>
        <time>2012-09-22T06:30:59Z</time>
      </trkpt>
      <trkpt lat="47.32646" lon="4.97765">
        <ele>414</ele>
        <time>2012-09-22T06:31:03Z</time>
      </trkpt>
      <trkpt lat="47.32649" lon="4.97762">
        <ele>414</ele>
        <time>2012-09-22T06:31:06Z</time>
      </trkpt>
      <trkpt lat="47.32653" lon="4.97756">
        <ele>414</ele>
        <time>2012-09-22T06:31:11Z</time>
      </trkpt>
      <trkpt lat="47.32657" lon="4.97752">
        <ele>413</ele>
        <time>2012-09-22T06:31:13Z</time>
      </trkpt>
      <trkpt lat="47.32663" lon="4.97748">
        <ele>412</ele>
        <time>2012-09-22T06:31:16Z</time>
      </trkpt>
      <trkpt lat="47.32666" lon="4.9774">
        <ele>411</ele>
        <time>2012-09-22T06:31:21Z</time>
      </trkpt>
      <trkpt lat="47.3267" lon="4.97736">
        <ele>411</ele>
        <time>2012-09-22T06:31:24Z</time>
      </trkpt>
      <trkpt lat="47.32672" lon="4.9773">
        <ele>410</ele>
        <time>2012-09-22T06:31:37Z</time>
      </trkpt>
      <trkpt lat="47.32676" lon="4.97726">
        <ele>409</ele>
        <time>2012-09-22T06:31:40Z</time>
      </trkpt>
      <trkpt lat="47.32679" lon="4.97721">
        <ele>409</ele>
        <time>2012-09-22T06:31:43Z</time>
      </trkpt>
      <trkpt lat="47.32682" lon="4.97715">
        <ele>409</ele>
        <time>2012-09-22T06:31:47Z</time>
      </trkpt>
      <trkpt lat="47.32685" lon="4.97709">
        <ele>410</ele>
        <time>2012-09-22T06:31:50Z</time>
      </trkpt>
      <trkpt lat="47.32689" lon="4.97703">
        <ele>409</ele>
        <time>2012-09-22T06:31:54Z</time>
      </trkpt>
      <trkpt lat="47.32691" lon="4.97697">
        <ele>408</ele>
        <time>2012-09-22T06:31:58Z</time>
      </trkpt>
      <trkpt lat="47.32694" lon="4.97692">
        <ele>408</ele>
        <time>2012-09-22T06:32:01Z</time>
      </trkpt>
      <trkpt lat="47.32698" lon="4.97687">
        <ele>407</ele>
        <time>2012-09-22T06:32:04Z</time>
      </trkpt>
      <trkpt lat="47.32701" lon="4.9768">
        <ele>407</ele>
        <time>2012-09-22T06:32:09Z</time>
      </trkpt>
      <trkpt lat="47.32703" lon="4.97674">
        <ele>406</ele>
        <time>2012-09-22T06:32:13Z</time>
      </trkpt>
      <trkpt lat="47.32706" lon="4.97668">
        <ele>406</ele>
        <time>2012-09-22T06:32:16Z</time>
      </trkpt>
      <trkpt lat="47.32708" lon="4.97661">
        <ele>405</ele>
        <time>2012-09-22T06:32:20Z</time>
      </trkpt>
      <trkpt lat="47.32713" lon="4.97656">
        <ele>405</ele>
        <time>2012-09-22T06:32:23Z</time>
      </trkpt>
      <trkpt lat="47.32716" lon="4.97651">
        <ele>405</ele>
        <time>2012-09-22T06:32:26Z</time>
      </trkpt>
      <trkpt lat="47.32718" lon="4.97644">
        <ele>405</ele>
        <time>2012-09-22T06:32:30Z</time>
      </trkpt>
      <trkpt lat="47.32721" lon="4.97638">
        <ele>404</ele>
        <time>2012-09-22T06:32:34Z</time>
      </trkpt>
      <trkpt lat="47.32723" lon="4.97631">
        <ele>403</ele>
        <time>2012-09-22T06:32:38Z</time>
      </trkpt>
      <trkpt lat="47.32724" lon="4.97624">
        <ele>401</ele>
        <time>2012-09-22T06:32:42Z</time>
      </trkpt>
      <trkpt lat="47.32727" lon="4.97617">
        <ele>402</ele>
        <time>2012-09-22T06:32:46Z</time>
      </trkpt>
      <trkpt lat="47.32731" lon="4.97612">
        <ele>402</ele>
        <time>2012-09-22T06:32:49Z</time>
      </trkpt>
      <trkpt lat="47.32735" lon="4.97608">
        <ele>401</ele>
        <time>2012-09-22T06:32:52Z</time>
      </trkpt>
      <trkpt lat="47.32737" lon="4.97601">
        <ele>400</ele>
        <time>2012-09-22T06:32:56Z</time>
      </trkpt>
      <trkpt lat="47.32741" lon="4.97595">
        <ele>400</ele>
        <time>2012-09-22T06:33:00Z</time>
      </trkpt>
      <trkpt lat="47.32743" lon="4.97589">
        <ele>400</ele>
        <time>2012-09-22T06:33:04Z</time>
      </trkpt>
      <trkpt lat="47.32742" lon="4.97581">
        <ele>401</ele>
        <time>2012-09-22T06:33:09Z</time>
      </trkpt>
      <trkpt lat="47.32745" lon="4.97574">
        <ele>401</ele>
        <time>2012-09-22T06:33:13Z</time>
      </trkpt>
      <trkpt lat="47.32748" lon="4.97568">
        <ele>400</ele>
        <time>2012-09-22T06:33:17Z</time>
      </trkpt>
      <trkpt lat="47.32751" lon="4.97564">
        <ele>400</ele>
        <time>2012-09-22T06:33:20Z</time>
      </trkpt>
      <trkpt lat="47.32754" lon="4.97558">
        <ele>399</ele>
        <time>2012-09-22T06:33:23Z</time>
      </trkpt>
      <trkpt lat="47.32758" lon="4.97553">
        <ele>398</ele>
        <time>2012-09-22T06:33:27Z</time>
      </trkpt>
      <trkpt lat="47.32762" lon="4.9755">
        <ele>396</ele>
        <time>2012-09-22T06:33:34Z</time>
      </trkpt>
      <trkpt lat="47.32762" lon="4.9755">
        <ele>396</ele>
        <time>2012-09-22T06:33:34Z</time>
      </trkpt>
      <trkpt lat="47.32762" lon="4.9755">
        <ele>396</ele>
        <time>2012-09-22T06:33:35Z</time>
      </trkpt>
      <trkpt lat="47.32766" lon="4.97548">
        <ele>395</ele>
        <time>2012-09-22T06:33:37Z</time>
      </trkpt>
      <trkpt lat="47.32771" lon="4.97546">
        <ele>395</ele>
        <time>2012-09-22T06:33:39Z</time>
      </trkpt>
      <trkpt lat="47.32775" lon="4.97549">
        <ele>396</ele>
        <time>2012-09-22T06:33:44Z</time>
      </trkpt>
      <trkpt lat="47.3278" lon="4.97551">
        <ele>398</ele>
        <time>2012-09-22T06:33:47Z</time>
      </trkpt>
      <trkpt lat="47.32786" lon="4.97551">
        <ele>399</ele>
        <time>2012-09-22T06:33:50Z</time>
      </trkpt>
      <trkpt lat="47.32791" lon="4.97552">
        <ele>397</ele>
        <time>2012-09-22T06:33:52Z</time>
      </trkpt>
      <trkpt lat="47.32796" lon="4.97555">
        <ele>396</ele>
        <time>2012-09-22T06:33:56Z</time>
      </trkpt>
      <trkpt lat="47.32802" lon="4.97555">
        <ele>396</ele>
        <time>2012-09-22T06:33:59Z</time>
      </trkpt>
      <trkpt lat="47.32807" lon="4.97556">
        <ele>396</ele>
        <time>2012-09-22T06:34:01Z</time>
      </trkpt>
      <trkpt lat="47.32812" lon="4.9756">
        <ele>394</ele>
        <time>2012-09-22T06:34:04Z</time>
      </trkpt>
      <trkpt lat="47.32817" lon="4.97562">
        <ele>394</ele>
        <time>2012-09-22T06:34:07Z</time>
      </trkpt>
      <trkpt lat="47.32822" lon="4.97564">
        <ele>394</ele>
        <time>2012-09-22T06:34:10Z</time>
      </trkpt>
      <trkpt lat="47.32827" lon="4.97564">
        <ele>394</ele>
        <time>2012-09-22T06:34:12Z</time>
      </trkpt>
      <trkpt lat="47.32833" lon="4.97566">
        <ele>394</ele>
        <time>2012-09-22T06:34:15Z</time>
      </trkpt>
      <trkpt lat="47.32838" lon="4.97566">
        <ele>394</ele>
        <time>2012-09-22T06:34:18Z</time>
      </trkpt>
      <trkpt lat="47.32842" lon="4.97567">
        <ele>393</ele>
        <time>2012-09-22T06:34:21Z</time>
      </trkpt>
      <trkpt lat="47.32848" lon="4.97567">
        <ele>392</ele>
        <time>2012-09-22T06:34:25Z</time>
      </trkpt>
      <trkpt lat="47.32853" lon="4.97567">
        <ele>391</ele>
        <time>2012-09-22T06:34:28Z</time>
      </trkpt>
      <trkpt lat="47.3286" lon="4.97568">
        <ele>389</ele>
        <time>2012-09-22T06:34:31Z</time>
      </trkpt>
      <trkpt lat="47.32866" lon="4.9757">
        <ele>386</ele>
        <time>2012-09-22T06:34:35Z</time>
      </trkpt>
      <trkpt lat="47.32871" lon="4.97573">
        <ele>386</ele>
        <time>2012-09-22T06:34:39Z</time>
      </trkpt>
      <trkpt lat="47.32876" lon="4.97577">
        <ele>386</ele>
        <time>2012-09-22T06:34:42Z</time>
      </trkpt>
      <trkpt lat="47.32881" lon="4.97581">
        <ele>386</ele>
        <time>2012-09-22T06:34:46Z</time>
      </trkpt>
      <trkpt lat="47.32885" lon="4.97585">
        <ele>384</ele>
        <time>2012-09-22T06:34:49Z</time>
      </trkpt>
      <trkpt lat="47.32889" lon="4.97588">
        <ele>383</ele>
        <time>2012-09-22T06:34:52Z</time>
      </trkpt>
      <trkpt lat="47.32894" lon="4.9759">
        <ele>383</ele>
        <time>2012-09-22T06:34:55Z</time>
      </trkpt>
      <trkpt lat="47.32899" lon="4.97593">
        <ele>382</ele>
        <time>2012-09-22T06:34:58Z</time>
      </trkpt>
      <trkpt lat="47.32905" lon="4.97597">
        <ele>381</ele>
        <time>2012-09-22T06:35:02Z</time>
      </trkpt>
      <trkpt lat="47.3291" lon="4.97598">
        <ele>380</ele>
        <time>2012-09-22T06:35:07Z</time>
      </trkpt>
      <trkpt lat="47.32912" lon="4.97592">
        <ele>381</ele>
        <time>2012-09-22T06:35:13Z</time>
      </trkpt>
      <trkpt lat="47.32912" lon="4.97592">
        <ele>381</ele>
        <time>2012-09-22T06:35:13Z</time>
      </trkpt>
      <trkpt lat="47.32912" lon="4.97592">
        <ele>380</ele>
        <time>2012-09-22T06:35:18Z</time>
      </trkpt>
      <trkpt lat="47.32913" lon="4.97599">
        <ele>379</ele>
        <time>2012-09-22T06:35:23Z</time>
      </trkpt>
      <trkpt lat="47.32916" lon="4.97605">
        <ele>380</ele>
        <time>2012-09-22T06:35:28Z</time>
      </trkpt>
      <trkpt lat="47.32921" lon="4.97608">
        <ele>380</ele>
        <time>2012-09-22T06:35:31Z</time>
      </trkpt>
      <trkpt lat="47.32926" lon="4.97609">
        <ele>379</ele>
        <time>2012-09-22T06:35:35Z</time>
      </trkpt>
      <trkpt lat="47.32931" lon="4.97608">
        <ele>380</ele>
        <time>2012-09-22T06:35:38Z</time>
      </trkpt>
      <trkpt lat="47.32936" lon="4.97604">
        <ele>378</ele>
        <time>2012-09-22T06:35:42Z</time>
      </trkpt>
      <trkpt lat="47.32938" lon="4.97598">
        <ele>376</ele>
        <time>2012-09-22T06:35:46Z</time>
      </trkpt>
      <trkpt lat="47.3294" lon="4.97591">
        <ele>376</ele>
        <time>2012-09-22T06:35:49Z</time>
      </trkpt>
      <trkpt lat="47.32941" lon="4.97584">
        <ele>376</ele>
        <time>2012-09-22T06:35:52Z</time>
      </trkpt>
      <trkpt lat="47.32941" lon="4.97576">
        <ele>376</ele>
        <time>2012-09-22T06:35:56Z</time>
      </trkpt>
      <trkpt lat="47.32941" lon="4.97568">
        <ele>376</ele>
        <time>2012-09-22T06:36:01Z</time>
      </trkpt>
      <trkpt lat="47.32941" lon="4.97568">
        <ele>376</ele>
        <time>2012-09-22T06:36:01Z</time>
      </trkpt>
      <trkpt lat="47.32941" lon="4.97568">
        <ele>376</ele>
        <time>2012-09-22T06:36:08Z</time>
      </trkpt>
      <trkpt lat="47.32939" lon="4.97562">
        <ele>376</ele>
        <time>2012-09-22T06:36:38Z</time>
      </trkpt>
      <trkpt lat="47.32939" lon="4.97554">
        <ele>376</ele>
        <time>2012-09-22T06:36:41Z</time>
      </trkpt>
      <trkpt lat="47.32939" lon="4.97547">
        <ele>375</ele>
        <time>2012-09-22T06:36:44Z</time>
      </trkpt>
      <trkpt lat="47.32939" lon="4.97539">
        <ele>375</ele>
        <time>2012-09-22T06:36:47Z</time>
      </trkpt>
      <trkpt lat="47.32938" lon="4.97528">
        <ele>374</ele>
        <time>2012-09-22T06:36:51Z</time>
      </trkpt>
      <trkpt lat="47.32938" lon="4.97521">
        <ele>373</ele>
        <time>2012-09-22T06:36:53Z</time>
      </trkpt>
      <trkpt lat="47.32936" lon="4.97514">
        <ele>372</ele>
        <time>2012-09-22T06:36:57Z</time>
      </trkpt>
      <trkpt lat="47.32935" lon="4.97507">
        <ele>373</ele>
        <time>2012-09-22T06:37:01Z</time>
      </trkpt>
      <trkpt lat="47.32933" lon="4.97501">
        <ele>374</ele>
        <time>2012-09-22T06:37:05Z</time>
      </trkpt>
      <trkpt lat="47.32932" lon="4.97492">
        <ele>374</ele>
        <time>2012-09-22T06:37:09Z</time>
      </trkpt>
      <trkpt lat="47.32929" lon="4.97485">
        <ele>374</ele>
        <time>2012-09-22T06:37:12Z</time>
      </trkpt>
      <trkpt lat="47.3293" lon="4.97475">
        <ele>375</ele>
        <time>2012-09-22T06:37:15Z</time>
      </trkpt>
      <trkpt lat="47.32928" lon="4.97466">
        <ele>376</ele>
        <time>2012-09-22T06:37:22Z</time>
      </trkpt>
      <trkpt lat="47.32928" lon="4.97466">
        <ele>376</ele>
        <time>2012-09-22T06:37:22Z</time>
      </trkpt>
      <trkpt lat="47.32928" lon="4.97466">
        <ele>376</ele>
        <time>2012-09-22T06:37:23Z</time>
      </trkpt>
      <trkpt lat="47.32931" lon="4.97459">
        <ele>377</ele>
        <time>2012-09-22T06:37:25Z</time>
      </trkpt>
      <trkpt lat="47.32936" lon="4.97455">
        <ele>377</ele>
        <time>2012-09-22T06:37:32Z</time>
      </trkpt>
      <trkpt lat="47.32936" lon="4.97455">
        <ele>377</ele>
        <time>2012-09-22T06:37:32Z</time>
      </trkpt>
      <trkpt lat="47.32936" lon="4.97455">
        <ele>377</ele>
        <time>2012-09-22T06:37:33Z</time>
      </trkpt>
      <trkpt lat="47.32941" lon="4.97457">
        <ele>378</ele>
        <time>2012-09-22T06:37:35Z</time>
      </trkpt>
      <trkpt lat="47.32944" lon="4.97461">
        <ele>380</ele>
        <time>2012-09-22T06:37:37Z</time>
      </trkpt>
      <trkpt lat="47.32947" lon="4.97467">
        <ele>379</ele>
        <time>2012-09-22T06:37:40Z</time>
      </trkpt>
      <trkpt lat="47.3295" lon="4.97475">
        <ele>380</ele>
        <time>2012-09-22T06:37:44Z</time>
      </trkpt>
      <trkpt lat="47.32949" lon="4.97482">
        <ele>376</ele>
        <time>2012-09-22T06:37:47Z</time>
      </trkpt>
      <trkpt lat="47.32951" lon="4.97489">
        <ele>376</ele>
        <time>2012-09-22T06:37:51Z</time>
      </trkpt>
      <trkpt lat="47.32952" lon="4.97495">
        <ele>374</ele>
        <time>2012-09-22T06:37:54Z</time>
      </trkpt>
      <trkpt lat="47.32955" lon="4.97501">
        <ele>375</ele>
        <time>2012-09-22T06:37:57Z</time>
      </trkpt>
      <trkpt lat="47.32956" lon="4.97507">
        <ele>376</ele>
        <time>2012-09-22T06:38:00Z</time>
      </trkpt>
      <trkpt lat="47.32957" lon="4.97515">
        <ele>376</ele>
        <time>2012-09-22T06:38:04Z</time>
      </trkpt>
      <trkpt lat="47.3296" lon="4.97523">
        <ele>375</ele>
        <time>2012-09-22T06:38:08Z</time>
      </trkpt>
      <trkpt lat="47.32962" lon="4.97531">
        <ele>374</ele>
        <time>2012-09-22T06:38:12Z</time>
      </trkpt>
      <trkpt lat="47.32964" lon="4.97539">
        <ele>373</ele>
        <time>2012-09-22T06:38:15Z</time>
      </trkpt>
      <trkpt lat="47.32965" lon="4.97545">
        <ele>372</ele>
        <time>2012-09-22T06:38:18Z</time>
      </trkpt>
      <trkpt lat="47.32967" lon="4.97552">
        <ele>372</ele>
        <time>2012-09-22T06:38:21Z</time>
      </trkpt>
      <trkpt lat="47.3297" lon="4.97558">
        <ele>371</ele>
        <time>2012-09-22T06:38:24Z</time>
      </trkpt>
      <trkpt lat="47.32969" lon="4.97566">
        <ele>368</ele>
        <time>2012-09-22T06:38:29Z</time>
      </trkpt>
      <trkpt lat="47.32972" lon="4.97574">
        <ele>367</ele>
        <time>2012-09-22T06:38:33Z</time>
      </trkpt>
      <trkpt lat="47.32976" lon="4.97579">
        <ele>367</ele>
        <time>2012-09-22T06:38:36Z</time>
      </trkpt>
      <trkpt lat="47.32976" lon="4.97587">
        <ele>366</ele>
        <time>2012-09-22T06:38:41Z</time>
      </trkpt>
      <trkpt lat="47.32977" lon="4.97594">
        <ele>364</ele>
        <time>2012-09-22T06:38:44Z</time>
      </trkpt>
      <trkpt lat="47.3298" lon="4.976">
        <ele>365</ele>
        <time>2012-09-22T06:38:47Z</time>
      </trkpt>
      <trkpt lat="47.32983" lon="4.97606">
        <ele>364</ele>
        <time>2012-09-22T06:38:51Z</time>
      </trkpt>
      <trkpt lat="47.32985" lon="4.97612">
        <ele>364</ele>
        <time>2012-09-22T06:38:55Z</time>
      </trkpt>
      <trkpt lat="47.32987" lon="4.97619">
        <ele>364</ele>
        <time>2012-09-22T06:38:59Z</time>
      </trkpt>
      <trkpt lat="47.3299" lon="4.97625">
        <ele>363</ele>
        <time>2012-09-22T06:39:02Z</time>
      </trkpt>
      <trkpt lat="47.32993" lon="4.97632">
        <ele>363</ele>
        <time>2012-09-22T06:39:06Z</time>
      </trkpt>
      <trkpt lat="47.32995" lon="4.97638">
        <ele>362</ele>
        <time>2012-09-22T06:39:09Z</time>
      </trkpt>
      <trkpt lat="47.32998" lon="4.97646">
        <ele>360</ele>
        <time>2012-09-22T06:39:13Z</time>
      </trkpt>
      <trkpt lat="47.33" lon="4.97652">
        <ele>359</ele>
        <time>2012-09-22T06:39:16Z</time>
      </trkpt>
      <trkpt lat="47.33002" lon="4.97659">
        <ele>358</ele>
        <time>2012-09-22T06:39:19Z</time>
      </trkpt>
      <trkpt lat="47.33005" lon="4.97664">
        <ele>357</ele>
        <time>2012-09-22T06:39:22Z</time>
      </trkpt>
      <trkpt lat="47.33006" lon="4.97672">
        <ele>356</ele>
        <time>2012-09-22T06:39:26Z</time>
      </trkpt>
      <trkpt lat="47.33009" lon="4.97678">
        <ele>354</ele>
        <time>2012-09-22T06:39:29Z</time>
      </trkpt>
      <trkpt lat="47.33012" lon="4.97683">
        <ele>354</ele>
        <time>2012-09-22T06:39:32Z</time>
      </trkpt>
      <trkpt lat="47.33014" lon="4.97692">
        <ele>352</ele>
        <time>2012-09-22T06:39:37Z</time>
      </trkpt>
      <trkpt lat="47.33017" lon="4.97698">
        <ele>352</ele>
        <time>2012-09-22T06:39:40Z</time>
      </trkpt>
      <trkpt lat="47.33018" lon="4.97706">
        <ele>351</ele>
        <time>2012-09-22T06:39:44Z</time>
      </trkpt>
      <trkpt lat="47.33022" lon="4.97713">
        <ele>350</ele>
        <time>2012-09-22T06:39:47Z</time>
      </trkpt>
      <trkpt lat="47.33025" lon="4.97718">
        <ele>350</ele>
        <time>2012-09-22T06:39:51Z</time>
      </trkpt>
      <trkpt lat="47.33026" lon="4.97725">
        <ele>348</ele>
        <time>2012-09-22T06:39:54Z</time>
      </trkpt>
      <trkpt lat="47.3303" lon="4.97731">
        <ele>347</ele>
        <time>2012-09-22T06:39:57Z</time>
      </trkpt>
      <trkpt lat="47.33033" lon="4.97736">
        <ele>347</ele>
        <time>2012-09-22T06:40:00Z</time>
      </trkpt>
      <trkpt lat="47.33036" lon="4.97742">
        <ele>346</ele>
        <time>2012-09-22T06:40:03Z</time>
      </trkpt>
      <trkpt lat="47.33038" lon="4.97747">
        <ele>346</ele>
        <time>2012-09-22T06:40:06Z</time>
      </trkpt>
      <trkpt lat="47.33042" lon="4.97751">
        <ele>347</ele>
        <time>2012-09-22T06:40:09Z</time>
      </trkpt>
      <trkpt lat="47.33047" lon="4.97757">
        <ele>346</ele>
        <time>2012-09-22T06:40:12Z</time>
      </trkpt>
      <trkpt lat="47.3305" lon="4.97763">
        <ele>345</ele>
        <time>2012-09-22T06:40:16Z</time>
      </trkpt>
      <trkpt lat="47.3305" lon="4.9777">
        <ele>345</ele>
        <time>2012-09-22T06:40:19Z</time>
      </trkpt>
      <trkpt lat="47.33052" lon="4.97778">
        <ele>344</ele>
        <time>2012-09-22T06:40:23Z</time>
      </trkpt>
      <trkpt lat="47.33057" lon="4.97783">
        <ele>343</ele>
        <time>2012-09-22T06:40:26Z</time>
      </trkpt>
      <trkpt lat="47.33062" lon="4.97787">
        <ele>345</ele>
        <time>2012-09-22T06:40:29Z</time>
      </trkpt>
      <trkpt lat="47.33065" lon="4.97793">
        <ele>344</ele>
        <time>2012-09-22T06:40:33Z</time>
      </trkpt>
      <trkpt lat="47.33064" lon="4.978">
        <ele>343</ele>
        <time>2012-09-22T06:40:38Z</time>
      </trkpt>
      <trkpt lat="47.33066" lon="4.97806">
        <ele>344</ele>
        <time>2012-09-22T06:40:42Z</time>
      </trkpt>
      <trkpt lat="47.33072" lon="4.97809">
        <ele>345</ele>
        <time>2012-09-22T06:40:45Z</time>
      </trkpt>
      <trkpt lat="47.33074" lon="4.97814">
        <ele>346</ele>
        <time>2012-09-22T06:40:48Z</time>
      </trkpt>
      <trkpt lat="47.33078" lon="4.97821">
        <ele>346</ele>
        <time>2012-09-22T06:40:52Z</time>
      </trkpt>
      <trkpt lat="47.33082" lon="4.97826">
        <ele>344</ele>
        <time>2012-09-22T06:40:55Z</time>
      </trkpt>
      <trkpt lat="47.33087" lon="4.97829">
        <ele>341</ele>
        <time>2012-09-22T06:41:00Z</time>
      </trkpt>
      <trkpt lat="47.3309" lon="4.97835">
        <ele>339</ele>
        <time>2012-09-22T06:41:12Z</time>
      </trkpt>
      <trkpt lat="47.33092" lon="4.97844">
        <ele>338</ele>
        <time>2012-09-22T06:41:16Z</time>
      </trkpt>
      <trkpt lat="47.33093" lon="4.9785">
        <ele>337</ele>
        <time>2012-09-22T06:41:19Z</time>
      </trkpt>
      <trkpt lat="47.33095" lon="4.97858">
        <ele>339</ele>
        <time>2012-09-22T06:41:23Z</time>
      </trkpt>
      <trkpt lat="47.33098" lon="4.97862">
        <ele>339</ele>
        <time>2012-09-22T06:41:28Z</time>
      </trkpt>
      <trkpt lat="47.33102" lon="4.97868">
        <ele>337</ele>
        <time>2012-09-22T06:41:33Z</time>
      </trkpt>
      <trkpt lat="47.33108" lon="4.97871">
        <ele>337</ele>
        <time>2012-09-22T06:41:36Z</time>
      </trkpt>
      <trkpt lat="47.33112" lon="4.97878">
        <ele>338</ele>
        <time>2012-09-22T06:41:39Z</time>
      </trkpt>
      <trkpt lat="47.33117" lon="4.9788">
        <ele>339</ele>
        <time>2012-09-22T06:41:42Z</time>
      </trkpt>
      <trkpt lat="47.33122" lon="4.97883">
        <ele>338</ele>
        <time>2012-09-22T06:41:45Z</time>
      </trkpt>
      <trkpt lat="47.33125" lon="4.97888">
        <ele>337</ele>
        <time>2012-09-22T06:41:48Z</time>
      </trkpt>
      <trkpt lat="47.33129" lon="4.97894">
        <ele>338</ele>
        <time>2012-09-22T06:41:52Z</time>
      </trkpt>
      <trkpt lat="47.33134" lon="4.97897">
        <ele>337</ele>
        <time>2012-09-22T06:41:55Z</time>
      </trkpt>
      <trkpt lat="47.33138" lon="4.97902">
        <ele>336</ele>
        <time>2012-09-22T06:41:58Z</time>
      </trkpt>
      <trkpt lat="47.33144" lon="4.97903">
        <ele>335</ele>
        <time>2012-09-22T06:42:11Z</time>
      </trkpt>
      <trkpt lat="47.33148" lon="4.9791">
        <ele>332</ele>
        <time>2012-09-22T06:42:16Z</time>
      </trkpt>
      <trkpt lat="47.33151" lon="4.97914">
        <ele>331</ele>
        <time>2012-09-22T06:42:20Z</time>
      </trkpt>
      <trkpt lat="47.33155" lon="4.97918">
        <ele>330</ele>
        <time>2012-09-22T06:42:25Z</time>
      </trkpt>
      <trkpt lat="47.33161" lon="4.97919">
        <ele>329</ele>
        <time>2012-09-22T06:42:29Z</time>
      </trkpt>
      <trkpt lat="47.33166" lon="4.97916">
        <ele>327</ele>
        <time>2012-09-22T06:42:33Z</time>
      </trkpt>
      <trkpt lat="47.33163" lon="4.9791">
        <ele>326</ele>
        <time>2012-09-22T06:42:37Z</time>
      </trkpt>
      <trkpt lat="47.3316" lon="4.97904">
        <ele>323</ele>
        <time>2012-09-22T06:42:40Z</time>
      </trkpt>
      <trkpt lat="47.33158" lon="4.97895">
        <ele>322</ele>
        <time>2012-09-22T06:42:44Z</time>
      </trkpt>
      <trkpt lat="47.33154" lon="4.97889">
        <ele>323</ele>
        <time>2012-09-22T06:42:48Z</time>
      </trkpt>
      <trkpt lat="47.33153" lon="4.97883">
        <ele>323</ele>
        <time>2012-09-22T06:42:52Z</time>
      </trkpt>
      <trkpt lat="47.33148" lon="4.97878">
        <ele>319</ele>
        <time>2012-09-22T06:42:55Z</time>
      </trkpt>
      <trkpt lat="47.33146" lon="4.9787">
        <ele>318</ele>
        <time>2012-09-22T06:43:00Z</time>
      </trkpt>
      <trkpt lat="47.33144" lon="4.97862">
        <ele>320</ele>
        <time>2012-09-22T06:43:04Z</time>
      </trkpt>
      <trkpt lat="47.33141" lon="4.97855">
        <ele>324</ele>
        <time>2012-09-22T06:43:10Z</time>
      </trkpt>
      <trkpt lat="47.33138" lon="4.9785">
        <ele>323</ele>
        <time>2012-09-22T06:43:14Z</time>
      </trkpt>
      <trkpt lat="47.33134" lon="4.97843">
        <ele>324</ele>
        <time>2012-09-22T06:43:17Z</time>
      </trkpt>
      <trkpt lat="47.33133" lon="4.97836">
        <ele>325</ele>
        <time>2012-09-22T06:43:20Z</time>
      </trkpt>
      <trkpt lat="47.33132" lon="4.97829">
        <ele>325</ele>
        <time>2012-09-22T06:43:23Z</time>
      </trkpt>
      <trkpt lat="47.33133" lon="4.97821">
        <ele>326</ele>
        <time>2012-09-22T06:43:26Z</time>
      </trkpt>
      <trkpt lat="47.33134" lon="4.97814">
        <ele>327</ele>
        <time>2012-09-22T06:43:29Z</time>
      </trkpt>
      <trkpt lat="47.33132" lon="4.97807">
        <ele>327</ele>
        <time>2012-09-22T06:43:32Z</time>
      </trkpt>
      <trkpt lat="47.3313" lon="4.978">
        <ele>326</ele>
        <time>2012-09-22T06:43:36Z</time>
      </trkpt>
      <trkpt lat="47.33128" lon="4.97793">
        <ele>326</ele>
        <time>2012-09-22T06:43:39Z</time>
      </trkpt>
      <trkpt lat="47.33128" lon="4.97785">
        <ele>321</ele>
        <time>2012-09-22T06:43:43Z</time>
      </trkpt>
      <trkpt lat="47.33132" lon="4.97782">
        <ele>318</ele>
        <time>2012-09-22T06:43:47Z</time>
      </trkpt>
      <trkpt lat="47.33136" lon="4.97778">
        <ele>318</ele>
        <time>2012-09-22T06:43:52Z</time>
      </trkpt>
      <trkpt lat="47.33141" lon="4.9778">
        <ele>319</ele>
        <time>2012-09-22T06:44:01Z</time>
      </trkpt>
      <trkpt lat="47.33139" lon="4.97786">
        <ele>318</ele>
        <time>2012-09-22T06:44:33Z</time>
      </trkpt>
      <trkpt lat="47.33144" lon="4.97785">
        <ele>321</ele>
        <time>2012-09-22T06:45:29Z</time>
      </trkpt>
      <trkpt lat="47.33147" lon="4.9778">
        <ele>320</ele>
        <time>2012-09-22T06:45:53Z</time>
      </trkpt>
      <trkpt lat="47.33142" lon="4.97783">
        <ele>318</ele>
        <time>2012-09-22T06:46:25Z</time>
      </trkpt>
      <trkpt lat="47.33145" lon="4.97789">
        <ele>321</ele>
        <time>2012-09-22T06:47:37Z</time>
      </trkpt>
      <trkpt lat="47.33152" lon="4.97787">
        <ele>321</ele>
        <time>2012-09-22T06:47:40Z</time>
      </trkpt>
      <trkpt lat="47.33158" lon="4.97784">
        <ele>321</ele>
        <time>2012-09-22T06:47:43Z</time>
      </trkpt>
      <trkpt lat="47.33163" lon="4.97784">
        <ele>320</ele>
        <time>2012-09-22T06:47:45Z</time>
      </trkpt>
      <trkpt lat="47.33169" lon="4.97784">
        <ele>320</ele>
        <time>2012-09-22T06:47:48Z</time>
      </trkpt>
      <trkpt lat="47.33175" lon="4.97782">
        <ele>321</ele>
        <time>2012-09-22T06:47:52Z</time>
      </trkpt>
      <trkpt lat="47.3318" lon="4.97781">
        <ele>322</ele>
        <time>2012-09-22T06:47:55Z</time>
      </trkpt>
      <trkpt lat="47.33186" lon="4.97781">
        <ele>322</ele>
        <time>2012-09-22T06:47:59Z</time>
      </trkpt>
      <trkpt lat="47.33191" lon="4.9778">
        <ele>322</ele>
        <time>2012-09-22T06:48:03Z</time>
      </trkpt>
      <trkpt lat="47.33197" lon="4.97779">
        <ele>322</ele>
        <time>2012-09-22T06:48:07Z</time>
      </trkpt>
      <trkpt lat="47.33201" lon="4.97777">
        <ele>323</ele>
        <time>2012-09-22T06:48:10Z</time>
      </trkpt>
      <trkpt lat="47.33206" lon="4.97774">
        <ele>323</ele>
        <time>2012-09-22T06:48:13Z</time>
      </trkpt>
      <trkpt lat="47.3321" lon="4.97772">
        <ele>324</ele>
        <time>2012-09-22T06:48:16Z</time>
      </trkpt>
      <trkpt lat="47.33215" lon="4.9777">
        <ele>326</ele>
        <time>2012-09-22T06:48:19Z</time>
      </trkpt>
      <trkpt lat="47.3322" lon="4.97766">
        <ele>326</ele>
        <time>2012-09-22T06:48:23Z</time>
      </trkpt>
      <trkpt lat="47.33223" lon="4.97762">
        <ele>327</ele>
        <time>2012-09-22T06:48:26Z</time>
      </trkpt>
      <trkpt lat="47.33227" lon="4.97757">
        <ele>329</ele>
        <time>2012-09-22T06:48:30Z</time>
      </trkpt>
      <trkpt lat="47.33231" lon="4.97752">
        <ele>329</ele>
        <time>2012-09-22T06:48:34Z</time>
      </trkpt>
      <trkpt lat="47.33234" lon="4.97746">
        <ele>330</ele>
        <time>2012-09-22T06:48:37Z</time>
      </trkpt>
      <trkpt lat="47.33238" lon="4.9774">
        <ele>331</ele>
        <time>2012-09-22T06:48:41Z</time>
      </trkpt>
      <trkpt lat="47.33242" lon="4.97735">
        <ele>331</ele>
        <time>2012-09-22T06:48:44Z</time>
      </trkpt>
      <trkpt lat="47.33245" lon="4.97727">
        <ele>331</ele>
        <time>2012-09-22T06:48:48Z</time>
      </trkpt>
      <trkpt lat="47.33248" lon="4.97721">
        <ele>331</ele>
        <time>2012-09-22T06:48:51Z</time>
      </trkpt>
      <trkpt lat="47.33251" lon="4.97717">
        <ele>328</ele>
        <time>2012-09-22T06:48:54Z</time>
      </trkpt>
      <trkpt lat="47.33255" lon="4.97711">
        <ele>328</ele>
        <time>2012-09-22T06:48:57Z</time>
      </trkpt>
      <trkpt lat="47.3326" lon="4.97707">
        <ele>329</ele>
        <time>2012-09-22T06:49:00Z</time>
      </trkpt>
      <trkpt lat="47.33264" lon="4.97704">
        <ele>328</ele>
        <time>2012-09-22T06:49:03Z</time>
      </trkpt>
      <trkpt lat="47.33268" lon="4.97698">
        <ele>327</ele>
        <time>2012-09-22T06:49:07Z</time>
      </trkpt>
      <trkpt lat="47.33273" lon="4.97694">
        <ele>328</ele>
        <time>2012-09-22T06:49:10Z</time>
      </trkpt>
      <trkpt lat="47.33279" lon="4.97689">
        <ele>329</ele>
        <time>2012-09-22T06:49:13Z</time>
      </trkpt>
      <trkpt lat="47.33284" lon="4.97684">
        <ele>331</ele>
        <time>2012-09-22T06:49:16Z</time>
      </trkpt>
      <trkpt lat="47.33289" lon="4.97682">
        <ele>332</ele>
        <time>2012-09-22T06:49:18Z</time>
      </trkpt>
      <trkpt lat="47.33293" lon="4.97676">
        <ele>335</ele>
        <time>2012-09-22T06:49:21Z</time>
      </trkpt>
      <trkpt lat="47.33297" lon="4.97671">
        <ele>333</ele>
        <time>2012-09-22T06:49:25Z</time>
      </trkpt>
      <trkpt lat="47.333" lon="4.97666">
        <ele>333</ele>
        <time>2012-09-22T06:49:28Z</time>
      </trkpt>
      <trkpt lat="47.33305" lon="4.97661">
        <ele>333</ele>
        <time>2012-09-22T06:49:31Z</time>
      </trkpt>
      <trkpt lat="47.3331" lon="4.97656">
        <ele>333</ele>
        <time>2012-09-22T06:49:33Z</time>
      </trkpt>
      <trkpt lat="47.33314" lon="4.9765">
        <ele>333</ele>
        <time>2012-09-22T06:49:36Z</time>
      </trkpt>
      <trkpt lat="47.33318" lon="4.97644">
        <ele>332</ele>
        <time>2012-09-22T06:49:39Z</time>
      </trkpt>
      <trkpt lat="47.33324" lon="4.97638">
        <ele>332</ele>
        <time>2012-09-22T06:49:42Z</time>
      </trkpt>
      <trkpt lat="47.33326" lon="4.97632">
        <ele>330</ele>
        <time>2012-09-22T06:49:45Z</time>
      </trkpt>
      <trkpt lat="47.33328" lon="4.97627">
        <ele>329</ele>
        <time>2012-09-22T06:49:48Z</time>
      </trkpt>
      <trkpt lat="47.33328" lon="4.9762">
        <ele>329</ele>
        <time>2012-09-22T06:49:52Z</time>
      </trkpt>
      <trkpt lat="47.33328" lon="4.9762">
        <ele>329</ele>
        <time>2012-09-22T06:49:52Z</time>
      </trkpt>
      <trkpt lat="47.33328" lon="4.9762">
        <ele>329</ele>
        <time>2012-09-22T06:49:55Z</time>
      </trkpt>
      <trkpt lat="47.33331" lon="4.97614">
        <ele>329</ele>
        <time>2012-09-22T06:50:02Z</time>
      </trkpt>
      <trkpt lat="47.33335" lon="4.9761">
        <ele>329</ele>
        <time>2012-09-22T06:50:05Z</time>
      </trkpt>
      <trkpt lat="47.3334" lon="4.97604">
        <ele>329</ele>
        <time>2012-09-22T06:50:08Z</time>
      </trkpt>
      <trkpt lat="47.33344" lon="4.97599">
        <ele>330</ele>
        <time>2012-09-22T06:50:12Z</time>
      </trkpt>
      <trkpt lat="47.33346" lon="4.97594">
        <ele>330</ele>
        <time>2012-09-22T06:50:15Z</time>
      </trkpt>
      <trkpt lat="47.33345" lon="4.97586">
        <ele>329</ele>
        <time>2012-09-22T06:50:18Z</time>
      </trkpt>
      <trkpt lat="47.33349" lon="4.97581">
        <ele>326</ele>
        <time>2012-09-22T06:50:21Z</time>
      </trkpt>
      <trkpt lat="47.33353" lon="4.97576">
        <ele>327</ele>
        <time>2012-09-22T06:50:24Z</time>
      </trkpt>
      <trkpt lat="47.33356" lon="4.9757">
        <ele>326</ele>
        <time>2012-09-22T06:50:27Z</time>
      </trkpt>
      <trkpt lat="47.33361" lon="4.97564">
        <ele>327</ele>
        <time>2012-09-22T06:50:30Z</time>
      </trkpt>
      <trkpt lat="47.33364" lon="4.97557">
        <ele>328</ele>
        <time>2012-09-22T06:50:33Z</time>
      </trkpt>
      <trkpt lat="47.33368" lon="4.97551">
        <ele>327</ele>
        <time>2012-09-22T06:50:36Z</time>
      </trkpt>
      <trkpt lat="47.33372" lon="4.97545">
        <ele>328</ele>
        <time>2012-09-22T06:50:39Z</time>
      </trkpt>
      <trkpt lat="47.33375" lon="4.9754">
        <ele>326</ele>
        <time>2012-09-22T06:50:42Z</time>
      </trkpt>
      <trkpt lat="47.33379" lon="4.97534">
        <ele>327</ele>
        <time>2012-09-22T06:50:45Z</time>
      </trkpt>
      <trkpt lat="47.33382" lon="4.97527">
        <ele>327</ele>
        <time>2012-09-22T06:50:48Z</time>
      </trkpt>
      <trkpt lat="47.33385" lon="4.9752">
        <ele>326</ele>
        <time>2012-09-22T06:50:51Z</time>
      </trkpt>
      <trkpt lat="47.33388" lon="4.97513">
        <ele>326</ele>
        <time>2012-09-22T06:50:54Z</time>
      </trkpt>
      <trkpt lat="47.3339" lon="4.97506">
        <ele>327</ele>
        <time>2012-09-22T06:50:58Z</time>
      </trkpt>
      <trkpt lat="47.33392" lon="4.97499">
        <ele>327</ele>
        <time>2012-09-22T06:51:01Z</time>
      </trkpt>
      <trkpt lat="47.33394" lon="4.97492">
        <ele>327</ele>
        <time>2012-09-22T06:51:05Z</time>
      </trkpt>
      <trkpt lat="47.33396" lon="4.97485">
        <ele>327</ele>
        <time>2012-09-22T06:51:07Z</time>
      </trkpt>
      <trkpt lat="47.33399" lon="4.97478">
        <ele>327</ele>
        <time>2012-09-22T06:51:10Z</time>
      </trkpt>
      <trkpt lat="47.334" lon="4.97469">
        <ele>326</ele>
        <time>2012-09-22T06:51:14Z</time>
      </trkpt>
      <trkpt lat="47.33405" lon="4.97466">
        <ele>329</ele>
        <time>2012-09-22T06:51:17Z</time>
      </trkpt>
      <trkpt lat="47.33408" lon="4.97459">
        <ele>330</ele>
        <time>2012-09-22T06:51:21Z</time>
      </trkpt>
      <trkpt lat="47.33412" lon="4.97452">
        <ele>328</ele>
        <time>2012-09-22T06:51:25Z</time>
      </trkpt>
      <trkpt lat="47.33416" lon="4.97447">
        <ele>328</ele>
        <time>2012-09-22T06:51:29Z</time>
      </trkpt>
      <trkpt lat="47.3342" lon="4.97441">
        <ele>326</ele>
        <time>2012-09-22T06:51:35Z</time>
      </trkpt>
      <trkpt lat="47.33419" lon="4.97434">
        <ele>325</ele>
        <time>2012-09-22T06:52:33Z</time>
      </trkpt>
      <trkpt lat="47.33424" lon="4.97432">
        <ele>322</ele>
        <time>2012-09-22T06:52:35Z</time>
      </trkpt>
      <trkpt lat="47.33428" lon="4.97426">
        <ele>321</ele>
        <time>2012-09-22T06:52:38Z</time>
      </trkpt>
      <trkpt lat="47.33431" lon="4.9742">
        <ele>321</ele>
        <time>2012-09-22T06:52:40Z</time>
      </trkpt>
      <trkpt lat="47.33432" lon="4.97411">
        <ele>320</ele>
        <time>2012-09-22T06:52:44Z</time>
      </trkpt>
      <trkpt lat="47.33433" lon="4.97404">
        <ele>319</ele>
        <time>2012-09-22T06:52:47Z</time>
      </trkpt>
      <trkpt lat="47.33433" lon="4.97395">
        <ele>320</ele>
        <time>2012-09-22T06:52:52Z</time>
      </trkpt>
      <trkpt lat="47.33434" lon="4.97388">
        <ele>320</ele>
        <time>2012-09-22T06:52:55Z</time>
      </trkpt>
      <trkpt lat="47.33436" lon="4.9738">
        <ele>319</ele>
        <time>2012-09-22T06:52:59Z</time>
      </trkpt>
      <trkpt lat="47.33438" lon="4.97373">
        <ele>322</ele>
        <time>2012-09-22T06:53:03Z</time>
      </trkpt>
      <trkpt lat="47.33442" lon="4.97365">
        <ele>323</ele>
        <time>2012-09-22T06:53:07Z</time>
      </trkpt>
      <trkpt lat="47.33446" lon="4.9736">
        <ele>323</ele>
        <time>2012-09-22T06:53:09Z</time>
      </trkpt>
      <trkpt lat="47.3345" lon="4.97353">
        <ele>323</ele>
        <time>2012-09-22T06:53:12Z</time>
      </trkpt>
      <trkpt lat="47.33453" lon="4.97348">
        <ele>325</ele>
        <time>2012-09-22T06:53:15Z</time>
      </trkpt>
      <trkpt lat="47.33457" lon="4.97343">
        <ele>327</ele>
        <time>2012-09-22T06:53:18Z</time>
      </trkpt>
      <trkpt lat="47.3346" lon="4.97339">
        <ele>328</ele>
        <time>2012-09-22T06:53:22Z</time>
      </trkpt>
      <trkpt lat="47.33466" lon="4.97336">
        <ele>332</ele>
        <time>2012-09-22T06:53:25Z</time>
      </trkpt>
      <trkpt lat="47.33472" lon="4.97335">
        <ele>337</ele>
        <time>2012-09-22T06:53:29Z</time>
      </trkpt>
      <trkpt lat="47.33476" lon="4.97328">
        <ele>339</ele>
        <time>2012-09-22T06:53:33Z</time>
      </trkpt>
      <trkpt lat="47.33479" lon="4.97323">
        <ele>339</ele>
        <time>2012-09-22T06:53:36Z</time>
      </trkpt>
      <trkpt lat="47.33482" lon="4.97317">
        <ele>339</ele>
        <time>2012-09-22T06:53:38Z</time>
      </trkpt>
      <trkpt lat="47.33487" lon="4.97313">
        <ele>341</ele>
        <time>2012-09-22T06:53:41Z</time>
      </trkpt>
      <trkpt lat="47.3349" lon="4.97308">
        <ele>341</ele>
        <time>2012-09-22T06:53:44Z</time>
      </trkpt>
      <trkpt lat="47.33494" lon="4.97302">
        <ele>340</ele>
        <time>2012-09-22T06:53:46Z</time>
      </trkpt>
      <trkpt lat="47.33497" lon="4.97295">
        <ele>340</ele>
        <time>2012-09-22T06:53:49Z</time>
      </trkpt>
      <trkpt lat="47.335" lon="4.97288">
        <ele>339</ele>
        <time>2012-09-22T06:53:52Z</time>
      </trkpt>
      <trkpt lat="47.33501" lon="4.97282">
        <ele>337</ele>
        <time>2012-09-22T06:53:54Z</time>
      </trkpt>
      <trkpt lat="47.33504" lon="4.97274">
        <ele>338</ele>
        <time>2012-09-22T06:53:58Z</time>
      </trkpt>
      <trkpt lat="47.33504" lon="4.97267">
        <ele>336</ele>
        <time>2012-09-22T06:54:01Z</time>
      </trkpt>
      <trkpt lat="47.33506" lon="4.97261">
        <ele>337</ele>
        <time>2012-09-22T06:54:04Z</time>
      </trkpt>
      <trkpt lat="47.33509" lon="4.97255">
        <ele>337</ele>
        <time>2012-09-22T06:54:07Z</time>
      </trkpt>
      <trkpt lat="47.33512" lon="4.97248">
        <ele>337</ele>
        <time>2012-09-22T06:54:10Z</time>
      </trkpt>
      <trkpt lat="47.33515" lon="4.97242">
        <ele>336</ele>
        <time>2012-09-22T06:54:13Z</time>
      </trkpt>
      <trkpt lat="47.33517" lon="4.97234">
        <ele>337</ele>
        <time>2012-09-22T06:54:17Z</time>
      </trkpt>
      <trkpt lat="47.33521" lon="4.97228">
        <ele>337</ele>
        <time>2012-09-22T06:54:20Z</time>
      </trkpt>
      <trkpt lat="47.33525" lon="4.97221">
        <ele>336</ele>
        <time>2012-09-22T06:54:23Z</time>
      </trkpt>
      <trkpt lat="47.33528" lon="4.97214">
        <ele>336</ele>
        <time>2012-09-22T06:54:26Z</time>
      </trkpt>
      <trkpt lat="47.33531" lon="4.97208">
        <ele>337</ele>
        <time>2012-09-22T06:54:29Z</time>
      </trkpt>
      <trkpt lat="47.33535" lon="4.97202">
        <ele>339</ele>
        <time>2012-09-22T06:54:33Z</time>
      </trkpt>
      <trkpt lat="47.33539" lon="4.97195">
        <ele>338</ele>
        <time>2012-09-22T06:54:37Z</time>
      </trkpt>
      <trkpt lat="47.33543" lon="4.97188">
        <ele>337</ele>
        <time>2012-09-22T06:54:40Z</time>
      </trkpt>
      <trkpt lat="47.33547" lon="4.97182">
        <ele>340</ele>
        <time>2012-09-22T06:54:43Z</time>
      </trkpt>
      <trkpt lat="47.33551" lon="4.97176">
        <ele>341</ele>
        <time>2012-09-22T06:54:46Z</time>
      </trkpt>
      <trkpt lat="47.33553" lon="4.97169">
        <ele>340</ele>
        <time>2012-09-22T06:54:50Z</time>
      </trkpt>
      <trkpt lat="47.33555" lon="4.97163">
        <ele>340</ele>
        <time>2012-09-22T06:54:53Z</time>
      </trkpt>
      <trkpt lat="47.33561" lon="4.97157">
        <ele>341</ele>
        <time>2012-09-22T06:54:56Z</time>
      </trkpt>
      <trkpt lat="47.33564" lon="4.97152">
        <ele>341</ele>
        <time>2012-09-22T06:54:59Z</time>
      </trkpt>
      <trkpt lat="47.33566" lon="4.97146">
        <ele>341</ele>
        <time>2012-09-22T06:55:02Z</time>
      </trkpt>
      <trkpt lat="47.33567" lon="4.97139">
        <ele>340</ele>
        <time>2012-09-22T06:55:05Z</time>
      </trkpt>
      <trkpt lat="47.33569" lon="4.97131">
        <ele>340</ele>
        <time>2012-09-22T06:55:09Z</time>
      </trkpt>
      <trkpt lat="47.3357" lon="4.97122">
        <ele>339</ele>
        <time>2012-09-22T06:55:13Z</time>
      </trkpt>
      <trkpt lat="47.33572" lon="4.97115">
        <ele>338</ele>
        <time>2012-09-22T06:55:17Z</time>
      </trkpt>
      <trkpt lat="47.33575" lon="4.97108">
        <ele>338</ele>
        <time>2012-09-22T06:55:20Z</time>
      </trkpt>
      <trkpt lat="47.33577" lon="4.97101">
        <ele>337</ele>
        <time>2012-09-22T06:55:23Z</time>
      </trkpt>
      <trkpt lat="47.33578" lon="4.97094">
        <ele>336</ele>
        <time>2012-09-22T06:55:27Z</time>
      </trkpt>
      <trkpt lat="47.33578" lon="4.97087">
        <ele>333</ele>
        <time>2012-09-22T06:55:38Z</time>
      </trkpt>
      <trkpt lat="47.33578" lon="4.97087">
        <ele>333</ele>
        <time>2012-09-22T06:55:38Z</time>
      </trkpt>
      <trkpt lat="47.33578" lon="4.97087">
        <ele>333</ele>
        <time>2012-09-22T06:55:41Z</time>
      </trkpt>
      <trkpt lat="47.33574" lon="4.9709">
        <ele>331</ele>
        <time>2012-09-22T06:56:11Z</time>
      </trkpt>
      <trkpt lat="47.3357" lon="4.97094">
        <ele>333</ele>
        <time>2012-09-22T06:56:19Z</time>
      </trkpt>
      <trkpt lat="47.33567" lon="4.97099">
        <ele>334</ele>
        <time>2012-09-22T06:56:24Z</time>
      </trkpt>
      <trkpt lat="47.33561" lon="4.97102">
        <ele>335</ele>
        <time>2012-09-22T06:56:30Z</time>
      </trkpt>
      <trkpt lat="47.33556" lon="4.97107">
        <ele>336</ele>
        <time>2012-09-22T06:56:33Z</time>
      </trkpt>
      <trkpt lat="47.33551" lon="4.97112">
        <ele>338</ele>
        <time>2012-09-22T06:56:38Z</time>
      </trkpt>
      <trkpt lat="47.33547" lon="4.97116">
        <ele>339</ele>
        <time>2012-09-22T06:56:41Z</time>
      </trkpt>
      <trkpt lat="47.33542" lon="4.97119">
        <ele>340</ele>
        <time>2012-09-22T06:56:44Z</time>
      </trkpt>
      <trkpt lat="47.33537" lon="4.97123">
        <ele>342</ele>
        <time>2012-09-22T06:56:51Z</time>
      </trkpt>
      <trkpt lat="47.33533" lon="4.97129">
        <ele>341</ele>
        <time>2012-09-22T06:56:55Z</time>
      </trkpt>
      <trkpt lat="47.33528" lon="4.97131">
        <ele>345</ele>
        <time>2012-09-22T06:57:01Z</time>
      </trkpt>
      <trkpt lat="47.33523" lon="4.97133">
        <ele>345</ele>
        <time>2012-09-22T06:57:04Z</time>
      </trkpt>
      <trkpt lat="47.33518" lon="4.97136">
        <ele>345</ele>
        <time>2012-09-22T06:57:08Z</time>
      </trkpt>
      <trkpt lat="47.33514" lon="4.97139">
        <ele>346</ele>
        <time>2012-09-22T06:57:11Z</time>
      </trkpt>
      <trkpt lat="47.33508" lon="4.97143">
        <ele>345</ele>
        <time>2012-09-22T06:57:18Z</time>
      </trkpt>
      <trkpt lat="47.33502" lon="4.97145">
        <ele>344</ele>
        <time>2012-09-22T06:57:21Z</time>
      </trkpt>
      <trkpt lat="47.335" lon="4.97152">
        <ele>350</ele>
        <time>2012-09-22T06:57:26Z</time>
      </trkpt>
      <trkpt lat="47.33498" lon="4.97159">
        <ele>351</ele>
        <time>2012-09-22T06:57:30Z</time>
      </trkpt>
      <trkpt lat="47.33493" lon="4.97164">
        <ele>352</ele>
        <time>2012-09-22T06:57:35Z</time>
      </trkpt>
      <trkpt lat="47.33487" lon="4.97166">
        <ele>354</ele>
        <time>2012-09-22T06:57:38Z</time>
      </trkpt>
      <trkpt lat="47.33484" lon="4.9717">
        <ele>356</ele>
        <time>2012-09-22T06:57:42Z</time>
      </trkpt>
      <trkpt lat="47.33479" lon="4.97175">
        <ele>358</ele>
        <time>2012-09-22T06:57:48Z</time>
      </trkpt>
      <trkpt lat="47.33474" lon="4.97178">
        <ele>358</ele>
        <time>2012-09-22T06:57:52Z</time>
      </trkpt>
      <trkpt lat="47.3347" lon="4.97183">
        <ele>359</ele>
        <time>2012-09-22T06:57:56Z</time>
      </trkpt>
      <trkpt lat="47.33466" lon="4.97188">
        <ele>358</ele>
        <time>2012-09-22T06:58:00Z</time>
      </trkpt>
      <trkpt lat="47.33463" lon="4.97192">
        <ele>359</ele>
        <time>2012-09-22T06:58:05Z</time>
      </trkpt>
      <trkpt lat="47.33458" lon="4.97196">
        <ele>362</ele>
        <time>2012-09-22T06:58:11Z</time>
      </trkpt>
      <trkpt lat="47.33454" lon="4.97199">
        <ele>363</ele>
        <time>2012-09-22T06:58:13Z</time>
      </trkpt>
      <trkpt lat="47.33451" lon="4.97204">
        <ele>363</ele>
        <time>2012-09-22T06:58:17Z</time>
      </trkpt>
      <trkpt lat="47.33446" lon="4.97208">
        <ele>364</ele>
        <time>2012-09-22T06:58:22Z</time>
      </trkpt>
      <trkpt lat="47.33441" lon="4.97211">
        <ele>362</ele>
        <time>2012-09-22T06:58:26Z</time>
      </trkpt>
      <trkpt lat="47.33437" lon="4.97213">
        <ele>363</ele>
        <time>2012-09-22T06:58:32Z</time>
      </trkpt>
      <trkpt lat="47.33432" lon="4.97215">
        <ele>366</ele>
        <time>2012-09-22T06:58:36Z</time>
      </trkpt>
      <trkpt lat="47.33427" lon="4.97217">
        <ele>368</ele>
        <time>2012-09-22T06:58:39Z</time>
      </trkpt>
      <trkpt lat="47.33421" lon="4.97218">
        <ele>368</ele>
        <time>2012-09-22T06:58:43Z</time>
      </trkpt>
      <trkpt lat="47.33416" lon="4.97217">
        <ele>369</ele>
        <time>2012-09-22T06:58:48Z</time>
      </trkpt>
      <trkpt lat="47.33411" lon="4.97216">
        <ele>370</ele>
        <time>2012-09-22T06:58:53Z</time>
      </trkpt>
      <trkpt lat="47.33406" lon="4.97213">
        <ele>370</ele>
        <time>2012-09-22T06:58:58Z</time>
      </trkpt>
      <trkpt lat="47.33402" lon="4.97208">
        <ele>371</ele>
        <time>2012-09-22T06:59:05Z</time>
      </trkpt>
      <trkpt lat="47.33397" lon="4.97203">
        <ele>372</ele>
        <time>2012-09-22T06:59:12Z</time>
      </trkpt>
      <trkpt lat="47.33394" lon="4.97197">
        <ele>372</ele>
        <time>2012-09-22T06:59:17Z</time>
      </trkpt>
      <trkpt lat="47.33392" lon="4.9719">
        <ele>372</ele>
        <time>2012-09-22T06:59:22Z</time>
      </trkpt>
      <trkpt lat="47.33389" lon="4.97184">
        <ele>375</ele>
        <time>2012-09-22T06:59:29Z</time>
      </trkpt>
      <trkpt lat="47.33386" lon="4.97178">
        <ele>377</ele>
        <time>2012-09-22T06:59:32Z</time>
      </trkpt>
      <trkpt lat="47.33383" lon="4.97172">
        <ele>380</ele>
        <time>2012-09-22T06:59:38Z</time>
      </trkpt>
      <trkpt lat="47.33382" lon="4.97164">
        <ele>381</ele>
        <time>2012-09-22T06:59:44Z</time>
      </trkpt>
      <trkpt lat="47.33378" lon="4.97158">
        <ele>382</ele>
        <time>2012-09-22T06:59:48Z</time>
      </trkpt>
      <trkpt lat="47.33375" lon="4.97151">
        <ele>384</ele>
        <time>2012-09-22T06:59:54Z</time>
      </trkpt>
      <trkpt lat="47.33375" lon="4.97144">
        <ele>386</ele>
        <time>2012-09-22T07:00:00Z</time>
      </trkpt>
      <trkpt lat="47.33372" lon="4.97138">
        <ele>387</ele>
        <time>2012-09-22T07:00:05Z</time>
      </trkpt>
      <trkpt lat="47.33369" lon="4.97132">
        <ele>387</ele>
        <time>2012-09-22T07:00:09Z</time>
      </trkpt>
      <trkpt lat="47.33366" lon="4.97126">
        <ele>388</ele>
        <time>2012-09-22T07:00:14Z</time>
      </trkpt>
      <trkpt lat="47.33362" lon="4.97122">
        <ele>390</ele>
        <time>2012-09-22T07:00:21Z</time>
      </trkpt>
      <trkpt lat="47.33357" lon="4.9712">
        <ele>395</ele>
        <time>2012-09-22T07:00:29Z</time>
      </trkpt>
      <trkpt lat="47.33352" lon="4.97119">
        <ele>396</ele>
        <time>2012-09-22T07:00:34Z</time>
      </trkpt>
      <trkpt lat="47.33347" lon="4.97122">
        <ele>396</ele>
        <time>2012-09-22T07:00:38Z</time>
      </trkpt>
      <trkpt lat="47.33342" lon="4.97121">
        <ele>395</ele>
        <time>2012-09-22T07:00:42Z</time>
      </trkpt>
      <trkpt lat="47.33337" lon="4.97119">
        <ele>396</ele>
        <time>2012-09-22T07:00:47Z</time>
      </trkpt>
      <trkpt lat="47.33333" lon="4.97115">
        <ele>396</ele>
        <time>2012-09-22T07:00:51Z</time>
      </trkpt>
      <trkpt lat="47.33328" lon="4.97111">
        <ele>396</ele>
        <time>2012-09-22T07:00:56Z</time>
      </trkpt>
      <trkpt lat="47.33328" lon="4.97111">
        <ele>396</ele>
        <time>2012-09-22T07:00:56Z</time>
      </trkpt>
      <trkpt lat="47.33328" lon="4.97111">
        <ele>397</ele>
        <time>2012-09-22T07:01:58Z</time>
      </trkpt>
      <trkpt lat="47.33329" lon="4.97103">
        <ele>402</ele>
        <time>2012-09-22T07:05:59Z</time>
      </trkpt>
      <trkpt lat="47.3333" lon="4.97094">
        <ele>403</ele>
        <time>2012-09-22T07:06:03Z</time>
      </trkpt>
      <trkpt lat="47.33332" lon="4.97089">
        <ele>404</ele>
        <time>2012-09-22T07:06:06Z</time>
      </trkpt>
      <trkpt lat="47.33337" lon="4.97084">
        <ele>405</ele>
        <time>2012-09-22T07:06:09Z</time>
      </trkpt>
      <trkpt lat="47.33339" lon="4.97079">
        <ele>405</ele>
        <time>2012-09-22T07:06:12Z</time>
      </trkpt>
      <trkpt lat="47.33342" lon="4.97073">
        <ele>405</ele>
        <time>2012-09-22T07:06:15Z</time>
      </trkpt>
      <trkpt lat="47.33346" lon="4.97068">
        <ele>404</ele>
        <time>2012-09-22T07:06:18Z</time>
      </trkpt>
      <trkpt lat="47.33348" lon="4.9706">
        <ele>405</ele>
        <time>2012-09-22T07:06:22Z</time>
      </trkpt>
      <trkpt lat="47.33348" lon="4.97052">
        <ele>406</ele>
        <time>2012-09-22T07:06:26Z</time>
      </trkpt>
      <trkpt lat="47.3335" lon="4.97046">
        <ele>406</ele>
        <time>2012-09-22T07:06:29Z</time>
      </trkpt>
      <trkpt lat="47.33354" lon="4.9704">
        <ele>406</ele>
        <time>2012-09-22T07:06:32Z</time>
      </trkpt>
      <trkpt lat="47.33357" lon="4.97035">
        <ele>406</ele>
        <time>2012-09-22T07:06:35Z</time>
      </trkpt>
      <trkpt lat="47.33358" lon="4.97026">
        <ele>408</ele>
        <time>2012-09-22T07:06:39Z</time>
      </trkpt>
      <trkpt lat="47.33362" lon="4.97024">
        <ele>408</ele>
        <time>2012-09-22T07:06:41Z</time>
      </trkpt>
      <trkpt lat="47.33366" lon="4.97019">
        <ele>408</ele>
        <time>2012-09-22T07:06:44Z</time>
      </trkpt>
      <trkpt lat="47.33369" lon="4.97013">
        <ele>408</ele>
        <time>2012-09-22T07:06:47Z</time>
      </trkpt>
      <trkpt lat="47.33375" lon="4.9701">
        <ele>408</ele>
        <time>2012-09-22T07:06:50Z</time>
      </trkpt>
      <trkpt lat="47.33375" lon="4.97002">
        <ele>408</ele>
        <time>2012-09-22T07:06:54Z</time>
      </trkpt>
      <trkpt lat="47.33375" lon="4.96995">
        <ele>409</ele>
        <time>2012-09-22T07:06:58Z</time>
      </trkpt>
      <trkpt lat="47.33375" lon="4.96987">
        <ele>409</ele>
        <time>2012-09-22T07:07:02Z</time>
      </trkpt>
      <trkpt lat="47.33377" lon="4.9698">
        <ele>411</ele>
        <time>2012-09-22T07:07:06Z</time>
      </trkpt>
      <trkpt lat="47.33381" lon="4.96975">
        <ele>412</ele>
        <time>2012-09-22T07:07:09Z</time>
      </trkpt>
      <trkpt lat="47.33385" lon="4.96969">
        <ele>412</ele>
        <time>2012-09-22T07:07:12Z</time>
      </trkpt>
      <trkpt lat="47.33388" lon="4.96963">
        <ele>411</ele>
        <time>2012-09-22T07:07:15Z</time>
      </trkpt>
      <trkpt lat="47.3339" lon="4.96956">
        <ele>411</ele>
        <time>2012-09-22T07:07:19Z</time>
      </trkpt>
      <trkpt lat="47.33393" lon="4.9695">
        <ele>410</ele>
        <time>2012-09-22T07:07:23Z</time>
      </trkpt>
      <trkpt lat="47.33391" lon="4.96943">
        <ele>410</ele>
        <time>2012-09-22T07:07:26Z</time>
      </trkpt>
      <trkpt lat="47.33391" lon="4.96936">
        <ele>410</ele>
        <time>2012-09-22T07:07:29Z</time>
      </trkpt>
      <trkpt lat="47.33396" lon="4.96932">
        <ele>411</ele>
        <time>2012-09-22T07:07:32Z</time>
      </trkpt>
      <trkpt lat="47.33399" lon="4.96927">
        <ele>411</ele>
        <time>2012-09-22T07:07:34Z</time>
      </trkpt>
      <trkpt lat="47.33402" lon="4.96922">
        <ele>412</ele>
        <time>2012-09-22T07:07:37Z</time>
      </trkpt>
      <trkpt lat="47.33406" lon="4.96916">
        <ele>411</ele>
        <time>2012-09-22T07:07:39Z</time>
      </trkpt>
      <trkpt lat="47.3341" lon="4.96911">
        <ele>410</ele>
        <time>2012-09-22T07:07:42Z</time>
      </trkpt>
      <trkpt lat="47.33412" lon="4.96905">
        <ele>411</ele>
        <time>2012-09-22T07:07:45Z</time>
      </trkpt>
      <trkpt lat="47.33416" lon="4.96898">
        <ele>411</ele>
        <time>2012-09-22T07:07:48Z</time>
      </trkpt>
      <trkpt lat="47.33419" lon="4.96892">
        <ele>412</ele>
        <time>2012-09-22T07:07:51Z</time>
      </trkpt>
      <trkpt lat="47.33421" lon="4.96885">
        <ele>412</ele>
        <time>2012-09-22T07:07:55Z</time>
      </trkpt>
      <trkpt lat="47.33421" lon="4.96875">
        <ele>413</ele>
        <time>2012-09-22T07:07:58Z</time>
      </trkpt>
      <trkpt lat="47.33424" lon="4.96869">
        <ele>413</ele>
        <time>2012-09-22T07:08:01Z</time>
      </trkpt>
      <trkpt lat="47.33428" lon="4.96864">
        <ele>411</ele>
        <time>2012-09-22T07:08:04Z</time>
      </trkpt>
      <trkpt lat="47.3343" lon="4.96858">
        <ele>411</ele>
        <time>2012-09-22T07:08:07Z</time>
      </trkpt>
      <trkpt lat="47.33434" lon="4.9685">
        <ele>412</ele>
        <time>2012-09-22T07:08:11Z</time>
      </trkpt>
      <trkpt lat="47.33435" lon="4.96843">
        <ele>411</ele>
        <time>2012-09-22T07:08:14Z</time>
      </trkpt>
      <trkpt lat="47.33437" lon="4.96836">
        <ele>408</ele>
        <time>2012-09-22T07:08:18Z</time>
      </trkpt>
      <trkpt lat="47.33437" lon="4.96828">
        <ele>408</ele>
        <time>2012-09-22T07:08:21Z</time>
      </trkpt>
      <trkpt lat="47.33438" lon="4.96821">
        <ele>408</ele>
        <time>2012-09-22T07:08:24Z</time>
      </trkpt>
      <trkpt lat="47.33439" lon="4.96813">
        <ele>409</ele>
        <time>2012-09-22T07:08:28Z</time>
      </trkpt>
      <trkpt lat="47.33441" lon="4.96806">
        <ele>409</ele>
        <time>2012-09-22T07:08:31Z</time>
      </trkpt>
      <trkpt lat="47.33442" lon="4.96797">
        <ele>410</ele>
        <time>2012-09-22T07:08:35Z</time>
      </trkpt>
      <trkpt lat="47.33444" lon="4.96791">
        <ele>410</ele>
        <time>2012-09-22T07:08:38Z</time>
      </trkpt>
      <trkpt lat="47.33441" lon="4.96783">
        <ele>409</ele>
        <time>2012-09-22T07:08:42Z</time>
      </trkpt>
      <trkpt lat="47.3344" lon="4.96776">
        <ele>411</ele>
        <time>2012-09-22T07:09:00Z</time>
      </trkpt>
      <trkpt lat="47.3344" lon="4.96776">
        <ele>411</ele>
        <time>2012-09-22T07:09:00Z</time>
      </trkpt>
      <trkpt lat="47.3344" lon="4.96776">
        <ele>411</ele>
        <time>2012-09-22T07:09:03Z</time>
      </trkpt>
      <trkpt lat="47.3344" lon="4.96766">
        <ele>410</ele>
        <time>2012-09-22T07:09:06Z</time>
      </trkpt>
      <trkpt lat="47.3344" lon="4.96757">
        <ele>409</ele>
        <time>2012-09-22T07:09:09Z</time>
      </trkpt>
      <trkpt lat="47.33441" lon="4.96749">
        <ele>410</ele>
        <time>2012-09-22T07:09:12Z</time>
      </trkpt>
      <trkpt lat="47.33444" lon="4.96742">
        <ele>413</ele>
        <time>2012-09-22T07:09:16Z</time>
      </trkpt>
      <trkpt lat="47.33446" lon="4.96735">
        <ele>413</ele>
        <time>2012-09-22T07:09:19Z</time>
      </trkpt>
      <trkpt lat="47.33447" lon="4.96728">
        <ele>414</ele>
        <time>2012-09-22T07:09:22Z</time>
      </trkpt>
      <trkpt lat="47.33448" lon="4.96721">
        <ele>416</ele>
        <time>2012-09-22T07:09:26Z</time>
      </trkpt>
      <trkpt lat="47.33447" lon="4.96714">
        <ele>415</ele>
        <time>2012-09-22T07:09:29Z</time>
      </trkpt>
      <trkpt lat="47.33449" lon="4.96707">
        <ele>416</ele>
        <time>2012-09-22T07:09:33Z</time>
      </trkpt>
      <trkpt lat="47.33451" lon="4.967">
        <ele>416</ele>
        <time>2012-09-22T07:09:36Z</time>
      </trkpt>
      <trkpt lat="47.33452" lon="4.96694">
        <ele>419</ele>
        <time>2012-09-22T07:09:39Z</time>
      </trkpt>
      <trkpt lat="47.33451" lon="4.96686">
        <ele>419</ele>
        <time>2012-09-22T07:09:42Z</time>
      </trkpt>
      <trkpt lat="47.3345" lon="4.96678">
        <ele>417</ele>
        <time>2012-09-22T07:09:45Z</time>
      </trkpt>
      <trkpt lat="47.33449" lon="4.9667">
        <ele>415</ele>
        <time>2012-09-22T07:09:49Z</time>
      </trkpt>
      <trkpt lat="47.33448" lon="4.96662">
        <ele>414</ele>
        <time>2012-09-22T07:09:52Z</time>
      </trkpt>
      <trkpt lat="47.33446" lon="4.96655">
        <ele>414</ele>
        <time>2012-09-22T07:09:55Z</time>
      </trkpt>
      <trkpt lat="47.33444" lon="4.96648">
        <ele>414</ele>
        <time>2012-09-22T07:09:58Z</time>
      </trkpt>
      <trkpt lat="47.33442" lon="4.96641">
        <ele>414</ele>
        <time>2012-09-22T07:10:01Z</time>
      </trkpt>
      <trkpt lat="47.33441" lon="4.96633">
        <ele>415</ele>
        <time>2012-09-22T07:10:05Z</time>
      </trkpt>
      <trkpt lat="47.3344" lon="4.96624">
        <ele>414</ele>
        <time>2012-09-22T07:10:08Z</time>
      </trkpt>
      <trkpt lat="47.33438" lon="4.96617">
        <ele>414</ele>
        <time>2012-09-22T07:10:11Z</time>
      </trkpt>
      <trkpt lat="47.33438" lon="4.96609">
        <ele>414</ele>
        <time>2012-09-22T07:10:14Z</time>
      </trkpt>
      <trkpt lat="47.33442" lon="4.96602">
        <ele>415</ele>
        <time>2012-09-22T07:10:17Z</time>
      </trkpt>
      <trkpt lat="47.33443" lon="4.96594">
        <ele>414</ele>
        <time>2012-09-22T07:10:21Z</time>
      </trkpt>
      <trkpt lat="47.33442" lon="4.96585">
        <ele>413</ele>
        <time>2012-09-22T07:10:25Z</time>
      </trkpt>
      <trkpt lat="47.33441" lon="4.96578">
        <ele>411</ele>
        <time>2012-09-22T07:10:28Z</time>
      </trkpt>
      <trkpt lat="47.33443" lon="4.96571">
        <ele>411</ele>
        <time>2012-09-22T07:10:31Z</time>
      </trkpt>
      <trkpt lat="47.3344" lon="4.96563">
        <ele>411</ele>
        <time>2012-09-22T07:10:34Z</time>
      </trkpt>
      <trkpt lat="47.33439" lon="4.96554">
        <ele>411</ele>
        <time>2012-09-22T07:10:38Z</time>
      </trkpt>
      <trkpt lat="47.33443" lon="4.96549">
        <ele>410</ele>
        <time>2012-09-22T07:10:41Z</time>
      </trkpt>
      <trkpt lat="47.33446" lon="4.96542">
        <ele>409</ele>
        <time>2012-09-22T07:10:44Z</time>
      </trkpt>
      <trkpt lat="47.3345" lon="4.96537">
        <ele>409</ele>
        <time>2012-09-22T07:10:48Z</time>
      </trkpt>
      <trkpt lat="47.33452" lon="4.96532">
        <ele>409</ele>
        <time>2012-09-22T07:10:51Z</time>
      </trkpt>
      <trkpt lat="47.33454" lon="4.96525">
        <ele>407</ele>
        <time>2012-09-22T07:10:55Z</time>
      </trkpt>
      <trkpt lat="47.33456" lon="4.96518">
        <ele>406</ele>
        <time>2012-09-22T07:10:59Z</time>
      </trkpt>
      <trkpt lat="47.33459" lon="4.9651">
        <ele>407</ele>
        <time>2012-09-22T07:11:03Z</time>
      </trkpt>
      <trkpt lat="47.33462" lon="4.96504">
        <ele>405</ele>
        <time>2012-09-22T07:11:06Z</time>
      </trkpt>
      <trkpt lat="47.33465" lon="4.965">
        <ele>406</ele>
        <time>2012-09-22T07:11:11Z</time>
      </trkpt>
      <trkpt lat="47.33468" lon="4.96494">
        <ele>407</ele>
        <time>2012-09-22T07:11:15Z</time>
      </trkpt>
      <trkpt lat="47.3347" lon="4.96486">
        <ele>404</ele>
        <time>2012-09-22T07:11:20Z</time>
      </trkpt>
      <trkpt lat="47.33472" lon="4.9648">
        <ele>403</ele>
        <time>2012-09-22T07:11:24Z</time>
      </trkpt>
      <trkpt lat="47.33477" lon="4.96473">
        <ele>402</ele>
        <time>2012-09-22T07:11:29Z</time>
      </trkpt>
      <trkpt lat="47.33479" lon="4.96467">
        <ele>403</ele>
        <time>2012-09-22T07:11:33Z</time>
      </trkpt>
      <trkpt lat="47.33484" lon="4.96462">
        <ele>401</ele>
        <time>2012-09-22T07:11:38Z</time>
      </trkpt>
      <trkpt lat="47.33488" lon="4.96458">
        <ele>400</ele>
        <time>2012-09-22T07:11:42Z</time>
      </trkpt>
      <trkpt lat="47.33492" lon="4.96453">
        <ele>400</ele>
        <time>2012-09-22T07:11:45Z</time>
      </trkpt>
      <trkpt lat="47.33494" lon="4.96447">
        <ele>400</ele>
        <time>2012-09-22T07:11:49Z</time>
      </trkpt>
      <trkpt lat="47.33495" lon="4.96439">
        <ele>400</ele>
        <time>2012-09-22T07:11:54Z</time>
      </trkpt>
      <trkpt lat="47.33495" lon="4.96431">
        <ele>400</ele>
        <time>2012-09-22T07:11:58Z</time>
      </trkpt>
      <trkpt lat="47.33493" lon="4.96423">
        <ele>399</ele>
        <time>2012-09-22T07:12:02Z</time>
      </trkpt>
      <trkpt lat="47.33493" lon="4.96415">
        <ele>400</ele>
        <time>2012-09-22T07:12:06Z</time>
      </trkpt>
      <trkpt lat="47.33495" lon="4.96408">
        <ele>401</ele>
        <time>2012-09-22T07:12:10Z</time>
      </trkpt>
      <trkpt lat="47.33494" lon="4.96401">
        <ele>402</ele>
        <time>2012-09-22T07:12:14Z</time>
      </trkpt>
      <trkpt lat="47.33495" lon="4.96392">
        <ele>402</ele>
        <time>2012-09-22T07:12:18Z</time>
      </trkpt>
      <trkpt lat="47.33494" lon="4.96385">
        <ele>401</ele>
        <time>2012-09-22T07:12:21Z</time>
      </trkpt>
      <trkpt lat="47.33496" lon="4.96377">
        <ele>404</ele>
        <time>2012-09-22T07:12:26Z</time>
      </trkpt>
      <trkpt lat="47.33494" lon="4.96368">
        <ele>404</ele>
        <time>2012-09-22T07:12:29Z</time>
      </trkpt>
      <trkpt lat="47.33492" lon="4.96361">
        <ele>403</ele>
        <time>2012-09-22T07:12:33Z</time>
      </trkpt>
      <trkpt lat="47.3349" lon="4.9635">
        <ele>403</ele>
        <time>2012-09-22T07:12:36Z</time>
      </trkpt>
      <trkpt lat="47.33489" lon="4.96343">
        <ele>403</ele>
        <time>2012-09-22T07:12:39Z</time>
      </trkpt>
      <trkpt lat="47.33491" lon="4.96335">
        <ele>405</ele>
        <time>2012-09-22T07:12:43Z</time>
      </trkpt>
      <trkpt lat="47.33493" lon="4.96327">
        <ele>405</ele>
        <time>2012-09-22T07:12:48Z</time>
      </trkpt>
      <trkpt lat="47.33493" lon="4.96319">
        <ele>405</ele>
        <time>2012-09-22T07:12:53Z</time>
      </trkpt>
      <trkpt lat="47.3349" lon="4.96312">
        <ele>405</ele>
        <time>2012-09-22T07:12:57Z</time>
      </trkpt>
      <trkpt lat="47.3349" lon="4.96304">
        <ele>405</ele>
        <time>2012-09-22T07:13:01Z</time>
      </trkpt>
      <trkpt lat="47.33488" lon="4.96297">
        <ele>407</ele>
        <time>2012-09-22T07:13:05Z</time>
      </trkpt>
      <trkpt lat="47.33487" lon="4.9629">
        <ele>408</ele>
        <time>2012-09-22T07:13:08Z</time>
      </trkpt>
      <trkpt lat="47.33486" lon="4.96282">
        <ele>409</ele>
        <time>2012-09-22T07:13:12Z</time>
      </trkpt>
      <trkpt lat="47.33485" lon="4.96275">
        <ele>411</ele>
        <time>2012-09-22T07:13:16Z</time>
      </trkpt>
      <trkpt lat="47.33485" lon="4.96268">
        <ele>412</ele>
        <time>2012-09-22T07:13:20Z</time>
      </trkpt>
      <trkpt lat="47.33485" lon="4.96261">
        <ele>414</ele>
        <time>2012-09-22T07:13:25Z</time>
      </trkpt>
      <trkpt lat="47.33482" lon="4.96253">
        <ele>418</ele>
        <time>2012-09-22T07:13:29Z</time>
      </trkpt>
      <trkpt lat="47.33479" lon="4.96247">
        <ele>419</ele>
        <time>2012-09-22T07:13:32Z</time>
      </trkpt>
      <trkpt lat="47.33478" lon="4.96238">
        <ele>419</ele>
        <time>2012-09-22T07:13:36Z</time>
      </trkpt>
      <trkpt lat="47.33479" lon="4.96231">
        <ele>418</ele>
        <time>2012-09-22T07:13:40Z</time>
      </trkpt>
      <trkpt lat="47.33477" lon="4.96222">
        <ele>416</ele>
        <time>2012-09-22T07:13:44Z</time>
      </trkpt>
      <trkpt lat="47.33474" lon="4.96216">
        <ele>414</ele>
        <time>2012-09-22T07:13:47Z</time>
      </trkpt>
      <trkpt lat="47.33471" lon="4.96211">
        <ele>414</ele>
        <time>2012-09-22T07:13:50Z</time>
      </trkpt>
      <trkpt lat="47.33466" lon="4.96203">
        <ele>414</ele>
        <time>2012-09-22T07:13:53Z</time>
      </trkpt>
      <trkpt lat="47.33462" lon="4.96198">
        <ele>414</ele>
        <time>2012-09-22T07:13:56Z</time>
      </trkpt>
      <trkpt lat="47.33458" lon="4.96192">
        <ele>414</ele>
        <time>2012-09-22T07:14:01Z</time>
      </trkpt>
      <trkpt lat="47.33456" lon="4.96184">
        <ele>414</ele>
        <time>2012-09-22T07:14:05Z</time>
      </trkpt>
      <trkpt lat="47.33456" lon="4.96177">
        <ele>416</ele>
        <time>2012-09-22T07:14:09Z</time>
      </trkpt>
      <trkpt lat="47.33451" lon="4.9617">
        <ele>416</ele>
        <time>2012-09-22T07:14:12Z</time>
      </trkpt>
      <trkpt lat="47.33446" lon="4.96168">
        <ele>415</ele>
        <time>2012-09-22T07:14:15Z</time>
      </trkpt>
      <trkpt lat="47.33442" lon="4.96166">
        <ele>412</ele>
        <time>2012-09-22T07:14:25Z</time>
      </trkpt>
      <trkpt lat="47.33442" lon="4.96166">
        <ele>412</ele>
        <time>2012-09-22T07:14:25Z</time>
      </trkpt>
      <trkpt lat="47.33442" lon="4.96166">
        <ele>412</ele>
        <time>2012-09-22T07:14:26Z</time>
      </trkpt>
      <trkpt lat="47.33436" lon="4.96167">
        <ele>412</ele>
        <time>2012-09-22T07:14:30Z</time>
      </trkpt>
      <trkpt lat="47.33432" lon="4.96169">
        <ele>414</ele>
        <time>2012-09-22T07:14:36Z</time>
      </trkpt>
      <trkpt lat="47.33426" lon="4.96169">
        <ele>416</ele>
        <time>2012-09-22T07:14:41Z</time>
      </trkpt>
      <trkpt lat="47.33422" lon="4.96167">
        <ele>419</ele>
        <time>2012-09-22T07:14:47Z</time>
      </trkpt>
      <trkpt lat="47.33418" lon="4.96165">
        <ele>418</ele>
        <time>2012-09-22T07:14:50Z</time>
      </trkpt>
      <trkpt lat="47.33413" lon="4.96163">
        <ele>418</ele>
        <time>2012-09-22T07:14:54Z</time>
      </trkpt>
      <trkpt lat="47.33408" lon="4.96162">
        <ele>420</ele>
        <time>2012-09-22T07:14:57Z</time>
      </trkpt>
      <trkpt lat="47.33401" lon="4.96163">
        <ele>421</ele>
        <time>2012-09-22T07:15:01Z</time>
      </trkpt>
      <trkpt lat="47.33396" lon="4.96163">
        <ele>421</ele>
        <time>2012-09-22T07:15:04Z</time>
      </trkpt>
      <trkpt lat="47.3339" lon="4.96162">
        <ele>421</ele>
        <time>2012-09-22T07:15:07Z</time>
      </trkpt>
      <trkpt lat="47.33385" lon="4.96161">
        <ele>421</ele>
        <time>2012-09-22T07:15:10Z</time>
      </trkpt>
      <trkpt lat="47.33381" lon="4.96161">
        <ele>423</ele>
        <time>2012-09-22T07:15:14Z</time>
      </trkpt>
      <trkpt lat="47.33375" lon="4.96161">
        <ele>426</ele>
        <time>2012-09-22T07:15:20Z</time>
      </trkpt>
      <trkpt lat="47.3337" lon="4.96161">
        <ele>426</ele>
        <time>2012-09-22T07:15:26Z</time>
      </trkpt>
      <trkpt lat="47.33364" lon="4.96162">
        <ele>426</ele>
        <time>2012-09-22T07:15:30Z</time>
      </trkpt>
      <trkpt lat="47.33357" lon="4.96164">
        <ele>426</ele>
        <time>2012-09-22T07:15:36Z</time>
      </trkpt>
      <trkpt lat="47.33353" lon="4.96167">
        <ele>426</ele>
        <time>2012-09-22T07:15:41Z</time>
      </trkpt>
      <trkpt lat="47.33348" lon="4.96166">
        <ele>426</ele>
        <time>2012-09-22T07:15:45Z</time>
      </trkpt>
      <trkpt lat="47.33344" lon="4.96162">
        <ele>425</ele>
        <time>2012-09-22T07:23:04Z</time>
      </trkpt>
      <trkpt lat="47.33344" lon="4.96162">
        <ele>425</ele>
        <time>2012-09-22T07:23:04Z</time>
      </trkpt>
      <trkpt lat="47.33344" lon="4.96162">
        <ele>426</ele>
        <time>2012-09-22T07:23:12Z</time>
      </trkpt>
      <trkpt lat="47.3334" lon="4.96156">
        <ele>426</ele>
        <time>2012-09-22T07:23:19Z</time>
      </trkpt>
      <trkpt lat="47.33338" lon="4.96149">
        <ele>426</ele>
        <time>2012-09-22T07:23:23Z</time>
      </trkpt>
      <trkpt lat="47.33335" lon="4.96144">
        <ele>426</ele>
        <time>2012-09-22T07:23:26Z</time>
      </trkpt>
      <trkpt lat="47.33332" lon="4.96137">
        <ele>427</ele>
        <time>2012-09-22T07:23:29Z</time>
      </trkpt>
      <trkpt lat="47.33329" lon="4.96131">
        <ele>427</ele>
        <time>2012-09-22T07:23:32Z</time>
      </trkpt>
      <trkpt lat="47.33326" lon="4.96124">
        <ele>427</ele>
        <time>2012-09-22T07:23:35Z</time>
      </trkpt>
      <trkpt lat="47.33323" lon="4.96118">
        <ele>428</ele>
        <time>2012-09-22T07:23:38Z</time>
      </trkpt>
      <trkpt lat="47.3332" lon="4.96112">
        <ele>427</ele>
        <time>2012-09-22T07:23:41Z</time>
      </trkpt>
      <trkpt lat="47.33316" lon="4.96106">
        <ele>427</ele>
        <time>2012-09-22T07:23:44Z</time>
      </trkpt>
      <trkpt lat="47.33312" lon="4.96099">
        <ele>427</ele>
        <time>2012-09-22T07:23:48Z</time>
      </trkpt>
      <trkpt lat="47.33306" lon="4.96095">
        <ele>428</ele>
        <time>2012-09-22T07:23:52Z</time>
      </trkpt>
      <trkpt lat="47.33302" lon="4.96092">
        <ele>429</ele>
        <time>2012-09-22T07:23:56Z</time>
      </trkpt>
      <trkpt lat="47.33299" lon="4.96084">
        <ele>431</ele>
        <time>2012-09-22T07:24:00Z</time>
      </trkpt>
      <trkpt lat="47.33298" lon="4.96075">
        <ele>429</ele>
        <time>2012-09-22T07:24:04Z</time>
      </trkpt>
      <trkpt lat="47.33297" lon="4.96068">
        <ele>428</ele>
        <time>2012-09-22T07:24:07Z</time>
      </trkpt>
      <trkpt lat="47.33297" lon="4.96061">
        <ele>428</ele>
        <time>2012-09-22T07:24:10Z</time>
      </trkpt>
      <trkpt lat="47.33295" lon="4.96054">
        <ele>427</ele>
        <time>2012-09-22T07:24:13Z</time>
      </trkpt>
      <trkpt lat="47.33293" lon="4.96047">
        <ele>427</ele>
        <time>2012-09-22T07:24:16Z</time>
      </trkpt>
      <trkpt lat="47.33292" lon="4.96039">
        <ele>427</ele>
        <time>2012-09-22T07:24:20Z</time>
      </trkpt>
      <trkpt lat="47.33289" lon="4.96033">
        <ele>428</ele>
        <time>2012-09-22T07:24:23Z</time>
      </trkpt>
      <trkpt lat="47.33287" lon="4.96026">
        <ele>429</ele>
        <time>2012-09-22T07:24:26Z</time>
      </trkpt>
      <trkpt lat="47.33286" lon="4.96018">
        <ele>429</ele>
        <time>2012-09-22T07:24:30Z</time>
      </trkpt>
      <trkpt lat="47.33282" lon="4.96013">
        <ele>428</ele>
        <time>2012-09-22T07:24:33Z</time>
      </trkpt>
      <trkpt lat="47.3328" lon="4.96005">
        <ele>426</ele>
        <time>2012-09-22T07:24:36Z</time>
      </trkpt>
      <trkpt lat="47.3328" lon="4.95998">
        <ele>426</ele>
        <time>2012-09-22T07:24:39Z</time>
      </trkpt>
      <trkpt lat="47.33279" lon="4.9599">
        <ele>426</ele>
        <time>2012-09-22T07:24:42Z</time>
      </trkpt>
      <trkpt lat="47.33275" lon="4.95982">
        <ele>428</ele>
        <time>2012-09-22T07:24:46Z</time>
      </trkpt>
      <trkpt lat="47.33274" lon="4.95975">
        <ele>428</ele>
        <time>2012-09-22T07:24:48Z</time>
      </trkpt>
      <trkpt lat="47.33272" lon="4.95968">
        <ele>428</ele>
        <time>2012-09-22T07:24:51Z</time>
      </trkpt>
      <trkpt lat="47.33269" lon="4.95962">
        <ele>428</ele>
        <time>2012-09-22T07:24:54Z</time>
      </trkpt>
      <trkpt lat="47.33267" lon="4.95954">
        <ele>428</ele>
        <time>2012-09-22T07:24:57Z</time>
      </trkpt>
      <trkpt lat="47.33266" lon="4.95947">
        <ele>427</ele>
        <time>2012-09-22T07:25:00Z</time>
      </trkpt>
      <trkpt lat="47.33264" lon="4.95939">
        <ele>426</ele>
        <time>2012-09-22T07:25:03Z</time>
      </trkpt>
      <trkpt lat="47.33261" lon="4.95932">
        <ele>426</ele>
        <time>2012-09-22T07:25:06Z</time>
      </trkpt>
      <trkpt lat="47.33258" lon="4.95925">
        <ele>427</ele>
        <time>2012-09-22T07:25:10Z</time>
      </trkpt>
      <trkpt lat="47.33256" lon="4.95917">
        <ele>428</ele>
        <time>2012-09-22T07:25:14Z</time>
      </trkpt>
      <trkpt lat="47.33254" lon="4.9591">
        <ele>427</ele>
        <time>2012-09-22T07:25:17Z</time>
      </trkpt>
      <trkpt lat="47.33252" lon="4.95902">
        <ele>426</ele>
        <time>2012-09-22T07:25:20Z</time>
      </trkpt>
      <trkpt lat="47.3325" lon="4.95895">
        <ele>426</ele>
        <time>2012-09-22T07:25:23Z</time>
      </trkpt>
      <trkpt lat="47.33248" lon="4.95888">
        <ele>426</ele>
        <time>2012-09-22T07:25:26Z</time>
      </trkpt>
      <trkpt lat="47.33245" lon="4.95882">
        <ele>425</ele>
        <time>2012-09-22T07:25:29Z</time>
      </trkpt>
      <trkpt lat="47.33241" lon="4.95877">
        <ele>425</ele>
        <time>2012-09-22T07:25:32Z</time>
      </trkpt>
      <trkpt lat="47.33238" lon="4.9587">
        <ele>426</ele>
        <time>2012-09-22T07:25:35Z</time>
      </trkpt>
      <trkpt lat="47.33236" lon="4.95863">
        <ele>428</ele>
        <time>2012-09-22T07:25:38Z</time>
      </trkpt>
      <trkpt lat="47.33234" lon="4.95856">
        <ele>427</ele>
        <time>2012-09-22T07:25:41Z</time>
      </trkpt>
      <trkpt lat="47.33232" lon="4.9585">
        <ele>428</ele>
        <time>2012-09-22T07:25:44Z</time>
      </trkpt>
      <trkpt lat="47.33229" lon="4.95843">
        <ele>428</ele>
        <time>2012-09-22T07:25:47Z</time>
      </trkpt>
      <trkpt lat="47.33226" lon="4.95836">
        <ele>428</ele>
        <time>2012-09-22T07:25:50Z</time>
      </trkpt>
      <trkpt lat="47.33223" lon="4.95829">
        <ele>428</ele>
        <time>2012-09-22T07:25:54Z</time>
      </trkpt>
      <trkpt lat="47.3322" lon="4.95823">
        <ele>427</ele>
        <time>2012-09-22T07:25:57Z</time>
      </trkpt>
      <trkpt lat="47.33218" lon="4.95817">
        <ele>426</ele>
        <time>2012-09-22T07:26:00Z</time>
      </trkpt>
      <trkpt lat="47.33216" lon="4.95811">
        <ele>425</ele>
        <time>2012-09-22T07:26:03Z</time>
      </trkpt>
      <trkpt lat="47.33214" lon="4.95805">
        <ele>427</ele>
        <time>2012-09-22T07:26:07Z</time>
      </trkpt>
      <trkpt lat="47.3321" lon="4.95798">
        <ele>429</ele>
        <time>2012-09-22T07:26:11Z</time>
      </trkpt>
      <trkpt lat="47.33206" lon="4.95791">
        <ele>429</ele>
        <time>2012-09-22T07:26:15Z</time>
      </trkpt>
      <trkpt lat="47.33203" lon="4.95786">
        <ele>429</ele>
        <time>2012-09-22T07:26:18Z</time>
      </trkpt>
      <trkpt lat="47.33201" lon="4.9578">
        <ele>429</ele>
        <time>2012-09-22T07:26:21Z</time>
      </trkpt>
      <trkpt lat="47.33199" lon="4.95773">
        <ele>429</ele>
        <time>2012-09-22T07:26:24Z</time>
      </trkpt>
      <trkpt lat="47.33197" lon="4.95766">
        <ele>428</ele>
        <time>2012-09-22T07:26:27Z</time>
      </trkpt>
      <trkpt lat="47.33194" lon="4.95758">
        <ele>429</ele>
        <time>2012-09-22T07:26:31Z</time>
      </trkpt>
      <trkpt lat="47.33192" lon="4.95752">
        <ele>428</ele>
        <time>2012-09-22T07:26:34Z</time>
      </trkpt>
      <trkpt lat="47.33189" lon="4.95745">
        <ele>428</ele>
        <time>2012-09-22T07:26:37Z</time>
      </trkpt>
      <trkpt lat="47.33187" lon="4.95737">
        <ele>428</ele>
        <time>2012-09-22T07:26:40Z</time>
      </trkpt>
      <trkpt lat="47.33184" lon="4.9573">
        <ele>428</ele>
        <time>2012-09-22T07:26:43Z</time>
      </trkpt>
      <trkpt lat="47.33182" lon="4.95724">
        <ele>427</ele>
        <time>2012-09-22T07:26:46Z</time>
      </trkpt>
      <trkpt lat="47.33179" lon="4.95717">
        <ele>427</ele>
        <time>2012-09-22T07:26:49Z</time>
      </trkpt>
      <trkpt lat="47.33176" lon="4.95711">
        <ele>426</ele>
        <time>2012-09-22T07:26:52Z</time>
      </trkpt>
      <trkpt lat="47.33174" lon="4.95704">
        <ele>425</ele>
        <time>2012-09-22T07:26:55Z</time>
      </trkpt>
      <trkpt lat="47.3317" lon="4.95698">
        <ele>425</ele>
        <time>2012-09-22T07:26:58Z</time>
      </trkpt>
      <trkpt lat="47.33166" lon="4.95693">
        <ele>425</ele>
        <time>2012-09-22T07:27:01Z</time>
      </trkpt>
      <trkpt lat="47.33162" lon="4.95688">
        <ele>426</ele>
        <time>2012-09-22T07:27:04Z</time>
      </trkpt>
      <trkpt lat="47.33158" lon="4.95684">
        <ele>428</ele>
        <time>2012-09-22T07:27:07Z</time>
      </trkpt>
      <trkpt lat="47.33153" lon="4.95679">
        <ele>429</ele>
        <time>2012-09-22T07:27:11Z</time>
      </trkpt>
      <trkpt lat="47.33149" lon="4.95674">
        <ele>429</ele>
        <time>2012-09-22T07:27:14Z</time>
      </trkpt>
      <trkpt lat="47.33144" lon="4.9567">
        <ele>430</ele>
        <time>2012-09-22T07:27:17Z</time>
      </trkpt>
      <trkpt lat="47.33139" lon="4.95665">
        <ele>431</ele>
        <time>2012-09-22T07:27:21Z</time>
      </trkpt>
      <trkpt lat="47.33135" lon="4.9566">
        <ele>432</ele>
        <time>2012-09-22T07:27:24Z</time>
      </trkpt>
      <trkpt lat="47.33132" lon="4.95655">
        <ele>432</ele>
        <time>2012-09-22T07:27:27Z</time>
      </trkpt>
      <trkpt lat="47.33127" lon="4.9565">
        <ele>434</ele>
        <time>2012-09-22T07:27:31Z</time>
      </trkpt>
      <trkpt lat="47.33124" lon="4.95644">
        <ele>435</ele>
        <time>2012-09-22T07:27:35Z</time>
      </trkpt>
      <trkpt lat="47.3312" lon="4.9564">
        <ele>435</ele>
        <time>2012-09-22T07:27:39Z</time>
      </trkpt>
      <trkpt lat="47.33116" lon="4.95635">
        <ele>435</ele>
        <time>2012-09-22T07:27:42Z</time>
      </trkpt>
      <trkpt lat="47.33112" lon="4.9563">
        <ele>436</ele>
        <time>2012-09-22T07:27:45Z</time>
      </trkpt>
      <trkpt lat="47.33108" lon="4.95626">
        <ele>437</ele>
        <time>2012-09-22T07:27:48Z</time>
      </trkpt>
      <trkpt lat="47.33104" lon="4.95622">
        <ele>437</ele>
        <time>2012-09-22T07:27:51Z</time>
      </trkpt>
      <trkpt lat="47.331" lon="4.95618">
        <ele>437</ele>
        <time>2012-09-22T07:27:54Z</time>
      </trkpt>
      <trkpt lat="47.33095" lon="4.95615">
        <ele>438</ele>
        <time>2012-09-22T07:27:57Z</time>
      </trkpt>
      <trkpt lat="47.33091" lon="4.95612">
        <ele>438</ele>
        <time>2012-09-22T07:28:00Z</time>
      </trkpt>
      <trkpt lat="47.33087" lon="4.95609">
        <ele>439</ele>
        <time>2012-09-22T07:28:03Z</time>
      </trkpt>
      <trkpt lat="47.33081" lon="4.95606">
        <ele>439</ele>
        <time>2012-09-22T07:28:07Z</time>
      </trkpt>
      <trkpt lat="47.33076" lon="4.95604">
        <ele>440</ele>
        <time>2012-09-22T07:28:11Z</time>
      </trkpt>
      <trkpt lat="47.33072" lon="4.95601">
        <ele>439</ele>
        <time>2012-09-22T07:28:14Z</time>
      </trkpt>
      <trkpt lat="47.33067" lon="4.95598">
        <ele>440</ele>
        <time>2012-09-22T07:28:17Z</time>
      </trkpt>
      <trkpt lat="47.33062" lon="4.95595">
        <ele>439</ele>
        <time>2012-09-22T07:28:21Z</time>
      </trkpt>
      <trkpt lat="47.33057" lon="4.95594">
        <ele>438</ele>
        <time>2012-09-22T07:28:24Z</time>
      </trkpt>
      <trkpt lat="47.33051" lon="4.95591">
        <ele>438</ele>
        <time>2012-09-22T07:28:28Z</time>
      </trkpt>
      <trkpt lat="47.33047" lon="4.95587">
        <ele>436</ele>
        <time>2012-09-22T07:28:31Z</time>
      </trkpt>
      <trkpt lat="47.33044" lon="4.95583">
        <ele>435</ele>
        <time>2012-09-22T07:28:34Z</time>
      </trkpt>
      <trkpt lat="47.3304" lon="4.95578">
        <ele>435</ele>
        <time>2012-09-22T07:28:38Z</time>
      </trkpt>
      <trkpt lat="47.33035" lon="4.95575">
        <ele>436</ele>
        <time>2012-09-22T07:28:41Z</time>
      </trkpt>
      <trkpt lat="47.33031" lon="4.95569">
        <ele>435</ele>
        <time>2012-09-22T07:28:45Z</time>
      </trkpt>
      <trkpt lat="47.33026" lon="4.95565">
        <ele>436</ele>
        <time>2012-09-22T07:28:49Z</time>
      </trkpt>
      <trkpt lat="47.3302" lon="4.95563">
        <ele>436</ele>
        <time>2012-09-22T07:28:53Z</time>
      </trkpt>
      <trkpt lat="47.33015" lon="4.95564">
        <ele>436</ele>
        <time>2012-09-22T07:28:56Z</time>
      </trkpt>
      <trkpt lat="47.3301" lon="4.95564">
        <ele>436</ele>
        <time>2012-09-22T07:28:59Z</time>
      </trkpt>
      <trkpt lat="47.33005" lon="4.95566">
        <ele>435</ele>
        <time>2012-09-22T07:29:02Z</time>
      </trkpt>
      <trkpt lat="47.33001" lon="4.95569">
        <ele>434</ele>
        <time>2012-09-22T07:29:05Z</time>
      </trkpt>
      <trkpt lat="47.32996" lon="4.95572">
        <ele>433</ele>
        <time>2012-09-22T07:29:08Z</time>
      </trkpt>
      <trkpt lat="47.32993" lon="4.95576">
        <ele>433</ele>
        <time>2012-09-22T07:29:11Z</time>
      </trkpt>
      <trkpt lat="47.32989" lon="4.9558">
        <ele>433</ele>
        <time>2012-09-22T07:29:14Z</time>
      </trkpt>
      <trkpt lat="47.32985" lon="4.95583">
        <ele>432</ele>
        <time>2012-09-22T07:29:17Z</time>
      </trkpt>
      <trkpt lat="47.3298" lon="4.95588">
        <ele>431</ele>
        <time>2012-09-22T07:29:21Z</time>
      </trkpt>
      <trkpt lat="47.32976" lon="4.95594">
        <ele>431</ele>
        <time>2012-09-22T07:29:25Z</time>
      </trkpt>
      <trkpt lat="47.32972" lon="4.95599">
        <ele>431</ele>
        <time>2012-09-22T07:29:29Z</time>
      </trkpt>
      <trkpt lat="47.32968" lon="4.95605">
        <ele>430</ele>
        <time>2012-09-22T07:29:33Z</time>
      </trkpt>
      <trkpt lat="47.32965" lon="4.95612">
        <ele>429</ele>
        <time>2012-09-22T07:29:37Z</time>
      </trkpt>
      <trkpt lat="47.32962" lon="4.95617">
        <ele>429</ele>
        <time>2012-09-22T07:29:40Z</time>
      </trkpt>
      <trkpt lat="47.32958" lon="4.95623">
        <ele>428</ele>
        <time>2012-09-22T07:29:44Z</time>
      </trkpt>
      <trkpt lat="47.32955" lon="4.95628">
        <ele>426</ele>
        <time>2012-09-22T07:29:48Z</time>
      </trkpt>
      <trkpt lat="47.3295" lon="4.9563">
        <ele>424</ele>
        <time>2012-09-22T07:29:54Z</time>
      </trkpt>
      <trkpt lat="47.32946" lon="4.95627">
        <ele>423</ele>
        <time>2012-09-22T07:30:01Z</time>
      </trkpt>
      <trkpt lat="47.32946" lon="4.95627">
        <ele>423</ele>
        <time>2012-09-22T07:30:01Z</time>
      </trkpt>
      <trkpt lat="47.32946" lon="4.95627">
        <ele>423</ele>
        <time>2012-09-22T07:30:02Z</time>
      </trkpt>
      <trkpt lat="47.3294" lon="4.95628">
        <ele>423</ele>
        <time>2012-09-22T07:30:06Z</time>
      </trkpt>
      <trkpt lat="47.32941" lon="4.95635">
        <ele>421</ele>
        <time>2012-09-22T07:31:04Z</time>
      </trkpt>
      <trkpt lat="47.32941" lon="4.95635">
        <ele>421</ele>
        <time>2012-09-22T07:31:04Z</time>
      </trkpt>
      <trkpt lat="47.32941" lon="4.95635">
        <ele>421</ele>
        <time>2012-09-22T07:31:06Z</time>
      </trkpt>
      <trkpt lat="47.32938" lon="4.9564">
        <ele>420</ele>
        <time>2012-09-22T07:31:16Z</time>
      </trkpt>
      <trkpt lat="47.32933" lon="4.9564">
        <ele>420</ele>
        <time>2012-09-22T07:31:23Z</time>
      </trkpt>
      <trkpt lat="47.32927" lon="4.9564">
        <ele>421</ele>
        <time>2012-09-22T07:32:43Z</time>
      </trkpt>
      <trkpt lat="47.32926" lon="4.95632">
        <ele>419</ele>
        <time>2012-09-22T07:32:50Z</time>
      </trkpt>
      <trkpt lat="47.32927" lon="4.95626">
        <ele>420</ele>
        <time>2012-09-22T07:32:57Z</time>
      </trkpt>
      <trkpt lat="47.32927" lon="4.95618">
        <ele>420</ele>
        <time>2012-09-22T07:33:02Z</time>
      </trkpt>
      <trkpt lat="47.32929" lon="4.95612">
        <ele>420</ele>
        <time>2012-09-22T07:33:05Z</time>
      </trkpt>
      <trkpt lat="47.3293" lon="4.95605">
        <ele>420</ele>
        <time>2012-09-22T07:33:08Z</time>
      </trkpt>
      <trkpt lat="47.32932" lon="4.95596">
        <ele>421</ele>
        <time>2012-09-22T07:33:13Z</time>
      </trkpt>
      <trkpt lat="47.32933" lon="4.95589">
        <ele>420</ele>
        <time>2012-09-22T07:33:16Z</time>
      </trkpt>
      <trkpt lat="47.32933" lon="4.95582">
        <ele>420</ele>
        <time>2012-09-22T07:33:19Z</time>
      </trkpt>
      <trkpt lat="47.32932" lon="4.95574">
        <ele>419</ele>
        <time>2012-09-22T07:33:22Z</time>
      </trkpt>
      <trkpt lat="47.32934" lon="4.95566">
        <ele>419</ele>
        <time>2012-09-22T07:33:26Z</time>
      </trkpt>
      <trkpt lat="47.32938" lon="4.9556">
        <ele>419</ele>
        <time>2012-09-22T07:33:29Z</time>
      </trkpt>
      <trkpt lat="47.32935" lon="4.95553">
        <ele>417</ele>
        <time>2012-09-22T07:33:32Z</time>
      </trkpt>
      <trkpt lat="47.32935" lon="4.95546">
        <ele>416</ele>
        <time>2012-09-22T07:33:36Z</time>
      </trkpt>
      <trkpt lat="47.32934" lon="4.95539">
        <ele>417</ele>
        <time>2012-09-22T07:33:39Z</time>
      </trkpt>
      <trkpt lat="47.32933" lon="4.95531">
        <ele>416</ele>
        <time>2012-09-22T07:33:42Z</time>
      </trkpt>
      <trkpt lat="47.32936" lon="4.95525">
        <ele>416</ele>
        <time>2012-09-22T07:33:45Z</time>
      </trkpt>
      <trkpt lat="47.32938" lon="4.95517">
        <ele>415</ele>
        <time>2012-09-22T07:33:49Z</time>
      </trkpt>
      <trkpt lat="47.32942" lon="4.9551">
        <ele>415</ele>
        <time>2012-09-22T07:33:52Z</time>
      </trkpt>
      <trkpt lat="47.32946" lon="4.95506">
        <ele>415</ele>
        <time>2012-09-22T07:33:54Z</time>
      </trkpt>
      <trkpt lat="47.32942" lon="4.955">
        <ele>416</ele>
        <time>2012-09-22T07:33:56Z</time>
      </trkpt>
      <trkpt lat="47.32944" lon="4.95495">
        <ele>415</ele>
        <time>2012-09-22T07:33:59Z</time>
      </trkpt>
      <trkpt lat="47.32947" lon="4.95487">
        <ele>415</ele>
        <time>2012-09-22T07:34:03Z</time>
      </trkpt>
      <trkpt lat="47.32947" lon="4.95478">
        <ele>414</ele>
        <time>2012-09-22T07:34:06Z</time>
      </trkpt>
      <trkpt lat="47.32948" lon="4.95472">
        <ele>414</ele>
        <time>2012-09-22T07:34:09Z</time>
      </trkpt>
      <trkpt lat="47.32952" lon="4.95465">
        <ele>413</ele>
        <time>2012-09-22T07:34:12Z</time>
      </trkpt>
      <trkpt lat="47.32954" lon="4.95458">
        <ele>412</ele>
        <time>2012-09-22T07:34:15Z</time>
      </trkpt>
      <trkpt lat="47.32955" lon="4.9545">
        <ele>413</ele>
        <time>2012-09-22T07:34:19Z</time>
      </trkpt>
      <trkpt lat="47.32949" lon="4.95439">
        <ele>412</ele>
        <time>2012-09-22T07:34:22Z</time>
      </trkpt>
      <trkpt lat="47.32949" lon="4.9543">
        <ele>411</ele>
        <time>2012-09-22T07:34:25Z</time>
      </trkpt>
      <trkpt lat="47.32951" lon="4.95423">
        <ele>409</ele>
        <time>2012-09-22T07:34:28Z</time>
      </trkpt>
      <trkpt lat="47.32955" lon="4.95417">
        <ele>408</ele>
        <time>2012-09-22T07:34:31Z</time>
      </trkpt>
      <trkpt lat="47.32958" lon="4.95411">
        <ele>408</ele>
        <time>2012-09-22T07:34:35Z</time>
      </trkpt>
      <trkpt lat="47.32964" lon="4.95409">
        <ele>409</ele>
        <time>2012-09-22T07:34:38Z</time>
      </trkpt>
      <trkpt lat="47.32969" lon="4.95404">
        <ele>407</ele>
        <time>2012-09-22T07:34:41Z</time>
      </trkpt>
      <trkpt lat="47.32973" lon="4.954">
        <ele>407</ele>
        <time>2012-09-22T07:34:44Z</time>
      </trkpt>
      <trkpt lat="47.32977" lon="4.95398">
        <ele>406</ele>
        <time>2012-09-22T07:34:46Z</time>
      </trkpt>
      <trkpt lat="47.3298" lon="4.9539">
        <ele>408</ele>
        <time>2012-09-22T07:34:50Z</time>
      </trkpt>
      <trkpt lat="47.3298" lon="4.95382">
        <ele>408</ele>
        <time>2012-09-22T07:34:53Z</time>
      </trkpt>
      <trkpt lat="47.32977" lon="4.95376">
        <ele>409</ele>
        <time>2012-09-22T07:34:55Z</time>
      </trkpt>
      <trkpt lat="47.32974" lon="4.9537">
        <ele>411</ele>
        <time>2012-09-22T07:34:57Z</time>
      </trkpt>
      <trkpt lat="47.32976" lon="4.95363">
        <ele>413</ele>
        <time>2012-09-22T07:35:00Z</time>
      </trkpt>
      <trkpt lat="47.32974" lon="4.95354">
        <ele>418</ele>
        <time>2012-09-22T07:35:04Z</time>
      </trkpt>
      <trkpt lat="47.32974" lon="4.95346">
        <ele>420</ele>
        <time>2012-09-22T07:35:09Z</time>
      </trkpt>
      <trkpt lat="47.32979" lon="4.95341">
        <ele>421</ele>
        <time>2012-09-22T07:35:13Z</time>
      </trkpt>
      <trkpt lat="47.32982" lon="4.95335">
        <ele>422</ele>
        <time>2012-09-22T07:35:17Z</time>
      </trkpt>
      <trkpt lat="47.32979" lon="4.95327">
        <ele>423</ele>
        <time>2012-09-22T07:35:20Z</time>
      </trkpt>
      <trkpt lat="47.32979" lon="4.95319">
        <ele>423</ele>
        <time>2012-09-22T07:35:24Z</time>
      </trkpt>
      <trkpt lat="47.32978" lon="4.95312">
        <ele>421</ele>
        <time>2012-09-22T07:35:28Z</time>
      </trkpt>
      <trkpt lat="47.32979" lon="4.95305">
        <ele>422</ele>
        <time>2012-09-22T07:35:32Z</time>
      </trkpt>
      <trkpt lat="47.32977" lon="4.95298">
        <ele>421</ele>
        <time>2012-09-22T07:35:35Z</time>
      </trkpt>
      <trkpt lat="47.32975" lon="4.9529">
        <ele>420</ele>
        <time>2012-09-22T07:35:39Z</time>
      </trkpt>
      <trkpt lat="47.32974" lon="4.95283">
        <ele>418</ele>
        <time>2012-09-22T07:35:42Z</time>
      </trkpt>
      <trkpt lat="47.32973" lon="4.95276">
        <ele>416</ele>
        <time>2012-09-22T07:35:44Z</time>
      </trkpt>
      <trkpt lat="47.32972" lon="4.95267">
        <ele>413</ele>
        <time>2012-09-22T07:35:47Z</time>
      </trkpt>
      <trkpt lat="47.32969" lon="4.9526">
        <ele>413</ele>
        <time>2012-09-22T07:35:50Z</time>
      </trkpt>
      <trkpt lat="47.32965" lon="4.95254">
        <ele>412</ele>
        <time>2012-09-22T07:35:53Z</time>
      </trkpt>
      <trkpt lat="47.32964" lon="4.95247">
        <ele>415</ele>
        <time>2012-09-22T07:35:57Z</time>
      </trkpt>
      <trkpt lat="47.32965" lon="4.95239">
        <ele>415</ele>
        <time>2012-09-22T07:36:00Z</time>
      </trkpt>
      <trkpt lat="47.32967" lon="4.95233">
        <ele>414</ele>
        <time>2012-09-22T07:36:02Z</time>
      </trkpt>
      <trkpt lat="47.32969" lon="4.95224">
        <ele>415</ele>
        <time>2012-09-22T07:36:06Z</time>
      </trkpt>
      <trkpt lat="47.32969" lon="4.95216">
        <ele>414</ele>
        <time>2012-09-22T07:36:10Z</time>
      </trkpt>
      <trkpt lat="47.32969" lon="4.95209">
        <ele>414</ele>
        <time>2012-09-22T07:36:13Z</time>
      </trkpt>
      <trkpt lat="47.32973" lon="4.95203">
        <ele>412</ele>
        <time>2012-09-22T07:36:16Z</time>
      </trkpt>
      <trkpt lat="47.32978" lon="4.952">
        <ele>411</ele>
        <time>2012-09-22T07:36:19Z</time>
      </trkpt>
      <trkpt lat="47.32982" lon="4.95202">
        <ele>409</ele>
        <time>2012-09-22T07:36:22Z</time>
      </trkpt>
      <trkpt lat="47.32986" lon="4.95198">
        <ele>409</ele>
        <time>2012-09-22T07:36:26Z</time>
      </trkpt>
      <trkpt lat="47.3299" lon="4.95192">
        <ele>409</ele>
        <time>2012-09-22T07:36:29Z</time>
      </trkpt>
      <trkpt lat="47.32994" lon="4.95186">
        <ele>409</ele>
        <time>2012-09-22T07:36:32Z</time>
      </trkpt>
      <trkpt lat="47.32999" lon="4.95181">
        <ele>410</ele>
        <time>2012-09-22T07:36:35Z</time>
      </trkpt>
      <trkpt lat="47.32996" lon="4.95173">
        <ele>409</ele>
        <time>2012-09-22T07:36:38Z</time>
      </trkpt>
      <trkpt lat="47.32999" lon="4.95166">
        <ele>409</ele>
        <time>2012-09-22T07:36:42Z</time>
      </trkpt>
      <trkpt lat="47.33002" lon="4.9516">
        <ele>410</ele>
        <time>2012-09-22T07:36:45Z</time>
      </trkpt>
      <trkpt lat="47.33007" lon="4.95156">
        <ele>409</ele>
        <time>2012-09-22T07:36:48Z</time>
      </trkpt>
      <trkpt lat="47.3301" lon="4.95149">
        <ele>411</ele>
        <time>2012-09-22T07:36:52Z</time>
      </trkpt>
      <trkpt lat="47.33014" lon="4.95143">
        <ele>413</ele>
        <time>2012-09-22T07:36:55Z</time>
      </trkpt>
      <trkpt lat="47.33017" lon="4.95138">
        <ele>414</ele>
        <time>2012-09-22T07:36:58Z</time>
      </trkpt>
      <trkpt lat="47.33021" lon="4.95133">
        <ele>414</ele>
        <time>2012-09-22T07:37:00Z</time>
      </trkpt>
      <trkpt lat="47.33024" lon="4.95127">
        <ele>414</ele>
        <time>2012-09-22T07:37:03Z</time>
      </trkpt>
      <trkpt lat="47.33026" lon="4.95121">
        <ele>414</ele>
        <time>2012-09-22T07:37:07Z</time>
      </trkpt>
      <trkpt lat="47.33027" lon="4.95113">
        <ele>415</ele>
        <time>2012-09-22T07:37:14Z</time>
      </trkpt>
      <trkpt lat="47.33023" lon="4.95107">
        <ele>414</ele>
        <time>2012-09-22T07:37:18Z</time>
      </trkpt>
      <trkpt lat="47.3302" lon="4.95102">
        <ele>415</ele>
        <time>2012-09-22T07:37:21Z</time>
      </trkpt>
      <trkpt lat="47.33014" lon="4.95098">
        <ele>415</ele>
        <time>2012-09-22T07:37:22Z</time>
      </trkpt>
      <trkpt lat="47.33009" lon="4.95093">
        <ele>413</ele>
        <time>2012-09-22T07:37:26Z</time>
      </trkpt>
      <trkpt lat="47.33004" lon="4.95089">
        <ele>412</ele>
        <time>2012-09-22T07:37:29Z</time>
      </trkpt>
      <trkpt lat="47.32998" lon="4.95086">
        <ele>412</ele>
        <time>2012-09-22T07:37:33Z</time>
      </trkpt>
      <trkpt lat="47.32993" lon="4.95083">
        <ele>413</ele>
        <time>2012-09-22T07:37:35Z</time>
      </trkpt>
      <trkpt lat="47.32989" lon="4.95077">
        <ele>415</ele>
        <time>2012-09-22T07:37:38Z</time>
      </trkpt>
      <trkpt lat="47.32987" lon="4.9507">
        <ele>414</ele>
        <time>2012-09-22T07:37:41Z</time>
      </trkpt>
      <trkpt lat="47.32987" lon="4.95061">
        <ele>413</ele>
        <time>2012-09-22T07:37:44Z</time>
      </trkpt>
      <trkpt lat="47.32992" lon="4.95056">
        <ele>412</ele>
        <time>2012-09-22T07:37:47Z</time>
      </trkpt>
      <trkpt lat="47.32996" lon="4.95054">
        <ele>413</ele>
        <time>2012-09-22T07:37:50Z</time>
      </trkpt>
      <trkpt lat="47.33002" lon="4.9505">
        <ele>412</ele>
        <time>2012-09-22T07:37:53Z</time>
      </trkpt>
      <trkpt lat="47.33006" lon="4.95047">
        <ele>413</ele>
        <time>2012-09-22T07:37:56Z</time>
      </trkpt>
      <trkpt lat="47.3301" lon="4.95041">
        <ele>414</ele>
        <time>2012-09-22T07:38:00Z</time>
      </trkpt>
      <trkpt lat="47.33013" lon="4.95036">
        <ele>415</ele>
        <time>2012-09-22T07:38:05Z</time>
      </trkpt>
      <trkpt lat="47.33017" lon="4.95033">
        <ele>416</ele>
        <time>2012-09-22T07:38:12Z</time>
      </trkpt>
      <trkpt lat="47.33023" lon="4.95035">
        <ele>415</ele>
        <time>2012-09-22T07:38:15Z</time>
      </trkpt>
      <trkpt lat="47.33025" lon="4.95042">
        <ele>417</ele>
        <time>2012-09-22T07:38:22Z</time>
      </trkpt>
      <trkpt lat="47.33028" lon="4.9505">
        <ele>419</ele>
        <time>2012-09-22T07:38:26Z</time>
      </trkpt>
      <trkpt lat="47.33032" lon="4.95055">
        <ele>421</ele>
        <time>2012-09-22T07:38:30Z</time>
      </trkpt>
      <trkpt lat="47.33038" lon="4.9506">
        <ele>423</ele>
        <time>2012-09-22T07:38:36Z</time>
      </trkpt>
      <trkpt lat="47.33042" lon="4.95068">
        <ele>424</ele>
        <time>2012-09-22T07:38:40Z</time>
      </trkpt>
      <trkpt lat="47.33047" lon="4.95071">
        <ele>424</ele>
        <time>2012-09-22T07:38:43Z</time>
      </trkpt>
      <trkpt lat="47.33049" lon="4.95078">
        <ele>424</ele>
        <time>2012-09-22T07:38:47Z</time>
      </trkpt>
      <trkpt lat="47.33052" lon="4.95084">
        <ele>423</ele>
        <time>2012-09-22T07:38:55Z</time>
      </trkpt>
      <trkpt lat="47.33052" lon="4.95084">
        <ele>423</ele>
        <time>2012-09-22T07:38:55Z</time>
      </trkpt>
      <trkpt lat="47.33052" lon="4.95084">
        <ele>423</ele>
        <time>2012-09-22T07:38:57Z</time>
      </trkpt>
      <trkpt lat="47.33056" lon="4.9509">
        <ele>423</ele>
        <time>2012-09-22T07:39:00Z</time>
      </trkpt>
      <trkpt lat="47.33061" lon="4.95092">
        <ele>419</ele>
        <time>2012-09-22T07:39:03Z</time>
      </trkpt>
      <trkpt lat="47.3306" lon="4.95085">
        <ele>417</ele>
        <time>2012-09-22T07:39:25Z</time>
      </trkpt>
      <trkpt lat="47.33056" lon="4.95082">
        <ele>417</ele>
        <time>2012-09-22T07:39:27Z</time>
      </trkpt>
      <trkpt lat="47.33052" lon="4.95076">
        <ele>416</ele>
        <time>2012-09-22T07:39:31Z</time>
      </trkpt>
      <trkpt lat="47.33048" lon="4.95071">
        <ele>418</ele>
        <time>2012-09-22T07:39:37Z</time>
      </trkpt>
      <trkpt lat="47.33044" lon="4.95066">
        <ele>419</ele>
        <time>2012-09-22T07:39:41Z</time>
      </trkpt>
      <trkpt lat="47.3304" lon="4.95058">
        <ele>419</ele>
        <time>2012-09-22T07:39:51Z</time>
      </trkpt>
      <trkpt lat="47.33035" lon="4.9505">
        <ele>418</ele>
        <time>2012-09-22T07:39:56Z</time>
      </trkpt>
      <trkpt lat="47.33031" lon="4.95044">
        <ele>417</ele>
        <time>2012-09-22T07:39:59Z</time>
      </trkpt>
      <trkpt lat="47.33026" lon="4.9504">
        <ele>419</ele>
        <time>2012-09-22T07:40:05Z</time>
      </trkpt>
      <trkpt lat="47.33026" lon="4.9504">
        <ele>419</ele>
        <time>2012-09-22T07:40:05Z</time>
      </trkpt>
      <trkpt lat="47.33026" lon="4.9504">
        <ele>419</ele>
        <time>2012-09-22T07:40:06Z</time>
      </trkpt>
      <trkpt lat="47.33022" lon="4.95036">
        <ele>420</ele>
        <time>2012-09-22T07:40:42Z</time>
      </trkpt>
      <trkpt lat="47.33022" lon="4.95036">
        <ele>420</ele>
        <time>2012-09-22T07:40:42Z</time>
      </trkpt>
      <trkpt lat="47.33022" lon="4.95036">
        <ele>420</ele>
        <time>2012-09-22T07:40:43Z</time>
      </trkpt>
      <trkpt lat="47.33016" lon="4.9503">
        <ele>419</ele>
        <time>2012-09-22T07:40:46Z</time>
      </trkpt>
      <trkpt lat="47.33013" lon="4.95024">
        <ele>416</ele>
        <time>2012-09-22T07:40:49Z</time>
      </trkpt>
      <trkpt lat="47.33007" lon="4.95021">
        <ele>417</ele>
        <time>2012-09-22T07:40:53Z</time>
      </trkpt>
      <trkpt lat="47.33004" lon="4.95016">
        <ele>421</ele>
        <time>2012-09-22T07:41:04Z</time>
      </trkpt>
      <trkpt lat="47.33001" lon="4.9501">
        <ele>422</ele>
        <time>2012-09-22T07:41:07Z</time>
      </trkpt>
      <trkpt lat="47.32999" lon="4.95003">
        <ele>423</ele>
        <time>2012-09-22T07:41:14Z</time>
      </trkpt>
      <trkpt lat="47.32996" lon="4.94997">
        <ele>422</ele>
        <time>2012-09-22T07:41:18Z</time>
      </trkpt>
      <trkpt lat="47.32991" lon="4.9499">
        <ele>422</ele>
        <time>2012-09-22T07:41:25Z</time>
      </trkpt>
      <trkpt lat="47.32987" lon="4.94986">
        <ele>423</ele>
        <time>2012-09-22T07:41:33Z</time>
      </trkpt>
      <trkpt lat="47.32987" lon="4.94986">
        <ele>423</ele>
        <time>2012-09-22T07:41:33Z</time>
      </trkpt>
      <trkpt lat="47.32987" lon="4.94986">
        <ele>423</ele>
        <time>2012-09-22T07:41:34Z</time>
      </trkpt>
      <trkpt lat="47.32982" lon="4.94981">
        <ele>425</ele>
        <time>2012-09-22T07:41:37Z</time>
      </trkpt>
      <trkpt lat="47.32978" lon="4.94976">
        <ele>425</ele>
        <time>2012-09-22T07:41:39Z</time>
      </trkpt>
      <trkpt lat="47.32973" lon="4.94969">
        <ele>426</ele>
        <time>2012-09-22T07:41:41Z</time>
      </trkpt>
      <trkpt lat="47.32969" lon="4.94965">
        <ele>425</ele>
        <time>2012-09-22T07:41:43Z</time>
      </trkpt>
      <trkpt lat="47.32964" lon="4.94958">
        <ele>426</ele>
        <time>2012-09-22T07:41:46Z</time>
      </trkpt>
      <trkpt lat="47.32958" lon="4.94952">
        <ele>427</ele>
        <time>2012-09-22T07:41:50Z</time>
      </trkpt>
      <trkpt lat="47.32954" lon="4.94946">
        <ele>427</ele>
        <time>2012-09-22T07:41:53Z</time>
      </trkpt>
      <trkpt lat="47.3295" lon="4.9494">
        <ele>426</ele>
        <time>2012-09-22T07:41:55Z</time>
      </trkpt>
      <trkpt lat="47.32947" lon="4.94936">
        <ele>427</ele>
        <time>2012-09-22T07:41:58Z</time>
      </trkpt>
      <trkpt lat="47.32943" lon="4.94931">
        <ele>426</ele>
        <time>2012-09-22T07:42:01Z</time>
      </trkpt>
      <trkpt lat="47.32938" lon="4.94925">
        <ele>425</ele>
        <time>2012-09-22T07:42:06Z</time>
      </trkpt>
      <trkpt lat="47.32934" lon="4.9492">
        <ele>425</ele>
        <time>2012-09-22T07:42:08Z</time>
      </trkpt>
      <trkpt lat="47.32929" lon="4.94912">
        <ele>424</ele>
        <time>2012-09-22T07:42:10Z</time>
      </trkpt>
      <trkpt lat="47.32926" lon="4.94907">
        <ele>423</ele>
        <time>2012-09-22T07:42:15Z</time>
      </trkpt>
      <trkpt lat="47.32922" lon="4.94902">
        <ele>421</ele>
        <time>2012-09-22T07:42:19Z</time>
      </trkpt>
      <trkpt lat="47.32918" lon="4.94899">
        <ele>418</ele>
        <time>2012-09-22T07:42:23Z</time>
      </trkpt>
      <trkpt lat="47.32912" lon="4.94895">
        <ele>417</ele>
        <time>2012-09-22T07:42:27Z</time>
      </trkpt>
      <trkpt lat="47.32907" lon="4.94895">
        <ele>413</ele>
        <time>2012-09-22T07:42:31Z</time>
      </trkpt>
      <trkpt lat="47.32901" lon="4.94892">
        <ele>412</ele>
        <time>2012-09-22T07:42:35Z</time>
      </trkpt>
      <trkpt lat="47.32896" lon="4.9489">
        <ele>412</ele>
        <time>2012-09-22T07:42:39Z</time>
      </trkpt>
      <trkpt lat="47.32891" lon="4.94889">
        <ele>413</ele>
        <time>2012-09-22T07:42:41Z</time>
      </trkpt>
      <trkpt lat="47.32885" lon="4.94887">
        <ele>412</ele>
        <time>2012-09-22T07:42:48Z</time>
      </trkpt>
      <trkpt lat="47.32881" lon="4.94886">
        <ele>412</ele>
        <time>2012-09-22T07:42:52Z</time>
      </trkpt>
      <trkpt lat="47.32875" lon="4.94886">
        <ele>408</ele>
        <time>2012-09-22T07:42:58Z</time>
      </trkpt>
      <trkpt lat="47.32875" lon="4.94886">
        <ele>408</ele>
        <time>2012-09-22T07:42:58Z</time>
      </trkpt>
      <trkpt lat="47.32875" lon="4.94886">
        <ele>408</ele>
        <time>2012-09-22T07:42:59Z</time>
      </trkpt>
      <trkpt lat="47.32869" lon="4.94885">
        <ele>408</ele>
        <time>2012-09-22T07:43:05Z</time>
      </trkpt>
      <trkpt lat="47.32863" lon="4.94884">
        <ele>410</ele>
        <time>2012-09-22T07:43:09Z</time>
      </trkpt>
      <trkpt lat="47.32859" lon="4.94883">
        <ele>410</ele>
        <time>2012-09-22T07:43:12Z</time>
      </trkpt>
      <trkpt lat="47.32853" lon="4.9488">
        <ele>410</ele>
        <time>2012-09-22T07:43:15Z</time>
      </trkpt>
      <trkpt lat="47.32847" lon="4.94879">
        <ele>405</ele>
        <time>2012-09-22T07:43:21Z</time>
      </trkpt>
      <trkpt lat="47.32842" lon="4.94878">
        <ele>405</ele>
        <time>2012-09-22T07:43:23Z</time>
      </trkpt>
      <trkpt lat="47.32837" lon="4.94877">
        <ele>403</ele>
        <time>2012-09-22T07:43:26Z</time>
      </trkpt>
      <trkpt lat="47.32832" lon="4.94877">
        <ele>402</ele>
        <time>2012-09-22T07:43:29Z</time>
      </trkpt>
      <trkpt lat="47.32826" lon="4.94877">
        <ele>401</ele>
        <time>2012-09-22T07:43:32Z</time>
      </trkpt>
      <trkpt lat="47.32821" lon="4.94876">
        <ele>399</ele>
        <time>2012-09-22T07:43:37Z</time>
      </trkpt>
      <trkpt lat="47.32816" lon="4.94873">
        <ele>399</ele>
        <time>2012-09-22T07:43:40Z</time>
      </trkpt>
      <trkpt lat="47.32812" lon="4.9487">
        <ele>394</ele>
        <time>2012-09-22T07:43:46Z</time>
      </trkpt>
      <trkpt lat="47.32807" lon="4.9487">
        <ele>389</ele>
        <time>2012-09-22T07:43:53Z</time>
      </trkpt>
      <trkpt lat="47.32803" lon="4.94874">
        <ele>385</ele>
        <time>2012-09-22T07:44:01Z</time>
      </trkpt>
      <trkpt lat="47.32796" lon="4.94872">
        <ele>384</ele>
        <time>2012-09-22T07:44:05Z</time>
      </trkpt>
      <trkpt lat="47.3279" lon="4.94867">
        <ele>377</ele>
        <time>2012-09-22T07:44:25Z</time>
      </trkpt>
      <trkpt lat="47.32787" lon="4.94862">
        <ele>380</ele>
        <time>2012-09-22T07:44:28Z</time>
      </trkpt>
      <trkpt lat="47.32784" lon="4.94857">
        <ele>384</ele>
        <time>2012-09-22T07:44:31Z</time>
      </trkpt>
      <trkpt lat="47.32782" lon="4.9485">
        <ele>390</ele>
        <time>2012-09-22T07:44:43Z</time>
      </trkpt>
      <trkpt lat="47.32779" lon="4.94845">
        <ele>390</ele>
        <time>2012-09-22T07:44:46Z</time>
      </trkpt>
      <trkpt lat="47.32773" lon="4.94848">
        <ele>392</ele>
        <time>2012-09-22T07:45:17Z</time>
      </trkpt>
      <trkpt lat="47.32776" lon="4.94855">
        <ele>390</ele>
        <time>2012-09-22T07:45:22Z</time>
      </trkpt>
      <trkpt lat="47.3278" lon="4.94858">
        <ele>387</ele>
        <time>2012-09-22T07:45:27Z</time>
      </trkpt>
      <trkpt lat="47.32785" lon="4.9486">
        <ele>384</ele>
        <time>2012-09-22T07:45:30Z</time>
      </trkpt>
      <trkpt lat="47.32789" lon="4.94855">
        <ele>384</ele>
        <time>2012-09-22T07:45:34Z</time>
      </trkpt>
      <trkpt lat="47.32794" lon="4.94851">
        <ele>383</ele>
        <time>2012-09-22T07:45:37Z</time>
      </trkpt>
      <trkpt lat="47.32798" lon="4.94849">
        <ele>384</ele>
        <time>2012-09-22T07:45:40Z</time>
      </trkpt>
      <trkpt lat="47.32801" lon="4.94842">
        <ele>383</ele>
        <time>2012-09-22T07:45:43Z</time>
      </trkpt>
      <trkpt lat="47.32803" lon="4.94836">
        <ele>382</ele>
        <time>2012-09-22T07:45:46Z</time>
      </trkpt>
      <trkpt lat="47.32804" lon="4.94827">
        <ele>380</ele>
        <time>2012-09-22T07:45:50Z</time>
      </trkpt>
      <trkpt lat="47.32805" lon="4.94819">
        <ele>379</ele>
        <time>2012-09-22T07:45:54Z</time>
      </trkpt>
      <trkpt lat="47.32803" lon="4.94812">
        <ele>379</ele>
        <time>2012-09-22T07:45:59Z</time>
      </trkpt>
      <trkpt lat="47.32803" lon="4.94812">
        <ele>379</ele>
        <time>2012-09-22T07:45:59Z</time>
      </trkpt>
      <trkpt lat="47.32803" lon="4.94812">
        <ele>379</ele>
        <time>2012-09-22T07:46:01Z</time>
      </trkpt>
      <trkpt lat="47.32804" lon="4.94819">
        <ele>381</ele>
        <time>2012-09-22T07:46:07Z</time>
      </trkpt>
      <trkpt lat="47.32806" lon="4.94827">
        <ele>381</ele>
        <time>2012-09-22T07:46:11Z</time>
      </trkpt>
      <trkpt lat="47.32806" lon="4.94835">
        <ele>384</ele>
        <time>2012-09-22T07:46:16Z</time>
      </trkpt>
      <trkpt lat="47.32803" lon="4.9484">
        <ele>387</ele>
        <time>2012-09-22T07:46:20Z</time>
      </trkpt>
      <trkpt lat="47.328" lon="4.94845">
        <ele>388</ele>
        <time>2012-09-22T07:46:23Z</time>
      </trkpt>
      <trkpt lat="47.32798" lon="4.94851">
        <ele>388</ele>
        <time>2012-09-22T07:46:27Z</time>
      </trkpt>
      <trkpt lat="47.32795" lon="4.94859">
        <ele>387</ele>
        <time>2012-09-22T07:46:30Z</time>
      </trkpt>
      <trkpt lat="47.32795" lon="4.94866">
        <ele>384</ele>
        <time>2012-09-22T07:46:34Z</time>
      </trkpt>
      <trkpt lat="47.32795" lon="4.94866">
        <ele>384</ele>
        <time>2012-09-22T07:46:34Z</time>
      </trkpt>
      <trkpt lat="47.32795" lon="4.94866">
        <ele>385</ele>
        <time>2012-09-22T07:46:35Z</time>
      </trkpt>
      <trkpt lat="47.3279" lon="4.94868">
        <ele>386</ele>
        <time>2012-09-22T07:46:42Z</time>
      </trkpt>
      <trkpt lat="47.3279" lon="4.94868">
        <ele>386</ele>
        <time>2012-09-22T07:46:42Z</time>
      </trkpt>
      <trkpt lat="47.3279" lon="4.94868">
        <ele>386</ele>
        <time>2012-09-22T07:46:44Z</time>
      </trkpt>
      <trkpt lat="47.32786" lon="4.94871">
        <ele>387</ele>
        <time>2012-09-22T07:47:34Z</time>
      </trkpt>
      <trkpt lat="47.32781" lon="4.9487">
        <ele>390</ele>
        <time>2012-09-22T07:48:09Z</time>
      </trkpt>
      <trkpt lat="47.32781" lon="4.9487">
        <ele>390</ele>
        <time>2012-09-22T07:48:09Z</time>
      </trkpt>
      <trkpt lat="47.32781" lon="4.9487">
        <ele>390</ele>
        <time>2012-09-22T07:48:11Z</time>
      </trkpt>
      <trkpt lat="47.32776" lon="4.9487">
        <ele>390</ele>
        <time>2012-09-22T07:48:41Z</time>
      </trkpt>
      <trkpt lat="47.3278" lon="4.9487">
        <ele>384</ele>
        <time>2012-09-22T07:49:34Z</time>
      </trkpt>
      <trkpt lat="47.32784" lon="4.94877">
        <ele>391</ele>
        <time>2012-09-22T07:49:41Z</time>
      </trkpt>
      <trkpt lat="47.32781" lon="4.94886">
        <ele>393</ele>
        <time>2012-09-22T07:49:46Z</time>
      </trkpt>
      <trkpt lat="47.32779" lon="4.94892">
        <ele>392</ele>
        <time>2012-09-22T07:49:49Z</time>
      </trkpt>
      <trkpt lat="47.32776" lon="4.94898">
        <ele>393</ele>
        <time>2012-09-22T07:49:53Z</time>
      </trkpt>
      <trkpt lat="47.32776" lon="4.94906">
        <ele>390</ele>
        <time>2012-09-22T07:49:58Z</time>
      </trkpt>
      <trkpt lat="47.32774" lon="4.94913">
        <ele>390</ele>
        <time>2012-09-22T07:50:01Z</time>
      </trkpt>
      <trkpt lat="47.32773" lon="4.9492">
        <ele>391</ele>
        <time>2012-09-22T07:50:05Z</time>
      </trkpt>
      <trkpt lat="47.3277" lon="4.94925">
        <ele>392</ele>
        <time>2012-09-22T07:50:08Z</time>
      </trkpt>
      <trkpt lat="47.32767" lon="4.9493">
        <ele>392</ele>
        <time>2012-09-22T07:50:11Z</time>
      </trkpt>
      <trkpt lat="47.32765" lon="4.94936">
        <ele>392</ele>
        <time>2012-09-22T07:50:14Z</time>
      </trkpt>
      <trkpt lat="47.32763" lon="4.94942">
        <ele>391</ele>
        <time>2012-09-22T07:50:15Z</time>
      </trkpt>
      <trkpt lat="47.32763" lon="4.9495">
        <ele>390</ele>
        <time>2012-09-22T07:50:18Z</time>
      </trkpt>
      <trkpt lat="47.32768" lon="4.94954">
        <ele>394</ele>
        <time>2012-09-22T07:50:22Z</time>
      </trkpt>
      <trkpt lat="47.3277" lon="4.94962">
        <ele>394</ele>
        <time>2012-09-22T07:50:26Z</time>
      </trkpt>
      <trkpt lat="47.32769" lon="4.94971">
        <ele>396</ele>
        <time>2012-09-22T07:50:30Z</time>
      </trkpt>
      <trkpt lat="47.32769" lon="4.94978">
        <ele>395</ele>
        <time>2012-09-22T07:50:33Z</time>
      </trkpt>
      <trkpt lat="47.32766" lon="4.94983">
        <ele>396</ele>
        <time>2012-09-22T07:50:35Z</time>
      </trkpt>
      <trkpt lat="47.32767" lon="4.94992">
        <ele>396</ele>
        <time>2012-09-22T07:50:38Z</time>
      </trkpt>
      <trkpt lat="47.32764" lon="4.95">
        <ele>395</ele>
        <time>2012-09-22T07:50:41Z</time>
      </trkpt>
      <trkpt lat="47.32764" lon="4.95009">
        <ele>394</ele>
        <time>2012-09-22T07:50:44Z</time>
      </trkpt>
      <trkpt lat="47.3276" lon="4.95016">
        <ele>394</ele>
        <time>2012-09-22T07:50:47Z</time>
      </trkpt>
      <trkpt lat="47.32764" lon="4.9502">
        <ele>398</ele>
        <time>2012-09-22T07:50:52Z</time>
      </trkpt>
      <trkpt lat="47.32765" lon="4.95029">
        <ele>400</ele>
        <time>2012-09-22T07:50:56Z</time>
      </trkpt>
      <trkpt lat="47.32765" lon="4.95038">
        <ele>404</ele>
        <time>2012-09-22T07:51:01Z</time>
      </trkpt>
      <trkpt lat="47.32765" lon="4.95046">
        <ele>406</ele>
        <time>2012-09-22T07:51:05Z</time>
      </trkpt>
      <trkpt lat="47.32764" lon="4.95052">
        <ele>406</ele>
        <time>2012-09-22T07:51:07Z</time>
      </trkpt>
      <trkpt lat="47.32763" lon="4.9506">
        <ele>407</ele>
        <time>2012-09-22T07:51:11Z</time>
      </trkpt>
      <trkpt lat="47.32759" lon="4.95066">
        <ele>408</ele>
        <time>2012-09-22T07:51:15Z</time>
      </trkpt>
      <trkpt lat="47.32758" lon="4.95074">
        <ele>410</ele>
        <time>2012-09-22T07:51:18Z</time>
      </trkpt>
      <trkpt lat="47.32756" lon="4.95079">
        <ele>410</ele>
        <time>2012-09-22T07:51:20Z</time>
      </trkpt>
      <trkpt lat="47.32753" lon="4.95086">
        <ele>409</ele>
        <time>2012-09-22T07:51:23Z</time>
      </trkpt>
      <trkpt lat="47.3275" lon="4.95092">
        <ele>409</ele>
        <time>2012-09-22T07:51:26Z</time>
      </trkpt>
      <trkpt lat="47.32748" lon="4.95098">
        <ele>410</ele>
        <time>2012-09-22T07:51:30Z</time>
      </trkpt>
      <trkpt lat="47.32743" lon="4.95106">
        <ele>410</ele>
        <time>2012-09-22T07:51:34Z</time>
      </trkpt>
      <trkpt lat="47.32742" lon="4.95113">
        <ele>410</ele>
        <time>2012-09-22T07:51:37Z</time>
      </trkpt>
      <trkpt lat="47.3274" lon="4.95119">
        <ele>412</ele>
        <time>2012-09-22T07:51:41Z</time>
      </trkpt>
      <trkpt lat="47.3274" lon="4.95127">
        <ele>416</ele>
        <time>2012-09-22T07:51:47Z</time>
      </trkpt>
      <trkpt lat="47.32742" lon="4.95133">
        <ele>418</ele>
        <time>2012-09-22T07:51:50Z</time>
      </trkpt>
      <trkpt lat="47.32736" lon="4.95138">
        <ele>419</ele>
        <time>2012-09-22T07:51:54Z</time>
      </trkpt>
      <trkpt lat="47.32735" lon="4.95144">
        <ele>419</ele>
        <time>2012-09-22T07:51:57Z</time>
      </trkpt>
      <trkpt lat="47.32732" lon="4.95152">
        <ele>420</ele>
        <time>2012-09-22T07:52:01Z</time>
      </trkpt>
      <trkpt lat="47.32729" lon="4.95158">
        <ele>420</ele>
        <time>2012-09-22T07:52:05Z</time>
      </trkpt>
      <trkpt lat="47.32728" lon="4.95164">
        <ele>422</ele>
        <time>2012-09-22T07:52:09Z</time>
      </trkpt>
      <trkpt lat="47.32729" lon="4.95171">
        <ele>423</ele>
        <time>2012-09-22T07:52:13Z</time>
      </trkpt>
      <trkpt lat="47.32726" lon="4.95177">
        <ele>425</ele>
        <time>2012-09-22T07:52:17Z</time>
      </trkpt>
      <trkpt lat="47.32721" lon="4.95181">
        <ele>425</ele>
        <time>2012-09-22T07:52:19Z</time>
      </trkpt>
      <trkpt lat="47.32718" lon="4.95187">
        <ele>425</ele>
        <time>2012-09-22T07:52:22Z</time>
      </trkpt>
      <trkpt lat="47.32713" lon="4.9519">
        <ele>426</ele>
        <time>2012-09-22T07:52:25Z</time>
      </trkpt>
      <trkpt lat="47.32711" lon="4.95197">
        <ele>428</ele>
        <time>2012-09-22T07:52:32Z</time>
      </trkpt>
      <trkpt lat="47.32707" lon="4.95203">
        <ele>428</ele>
        <time>2012-09-22T07:52:36Z</time>
      </trkpt>
      <trkpt lat="47.32704" lon="4.9521">
        <ele>430</ele>
        <time>2012-09-22T07:52:42Z</time>
      </trkpt>
      <trkpt lat="47.32704" lon="4.95218">
        <ele>432</ele>
        <time>2012-09-22T07:52:47Z</time>
      </trkpt>
      <trkpt lat="47.32704" lon="4.95226">
        <ele>434</ele>
        <time>2012-09-22T07:52:53Z</time>
      </trkpt>
      <trkpt lat="47.32701" lon="4.95232">
        <ele>435</ele>
        <time>2012-09-22T07:52:56Z</time>
      </trkpt>
      <trkpt lat="47.327" lon="4.95238">
        <ele>436</ele>
        <time>2012-09-22T07:52:58Z</time>
      </trkpt>
      <trkpt lat="47.32694" lon="4.95244">
        <ele>436</ele>
        <time>2012-09-22T07:53:01Z</time>
      </trkpt>
      <trkpt lat="47.3269" lon="4.95248">
        <ele>436</ele>
        <time>2012-09-22T07:53:03Z</time>
      </trkpt>
      <trkpt lat="47.32689" lon="4.95256">
        <ele>438</ele>
        <time>2012-09-22T07:53:07Z</time>
      </trkpt>
      <trkpt lat="47.32686" lon="4.95263">
        <ele>439</ele>
        <time>2012-09-22T07:53:12Z</time>
      </trkpt>
      <trkpt lat="47.32682" lon="4.95268">
        <ele>438</ele>
        <time>2012-09-22T07:53:14Z</time>
      </trkpt>
      <trkpt lat="47.32678" lon="4.95273">
        <ele>437</ele>
        <time>2012-09-22T07:53:16Z</time>
      </trkpt>
      <trkpt lat="47.32673" lon="4.95278">
        <ele>437</ele>
        <time>2012-09-22T07:53:19Z</time>
      </trkpt>
      <trkpt lat="47.3267" lon="4.95283">
        <ele>437</ele>
        <time>2012-09-22T07:53:24Z</time>
      </trkpt>
      <trkpt lat="47.32667" lon="4.95288">
        <ele>438</ele>
        <time>2012-09-22T07:53:29Z</time>
      </trkpt>
      <trkpt lat="47.32666" lon="4.95296">
        <ele>437</ele>
        <time>2012-09-22T07:53:32Z</time>
      </trkpt>
      <trkpt lat="47.32663" lon="4.95302">
        <ele>438</ele>
        <time>2012-09-22T07:53:35Z</time>
      </trkpt>
      <trkpt lat="47.32662" lon="4.95308">
        <ele>438</ele>
        <time>2012-09-22T07:53:39Z</time>
      </trkpt>
      <trkpt lat="47.32662" lon="4.95316">
        <ele>437</ele>
        <time>2012-09-22T07:53:44Z</time>
      </trkpt>
      <trkpt lat="47.32659" lon="4.95322">
        <ele>439</ele>
        <time>2012-09-22T07:53:48Z</time>
      </trkpt>
      <trkpt lat="47.32655" lon="4.95328">
        <ele>441</ele>
        <time>2012-09-22T07:53:54Z</time>
      </trkpt>
      <trkpt lat="47.32653" lon="4.95334">
        <ele>443</ele>
        <time>2012-09-22T07:53:59Z</time>
      </trkpt>
      <trkpt lat="47.32652" lon="4.95343">
        <ele>444</ele>
        <time>2012-09-22T07:54:04Z</time>
      </trkpt>
      <trkpt lat="47.32649" lon="4.95349">
        <ele>445</ele>
        <time>2012-09-22T07:54:07Z</time>
      </trkpt>
      <trkpt lat="47.32646" lon="4.95355">
        <ele>445</ele>
        <time>2012-09-22T07:54:10Z</time>
      </trkpt>
      <trkpt lat="47.32643" lon="4.95361">
        <ele>446</ele>
        <time>2012-09-22T07:54:13Z</time>
      </trkpt>
      <trkpt lat="47.3264" lon="4.95368">
        <ele>446</ele>
        <time>2012-09-22T07:54:16Z</time>
      </trkpt>
      <trkpt lat="47.32638" lon="4.95374">
        <ele>446</ele>
        <time>2012-09-22T07:54:19Z</time>
      </trkpt>
      <trkpt lat="47.32637" lon="4.95381">
        <ele>442</ele>
        <time>2012-09-22T07:54:24Z</time>
      </trkpt>
      <trkpt lat="47.32634" lon="4.95388">
        <ele>441</ele>
        <time>2012-09-22T07:54:29Z</time>
      </trkpt>
      <trkpt lat="47.32632" lon="4.95394">
        <ele>441</ele>
        <time>2012-09-22T07:54:33Z</time>
      </trkpt>
      <trkpt lat="47.3263" lon="4.954">
        <ele>442</ele>
        <time>2012-09-22T07:54:36Z</time>
      </trkpt>
      <trkpt lat="47.32629" lon="4.95407">
        <ele>443</ele>
        <time>2012-09-22T07:54:39Z</time>
      </trkpt>
      <trkpt lat="47.32628" lon="4.95414">
        <ele>444</ele>
        <time>2012-09-22T07:54:43Z</time>
      </trkpt>
      <trkpt lat="47.32627" lon="4.95421">
        <ele>445</ele>
        <time>2012-09-22T07:54:47Z</time>
      </trkpt>
      <trkpt lat="47.32625" lon="4.95429">
        <ele>446</ele>
        <time>2012-09-22T07:54:51Z</time>
      </trkpt>
      <trkpt lat="47.32624" lon="4.95436">
        <ele>447</ele>
        <time>2012-09-22T07:54:54Z</time>
      </trkpt>
      <trkpt lat="47.32622" lon="4.95442">
        <ele>447</ele>
        <time>2012-09-22T07:54:57Z</time>
      </trkpt>
      <trkpt lat="47.32621" lon="4.95448">
        <ele>448</ele>
        <time>2012-09-22T07:55:00Z</time>
      </trkpt>
      <trkpt lat="47.3262" lon="4.95455">
        <ele>448</ele>
        <time>2012-09-22T07:55:03Z</time>
      </trkpt>
      <trkpt lat="47.32619" lon="4.95461">
        <ele>448</ele>
        <time>2012-09-22T07:55:06Z</time>
      </trkpt>
      <trkpt lat="47.32619" lon="4.95469">
        <ele>449</ele>
        <time>2012-09-22T07:55:10Z</time>
      </trkpt>
      <trkpt lat="47.32617" lon="4.95476">
        <ele>451</ele>
        <time>2012-09-22T07:55:15Z</time>
      </trkpt>
      <trkpt lat="47.32617" lon="4.95483">
        <ele>452</ele>
        <time>2012-09-22T07:55:18Z</time>
      </trkpt>
      <trkpt lat="47.32617" lon="4.95491">
        <ele>451</ele>
        <time>2012-09-22T07:55:21Z</time>
      </trkpt>
      <trkpt lat="47.32617" lon="4.95498">
        <ele>451</ele>
        <time>2012-09-22T07:55:24Z</time>
      </trkpt>
      <trkpt lat="47.32617" lon="4.95505">
        <ele>450</ele>
        <time>2012-09-22T07:55:28Z</time>
      </trkpt>
      <trkpt lat="47.32614" lon="4.95512">
        <ele>450</ele>
        <time>2012-09-22T07:55:32Z</time>
      </trkpt>
      <trkpt lat="47.32614" lon="4.95519">
        <ele>451</ele>
        <time>2012-09-22T07:55:36Z</time>
      </trkpt>
      <trkpt lat="47.32613" lon="4.95527">
        <ele>451</ele>
        <time>2012-09-22T07:55:41Z</time>
      </trkpt>
      <trkpt lat="47.32614" lon="4.95534">
        <ele>451</ele>
        <time>2012-09-22T07:55:45Z</time>
      </trkpt>
      <trkpt lat="47.32614" lon="4.95541">
        <ele>451</ele>
        <time>2012-09-22T07:55:54Z</time>
      </trkpt>
      <trkpt lat="47.32611" lon="4.95546">
        <ele>451</ele>
        <time>2012-09-22T07:56:00Z</time>
      </trkpt>
      <trkpt lat="47.32607" lon="4.9555">
        <ele>451</ele>
        <time>2012-09-22T07:56:08Z</time>
      </trkpt>
      <trkpt lat="47.32606" lon="4.95557">
        <ele>451</ele>
        <time>2012-09-22T07:56:16Z</time>
      </trkpt>
      <trkpt lat="47.32606" lon="4.95565">
        <ele>452</ele>
        <time>2012-09-22T07:56:23Z</time>
      </trkpt>
      <trkpt lat="47.32606" lon="4.95558">
        <ele>452</ele>
        <time>2012-09-22T07:56:30Z</time>
      </trkpt>
      <trkpt lat="47.32607" lon="4.95551">
        <ele>453</ele>
        <time>2012-09-22T07:56:37Z</time>
      </trkpt>
      <trkpt lat="47.32609" lon="4.95544">
        <ele>453</ele>
        <time>2012-09-22T07:56:43Z</time>
      </trkpt>
      <trkpt lat="47.3261" lon="4.95537">
        <ele>453</ele>
        <time>2012-09-22T07:56:50Z</time>
      </trkpt>
      <trkpt lat="47.32612" lon="4.9553">
        <ele>452</ele>
        <time>2012-09-22T07:56:56Z</time>
      </trkpt>
      <trkpt lat="47.32614" lon="4.95536">
        <ele>451</ele>
        <time>2012-09-22T07:57:15Z</time>
      </trkpt>
      <trkpt lat="47.32614" lon="4.95543">
        <ele>453</ele>
        <time>2012-09-22T07:57:36Z</time>
      </trkpt>
      <trkpt lat="47.32612" lon="4.9555">
        <ele>453</ele>
        <time>2012-09-22T07:57:43Z</time>
      </trkpt>
      <trkpt lat="47.3261" lon="4.95556">
        <ele>453</ele>
        <time>2012-09-22T07:57:52Z</time>
      </trkpt>
      <trkpt lat="47.32609" lon="4.95563">
        <ele>454</ele>
        <time>2012-09-22T07:58:06Z</time>
      </trkpt>
      <trkpt lat="47.32608" lon="4.9557">
        <ele>454</ele>
        <time>2012-09-22T07:58:12Z</time>
      </trkpt>
      <trkpt lat="47.32608" lon="4.95577">
        <ele>454</ele>
        <time>2012-09-22T07:58:17Z</time>
      </trkpt>
      <trkpt lat="47.32606" lon="4.95584">
        <ele>454</ele>
        <time>2012-09-22T07:58:22Z</time>
      </trkpt>
      <trkpt lat="47.32604" lon="4.95591">
        <ele>454</ele>
        <time>2012-09-22T07:58:27Z</time>
      </trkpt>
      <trkpt lat="47.32603" lon="4.95599">
        <ele>454</ele>
        <time>2012-09-22T07:58:37Z</time>
      </trkpt>
      <trkpt lat="47.32601" lon="4.95606">
        <ele>455</ele>
        <time>2012-09-22T07:58:42Z</time>
      </trkpt>
      <trkpt lat="47.326" lon="4.95614">
        <ele>455</ele>
        <time>2012-09-22T07:58:47Z</time>
      </trkpt>
      <trkpt lat="47.32598" lon="4.9562">
        <ele>455</ele>
        <time>2012-09-22T07:58:51Z</time>
      </trkpt>
      <trkpt lat="47.32596" lon="4.95627">
        <ele>455</ele>
        <time>2012-09-22T07:58:55Z</time>
      </trkpt>
      <trkpt lat="47.32595" lon="4.95634">
        <ele>455</ele>
        <time>2012-09-22T07:58:59Z</time>
      </trkpt>
      <trkpt lat="47.32593" lon="4.95642">
        <ele>456</ele>
        <time>2012-09-22T07:59:04Z</time>
      </trkpt>
      <trkpt lat="47.3259" lon="4.95648">
        <ele>456</ele>
        <time>2012-09-22T07:59:08Z</time>
      </trkpt>
      <trkpt lat="47.32588" lon="4.95654">
        <ele>456</ele>
        <time>2012-09-22T07:59:12Z</time>
      </trkpt>
      <trkpt lat="47.32586" lon="4.95661">
        <ele>455</ele>
        <time>2012-09-22T07:59:16Z</time>
      </trkpt>
      <trkpt lat="47.32586" lon="4.9567">
        <ele>455</ele>
        <time>2012-09-22T07:59:21Z</time>
      </trkpt>
      <trkpt lat="47.32585" lon="4.95676">
        <ele>455</ele>
        <time>2012-09-22T07:59:25Z</time>
      </trkpt>
      <trkpt lat="47.32584" lon="4.95683">
        <ele>456</ele>
        <time>2012-09-22T07:59:30Z</time>
      </trkpt>
      <trkpt lat="47.32583" lon="4.95691">
        <ele>457</ele>
        <time>2012-09-22T07:59:35Z</time>
      </trkpt>
      <trkpt lat="47.32581" lon="4.95698">
        <ele>456</ele>
        <time>2012-09-22T07:59:39Z</time>
      </trkpt>
      <trkpt lat="47.3258" lon="4.95704">
        <ele>455</ele>
        <time>2012-09-22T07:59:43Z</time>
      </trkpt>
      <trkpt lat="47.32579" lon="4.95711">
        <ele>455</ele>
        <time>2012-09-22T07:59:48Z</time>
      </trkpt>
      <trkpt lat="47.32578" lon="4.95718">
        <ele>456</ele>
        <time>2012-09-22T07:59:52Z</time>
      </trkpt>
      <trkpt lat="47.32576" lon="4.95726">
        <ele>455</ele>
        <time>2012-09-22T07:59:57Z</time>
      </trkpt>
      <trkpt lat="47.32575" lon="4.95732">
        <ele>455</ele>
        <time>2012-09-22T08:00:01Z</time>
      </trkpt>
      <trkpt lat="47.32572" lon="4.95739">
        <ele>455</ele>
        <time>2012-09-22T08:00:13Z</time>
      </trkpt>
      <trkpt lat="47.3257" lon="4.95746">
        <ele>455</ele>
        <time>2012-09-22T08:00:17Z</time>
      </trkpt>
      <trkpt lat="47.32569" lon="4.95754">
        <ele>455</ele>
        <time>2012-09-22T08:00:22Z</time>
      </trkpt>
      <trkpt lat="47.32568" lon="4.9576">
        <ele>456</ele>
        <time>2012-09-22T08:00:26Z</time>
      </trkpt>
      <trkpt lat="47.32566" lon="4.95767">
        <ele>455</ele>
        <time>2012-09-22T08:00:30Z</time>
      </trkpt>
      <trkpt lat="47.32565" lon="4.95774">
        <ele>455</ele>
        <time>2012-09-22T08:00:34Z</time>
      </trkpt>
      <trkpt lat="47.32564" lon="4.95781">
        <ele>455</ele>
        <time>2012-09-22T08:00:39Z</time>
      </trkpt>
      <trkpt lat="47.32563" lon="4.95789">
        <ele>456</ele>
        <time>2012-09-22T08:00:44Z</time>
      </trkpt>
      <trkpt lat="47.32561" lon="4.95796">
        <ele>456</ele>
        <time>2012-09-22T08:00:48Z</time>
      </trkpt>
      <trkpt lat="47.3256" lon="4.95804">
        <ele>456</ele>
        <time>2012-09-22T08:00:53Z</time>
      </trkpt>
      <trkpt lat="47.32558" lon="4.95811">
        <ele>456</ele>
        <time>2012-09-22T08:01:00Z</time>
      </trkpt>
      <trkpt lat="47.32556" lon="4.95818">
        <ele>457</ele>
        <time>2012-09-22T08:01:07Z</time>
      </trkpt>
      <trkpt lat="47.32552" lon="4.95822">
        <ele>457</ele>
        <time>2012-09-22T08:01:12Z</time>
      </trkpt>
      <trkpt lat="47.32548" lon="4.95828">
        <ele>456</ele>
        <time>2012-09-22T08:01:16Z</time>
      </trkpt>
      <trkpt lat="47.32546" lon="4.95834">
        <ele>456</ele>
        <time>2012-09-22T08:01:20Z</time>
      </trkpt>
      <trkpt lat="47.32544" lon="4.95841">
        <ele>456</ele>
        <time>2012-09-22T08:01:26Z</time>
      </trkpt>
      <trkpt lat="47.32543" lon="4.95848">
        <ele>456</ele>
        <time>2012-09-22T08:01:30Z</time>
      </trkpt>
      <trkpt lat="47.32542" lon="4.95854">
        <ele>456</ele>
        <time>2012-09-22T08:01:35Z</time>
      </trkpt>
      <trkpt lat="47.32537" lon="4.95856">
        <ele>454</ele>
        <time>2012-09-22T08:01:43Z</time>
      </trkpt>
      <trkpt lat="47.32537" lon="4.95856">
        <ele>454</ele>
        <time>2012-09-22T08:01:43Z</time>
      </trkpt>
      <trkpt lat="47.32537" lon="4.95856">
        <ele>454</ele>
        <time>2012-09-22T08:01:44Z</time>
      </trkpt>
    </trkseg>
  </trk>
</gpx>